Darstellungsparameter: Aktuell verwendete Einstellungen:
Skalierung der Graphiken ... ?
xyx+y,   Skalierungsfaktor:      Skalierung: Modus: x, Faktor: 1
Darstellungszeitraum ... ?
Vom - - bis: - -   Zeitraum: 18.08.2008 - 17.11.2008
Min/Max/Avg-Anzeige ... ?
Zeige MMA aktuell
Zeige MMA Monat
Zeige MMA alles
Zeige --A aktuell
Zeige --A Monat
Zeige --A alles
Keine MMA-Anzeige
MMA:
Average (ber die Originaldaten)
MMA-Basis: 17.04.2019 - 19.05.2019
Quicknavigation für Darstellung... ?
Tage:      1T, 2T, 3T, 5T -1T -2T -3T -5T +1T +2T +3T +5T
Wochen: 1W, 2W, 3W -1W -2W -3W +1W +2W +3W
Monate: 1M, 3M, 6M -1M -3M -6M +1M +3M +6M
Jahre:    1J, 3J, 5J, 10J -1J -3J -5J -10J +1J +3J +5J +10J
Nutze für die Darstellung ... ?
Originaldaten oder Mittelwerte auf ...
Stundenbasis Tagesbasis Wochenbasis
Monatsbasis Jahresbasis      Datenbasis: Original-Daten
Darstellen als:
Statistik (Auto) Statistik J:M      Darstellung:
Zur Graphik,    zurück zur Übersicht aller Sensoren.
 
Tabellarische Datenbersicht: ?
 
Sensor: Nr:Datum:Temp:Abs-Feuchte:Windchill:Wind:
Aussen-T/F 1 18-08-2008 00:00:02 16.1 C 11.24 g/m*3 16.1 C 0 km/h
2 18-08-2008 00:12:02 16 C 11.17 g/m*3 16 C 0 km/h
3 18-08-2008 00:24:02 16.1 C 11.24 g/m*3 16.1 C 0 km/h
4 18-08-2008 00:36:03 16.1 C 11.24 g/m*3 16.1 C 0 km/h
5 18-08-2008 00:48:03 16.4 C 11.45 g/m*3 16.4 C 0 km/h
6 18-08-2008 01:00:03 16.5 C 11.37 g/m*3 16.5 C 0 km/h
7 18-08-2008 01:12:03 16.5 C 11.37 g/m*3 16.5 C 0 km/h
8 18-08-2008 01:24:03 16.6 C 11.44 g/m*3 16.6 C 0 km/h
9 18-08-2008 01:36:03 16.5 C 11.37 g/m*3 16.5 C 0 km/h
10 18-08-2008 01:48:03 16.6 C 11.44 g/m*3 16.6 C 0 km/h
11 18-08-2008 02:00:03 16.6 C 11.44 g/m*3 16.6 C 0 km/h
12 18-08-2008 02:12:03 16.6 C 11.44 g/m*3 16.6 C 0 km/h
13 18-08-2008 02:24:03 16.6 C 11.44 g/m*3 16.6 C 0 km/h
14 18-08-2008 02:36:03 16.7 C 11.51 g/m*3 16.7 C 0 km/h
15 18-08-2008 02:48:03 16.4 C 11.31 g/m*3 16.4 C 0 km/h
16 18-08-2008 03:00:03 16.3 C 11.38 g/m*3 16.3 C 0 km/h
17 18-08-2008 03:12:03 16.2 C 11.31 g/m*3 16.2 C 0 km/h
18 18-08-2008 03:24:03 16 C 11.17 g/m*3 16 C 0 km/h
19 18-08-2008 03:36:03 15.8 C 11.31 g/m*3 15.8 C 0 km/h
20 18-08-2008 03:48:03 15.5 C 11.1 g/m*3 15.5 C 0 km/h
21 18-08-2008 04:00:03 15.4 C 11.04 g/m*3 15.4 C 0 km/h
22 18-08-2008 04:12:03 15.4 C 11.17 g/m*3 15.4 C 0 km/h
23 18-08-2008 04:24:03 15.4 C 11.17 g/m*3 15.4 C 0 km/h
24 18-08-2008 04:36:03 15.4 C 11.17 g/m*3 15.4 C 0 km/h
25 18-08-2008 04:48:04 15.5 C 11.24 g/m*3 15.5 C 0 km/h
Sensor: Nr:Datum:Temp:Abs-Feuchte:Windchill:Wind:
Aussen-T/F 26 18-08-2008 05:00:04 15.5 C 11.24 g/m*3 15.5 C 0 km/h
27 18-08-2008 05:12:04 15.7 C 11.51 g/m*3 15.7 C 0 km/h
28 18-08-2008 05:24:04 15.8 C 11.44 g/m*3 15.8 C 0 km/h
29 18-08-2008 05:36:04 15.7 C 11.24 g/m*3 15.7 C 0 km/h
30 18-08-2008 05:48:04 15.8 C 11.44 g/m*3 15.8 C 0 km/h
31 18-08-2008 06:00:04 15.9 C 11.38 g/m*3 15.9 C 0 km/h
32 18-08-2008 06:12:04 15.9 C 11.38 g/m*3 15.9 C 0 km/h
33 18-08-2008 06:24:04 15.5 C 11.1 g/m*3 15.5 C 0 km/h
34 18-08-2008 06:36:04 15.3 C 10.97 g/m*3 15.3 C 0 km/h
35 18-08-2008 06:48:02 15.2 C 11.03 g/m*3 15.2 C 0 km/h
36 18-08-2008 07:00:03 15.2 C 11.03 g/m*3 15.2 C 0 km/h
37 18-08-2008 07:12:02 15.2 C 11.16 g/m*3 15.2 C 0 km/h
38 18-08-2008 07:24:02 15.2 C 11.16 g/m*3 15.2 C 0 km/h
39 18-08-2008 07:36:02 15.2 C 11.29 g/m*3 15.2 C 0 km/h
40 18-08-2008 07:48:02 15.3 C 11.36 g/m*3 15.3 C 0 km/h
41 18-08-2008 08:00:02 15.5 C 11.5 g/m*3 15.5 C 0 km/h
42 18-08-2008 08:12:01 15.9 C 11.65 g/m*3 15.9 C 0 km/h
43 18-08-2008 08:24:02 16.4 C 11.72 g/m*3 16.4 C 0 km/h
44 18-08-2008 08:36:01 16.8 C 11.72 g/m*3 16.8 C 0 km/h
45 18-08-2008 08:48:02 17.1 C 11.5 g/m*3 17.1 C 0 km/h
46 18-08-2008 09:00:02 17.9 C 11.76 g/m*3 17.9 C 0 km/h
47 18-08-2008 09:12:01 18.3 C 11.57 g/m*3 18.3 C 0 km/h
48 18-08-2008 09:24:01 18.8 C 11.76 g/m*3 18.8 C 0 km/h
49 18-08-2008 09:36:01 19.6 C 11.65 g/m*3 19.6 C 0 km/h
50 18-08-2008 09:48:02 20 C 10.89 g/m*3 20 C 0 km/h
Sensor: Nr:Datum:Temp:Abs-Feuchte:Windchill:Wind:
Aussen-T/F 51 18-08-2008 10:00:02 20.1 C 10.95 g/m*3 20.1 C 0 km/h
52 18-08-2008 10:12:02 20.4 C 10.79 g/m*3 20.4 C 0 km/h
53 18-08-2008 10:24:02 20.6 C 11.1 g/m*3 20.6 C 0 km/h
54 18-08-2008 10:36:02 21 C 10.62 g/m*3 21 C 0 km/h
55 18-08-2008 10:48:02 21.3 C 10.44 g/m*3 21.3 C 0 km/h
56 18-08-2008 11:00:02 21.6 C 10.24 g/m*3 21.6 C 0 km/h
57 18-08-2008 11:12:02 22 C 10.48 g/m*3 22 C 0 km/h
58 18-08-2008 11:24:03 22.5 C 10.39 g/m*3 22.5 C 0 km/h
59 18-08-2008 11:36:02 22.7 C 9.7 g/m*3 22.7 C 0 km/h
60 18-08-2008 11:48:02 23.2 C 9.77 g/m*3 23.2 C 0 km/h
61 18-08-2008 12:00:02 23.8 C 9.46 g/m*3 23.8 C 0 km/h
62 18-08-2008 12:12:02 23.9 C 9.52 g/m*3 23.9 C 0 km/h
63 18-08-2008 12:24:02 23.5 C 9.52 g/m*3 23.5 C 0 km/h
64 18-08-2008 12:36:02 23.6 C 9.36 g/m*3 23.6 C 0 km/h
65 18-08-2008 12:48:01 23.5 C 9.31 g/m*3 23.5 C 0 km/h
66 18-08-2008 13:00:01 23.7 C 9.41 g/m*3 23.7 C 0 km/h
67 18-08-2008 13:12:02 24.1 C 9.41 g/m*3 24.1 C 0 km/h
68 18-08-2008 13:24:01 24.8 C 9.1 g/m*3 24.8 C 0 km/h
69 18-08-2008 13:36:02 25.5 C 9 g/m*3 25.5 C 0 km/h
70 18-08-2008 13:48:02 25.9 C 8.72 g/m*3 25.9 C 0 km/h
71 18-08-2008 14:00:02 24.7 C 8.6 g/m*3 24.7 C 0 km/h
72 18-08-2008 14:12:02 24.6 C 8.78 g/m*3 24.6 C 0 km/h
73 18-08-2008 14:24:02 23.9 C 9.3 g/m*3 23.9 C 0 km/h
74 18-08-2008 14:36:02 24.7 C 9.05 g/m*3 24.7 C 0 km/h
75 18-08-2008 14:48:01 25.3 C 8.66 g/m*3 25.3 C 0 km/h
Sensor: Nr:Datum:Temp:Abs-Feuchte:Windchill:Wind:
Aussen-T/F 76 18-08-2008 15:00:01 25.4 C 8.48 g/m*3 25.4 C 0 km/h
77 18-08-2008 15:12:01 25.5 C 8.29 g/m*3 25.5 C 0 km/h
78 18-08-2008 15:24:01 25.3 C 8.19 g/m*3 25.3 C 0 km/h
79 18-08-2008 15:36:02 25.2 C 8.15 g/m*3 25.2 C 0 km/h
80 18-08-2008 15:48:02 25.1 C 8.1 g/m*3 25.1 C 0 km/h
81 18-08-2008 16:00:02 25.4 C 8.71 g/m*3 25.4 C 0 km/h
82 18-08-2008 16:12:02 25.7 C 9.1 g/m*3 25.7 C 0 km/h
83 18-08-2008 16:24:02 26.2 C 8.62 g/m*3 26.2 C 0 km/h
84 18-08-2008 16:36:02 26.4 C 8.46 g/m*3 26.4 C 0 km/h
85 18-08-2008 16:48:02 27.9 C 8.11 g/m*3 27.9 C 0 km/h
86 18-08-2008 17:00:02 29 C 7.76 g/m*3 29 C 0 km/h
87 18-08-2008 17:12:02 29.8 C 7.2 g/m*3 29.8 C 0 km/h
88 18-08-2008 17:24:02 29.4 C 7.34 g/m*3 29.4 C 0 km/h
89 18-08-2008 17:36:02 28.6 C 7.03 g/m*3 28.6 C 0 km/h
90 18-08-2008 17:48:02 29.7 C 6.86 g/m*3 29.7 C 0 km/h
91 18-08-2008 18:00:02 30 C 6.97 g/m*3 30 C 0 km/h
92 18-08-2008 18:12:03 29.6 C 6.83 g/m*3 29.6 C 0 km/h
93 18-08-2008 18:24:02 28.5 C 6.99 g/m*3 28.5 C 0 km/h
94 18-08-2008 18:36:03 28.9 C 7.14 g/m*3 28.9 C 0 km/h
95 18-08-2008 18:48:02 28 C 7.07 g/m*3 28 C 0 km/h
96 18-08-2008 19:00:03 28 C 7.34 g/m*3 28 C 0 km/h
97 18-08-2008 19:12:01 28 C 7.34 g/m*3 28 C 0 km/h
98 18-08-2008 19:24:02 27.5 C 7.67 g/m*3 27.5 C 0 km/h
99 18-08-2008 19:36:01 27.6 C 7.71 g/m*3 27.6 C 0 km/h
100 18-08-2008 19:48:02 28.2 C 8.25 g/m*3 28.2 C 0 km/h
Sensor: Nr:Datum:Temp:Abs-Feuchte:Windchill:Wind:
Aussen-T/F 101 18-08-2008 20:00:02 27.5 C 8.2 g/m*3 27.5 C 0 km/h
102 18-08-2008 20:12:01 26.3 C 8.66 g/m*3 26.3 C 0 km/h
103 18-08-2008 20:24:02 25.3 C 8.9 g/m*3 25.3 C 0 km/h
104 18-08-2008 20:36:01 24.6 C 9.23 g/m*3 24.6 C 0 km/h
105 18-08-2008 20:48:03 24.1 C 9.19 g/m*3 24.1 C 0 km/h
106 18-08-2008 21:00:03 23.7 C 9.63 g/m*3 23.7 C 0 km/h
107 18-08-2008 21:12:02 23.4 C 9.25 g/m*3 23.4 C 0 km/h
108 18-08-2008 21:24:03 23 C 9.45 g/m*3 23 C 0 km/h
109 18-08-2008 21:36:02 22.8 C 9.35 g/m*3 22.8 C 0 km/h
110 18-08-2008 21:48:02 22.6 C 9.64 g/m*3 22.6 C 0 km/h
111 18-08-2008 22:00:02 22.4 C 9.33 g/m*3 22.4 C 0 km/h
112 18-08-2008 22:13:01 22.4 C 9.33 g/m*3 22.4 C 0 km/h
113 18-08-2008 22:25:01 22.3 C 9.48 g/m*3 22.3 C 0 km/h
114 18-08-2008 22:37:01 22.1 C 9.56 g/m*3 22.1 C 0 km/h
115 18-08-2008 22:49:01 22 C 9.32 g/m*3 22 C 0 km/h
116 18-08-2008 23:01:01 21.9 C 9.46 g/m*3 21.9 C 0 km/h
117 18-08-2008 23:13:01 22 C 9.12 g/m*3 22 C 0 km/h
118 18-08-2008 23:25:01 21.8 C 9.78 g/m*3 21.8 C 0 km/h
119 18-08-2008 23:37:01 21.7 C 9.92 g/m*3 21.7 C 0 km/h
120 18-08-2008 23:49:01 21.6 C 9.86 g/m*3 21.6 C 0 km/h
121 19-08-2008 00:01:01 21.8 C 9.98 g/m*3 21.8 C 0 km/h
122 19-08-2008 00:13:01 22 C 10.29 g/m*3 22 C 0 km/h
123 19-08-2008 00:25:02 20.7 C 11.34 g/m*3 20.7 C 0 km/h
124 19-08-2008 00:37:02 20.5 C 11.74 g/m*3 20.5 C 0 km/h
125 19-08-2008 00:49:02 20.5 C 11.92 g/m*3 20.5 C 0 km/h
Sensor: Nr:Datum:Temp:Abs-Feuchte:Windchill:Wind:
Aussen-T/F 126 19-08-2008 01:01:02 20.6 C 12.17 g/m*3 20.6 C 0 km/h
127 19-08-2008 01:13:02 20.2 C 11.89 g/m*3 20.2 C 0 km/h
128 19-08-2008 01:25:02 19.8 C 11.79 g/m*3 19.8 C 0 km/h
129 19-08-2008 01:37:02 19.7 C 11.72 g/m*3 19.7 C 0 km/h
130 19-08-2008 01:49:02 19.5 C 11.75 g/m*3 19.5 C 0 km/h
131 19-08-2008 02:01:02 19.5 C 11.75 g/m*3 19.5 C 0 km/h
132 19-08-2008 02:13:02 19.2 C 11.54 g/m*3 19.2 C 0 km/h
133 19-08-2008 02:25:02 19.3 C 11.78 g/m*3 19.3 C 0 km/h
134 19-08-2008 02:37:02 19.1 C 11.64 g/m*3 19.1 C 0 km/h
135 19-08-2008 02:49:02 18.9 C 11.83 g/m*3 18.9 C 0 km/h
136 19-08-2008 03:01:02 18.7 C 11.69 g/m*3 18.7 C 0 km/h
137 19-08-2008 03:13:02 18.8 C 11.92 g/m*3 18.8 C 0 km/h
138 19-08-2008 03:25:02 19 C 11.9 g/m*3 19 C 0 km/h
139 19-08-2008 03:37:02 18.9 C 11.83 g/m*3 18.9 C 0 km/h
140 19-08-2008 03:49:02 18.7 C 11.69 g/m*3 18.7 C 0 km/h
141 19-08-2008 04:01:02 18.6 C 11.78 g/m*3 18.6 C 0 km/h
142 19-08-2008 04:13:02 18.5 C 11.71 g/m*3 18.5 C 0 km/h
143 19-08-2008 04:25:03 18.5 C 11.71 g/m*3 18.5 C 0 km/h
144 19-08-2008 04:37:03 18.9 C 11.34 g/m*3 18.9 C 0 km/h
145 19-08-2008 04:49:03 19.1 C 10.66 g/m*3 19.1 C 0 km/h
146 19-08-2008 05:01:03 19.2 C 10.72 g/m*3 19.2 C 0 km/h
147 19-08-2008 05:13:03 19 C 10.59 g/m*3 19 C 0 km/h
148 19-08-2008 05:25:03 18.8 C 10.79 g/m*3 18.8 C 0 km/h
149 19-08-2008 05:37:03 18.6 C 10.82 g/m*3 18.6 C 0 km/h
150 19-08-2008 05:49:03 18.3 C 10.79 g/m*3 18.3 C 0 km/h
Sensor: Nr:Datum:Temp:Abs-Feuchte:Windchill:Wind:
Aussen-T/F 151 19-08-2008 06:01:03 18.3 C 10.79 g/m*3 18.3 C 0 km/h
152 19-08-2008 06:13:03 18.3 C 10.32 g/m*3 18.3 C 0 km/h
153 19-08-2008 06:25:03 18.5 C 9.97 g/m*3 18.5 C 0 km/h
154 19-08-2008 06:37:03 18.7 C 9.77 g/m*3 18.7 C 0 km/h
155 19-08-2008 06:49:03 18.5 C 9.65 g/m*3 18.5 C 0 km/h
156 19-08-2008 07:01:02 18.5 C 9.49 g/m*3 18.5 C 0 km/h
157 19-08-2008 07:13:02 18.4 C 9.59 g/m*3 18.4 C 0 km/h
158 19-08-2008 07:25:02 18.2 C 9.64 g/m*3 18.2 C 0 km/h
159 19-08-2008 07:37:02 18 C 9.68 g/m*3 18 C 0 km/h
160 19-08-2008 07:49:02 18.5 C 9.49 g/m*3 18.5 C 0 km/h
161 19-08-2008 08:01:03 19 C 9.29 g/m*3 19 C 0 km/h
162 19-08-2008 08:13:03 19.4 C 8.84 g/m*3 19.4 C 0 km/h
163 19-08-2008 08:25:02 19.5 C 8.89 g/m*3 19.5 C 0 km/h
164 19-08-2008 08:37:02 19.7 C 8.83 g/m*3 19.7 C 0 km/h
165 19-08-2008 08:49:02 19.9 C 8.59 g/m*3 19.9 C 0 km/h
166 19-08-2008 09:01:02 20 C 8.47 g/m*3 20 C 0 km/h
167 19-08-2008 09:13:02 20.2 C 8.57 g/m*3 20.2 C 0 km/h
168 19-08-2008 09:25:02 20.1 C 8.52 g/m*3 20.1 C 0 km/h
169 19-08-2008 09:37:02 20 C 8.47 g/m*3 20 C 0 km/h
170 19-08-2008 09:49:02 20.2 C 8.74 g/m*3 20.2 C 0 km/h
171 19-08-2008 10:01:02 20.3 C 8.62 g/m*3 20.3 C 0 km/h
172 19-08-2008 10:13:02 20.7 C 8.82 g/m*3 20.7 C 0 km/h
173 19-08-2008 10:25:02 21 C 8.61 g/m*3 21 C 0 km/h
174 19-08-2008 10:37:02 20.8 C 8.87 g/m*3 20.8 C 0 km/h
175 19-08-2008 10:49:02 21.2 C 8.9 g/m*3 21.2 C 0 km/h
Sensor: Nr:Datum:Temp:Abs-Feuchte:Windchill:Wind:
Aussen-T/F 176 19-08-2008 11:01:02 21.3 C 8.95 g/m*3 21.3 C 0 km/h
177 19-08-2008 11:13:02 21.6 C 8.91 g/m*3 21.6 C 0 km/h
178 19-08-2008 11:25:02 21.5 C 8.86 g/m*3 21.5 C 0 km/h
179 19-08-2008 11:37:02 22.2 C 8.83 g/m*3 22.2 C 0 km/h
180 19-08-2008 11:49:02 21.9 C 8.68 g/m*3 21.9 C 0 km/h
181 19-08-2008 12:01:03 22.6 C 8.84 g/m*3 22.6 C 0 km/h
182 19-08-2008 12:13:03 22.7 C 8.49 g/m*3 22.7 C 0 km/h
183 19-08-2008 12:25:02 22.5 C 8.39 g/m*3 22.5 C 0 km/h
184 19-08-2008 12:37:03 22.7 C 8.28 g/m*3 22.7 C 0 km/h
185 19-08-2008 12:49:02 22.8 C 8.13 g/m*3 22.8 C 0 km/h
186 19-08-2008 13:01:01 23 C 8.02 g/m*3 23 C 0 km/h
187 19-08-2008 13:13:01 23.5 C 8.04 g/m*3 23.5 C 0 km/h
188 19-08-2008 13:25:02 23.9 C 8.22 g/m*3 23.9 C 0 km/h
189 19-08-2008 13:37:01 23.7 C 7.91 g/m*3 23.7 C 0 km/h
190 19-08-2008 13:49:02 23.7 C 8.13 g/m*3 23.7 C 0 km/h
191 19-08-2008 14:01:01 24.3 C 7.97 g/m*3 24.3 C 0 km/h
192 19-08-2008 14:13:01 24.5 C 7.83 g/m*3 24.5 C 0 km/h
193 19-08-2008 14:25:02 24.2 C 7.7 g/m*3 24.2 C 0 km/h
194 19-08-2008 14:37:01 23.6 C 7.87 g/m*3 23.6 C 0 km/h
195 19-08-2008 14:49:02 23.1 C 7.86 g/m*3 23.1 C 0 km/h
196 19-08-2008 15:01:01 23.1 C 7.86 g/m*3 23.1 C 0 km/h
197 19-08-2008 15:13:01 23.9 C 8.22 g/m*3 23.9 C 0 km/h
198 19-08-2008 15:25:02 24.1 C 7.88 g/m*3 24.1 C 0 km/h
199 19-08-2008 15:37:01 24.5 C 8.06 g/m*3 24.5 C 0 km/h
200 19-08-2008 15:49:01 24.4 C 8.01 g/m*3 24.4 C 0 km/h
Sensor: Nr:Datum:Temp:Abs-Feuchte:Windchill:Wind:
Aussen-T/F 201 19-08-2008 16:01:01 23.6 C 8.08 g/m*3 23.6 C 0 km/h
202 19-08-2008 16:13:01 23.5 C 8.25 g/m*3 23.5 C 0 km/h
203 19-08-2008 16:25:02 23.6 C 8.08 g/m*3 23.6 C 0 km/h
204 19-08-2008 16:37:01 24 C 7.83 g/m*3 24 C 0 km/h
205 19-08-2008 16:49:01 24.1 C 7.88 g/m*3 24.1 C 0 km/h
206 19-08-2008 17:01:01 23.9 C 8 g/m*3 23.9 C 0 km/h
207 19-08-2008 17:13:01 23.6 C 8.08 g/m*3 23.6 C 0 km/h
208 19-08-2008 17:25:01 23.5 C 8.25 g/m*3 23.5 C 0 km/h
209 19-08-2008 17:37:01 23.2 C 8.32 g/m*3 23.2 C 0 km/h
210 19-08-2008 17:49:01 22.8 C 8.33 g/m*3 22.8 C 0 km/h
211 19-08-2008 18:01:02 22.9 C 8.79 g/m*3 22.9 C 0 km/h
212 19-08-2008 18:13:02 22.8 C 8.53 g/m*3 22.8 C 0 km/h
213 19-08-2008 18:25:01 22.6 C 8.44 g/m*3 22.6 C 0 km/h
214 19-08-2008 18:37:02 22.5 C 8.59 g/m*3 22.5 C 0 km/h
215 19-08-2008 18:49:02 22.3 C 8.49 g/m*3 22.3 C 0 km/h
216 19-08-2008 19:01:02 22.2 C 8.64 g/m*3 22.2 C 0 km/h
217 19-08-2008 19:13:02 21.8 C 8.83 g/m*3 21.8 C 0 km/h
218 19-08-2008 19:25:02 21.5 C 8.86 g/m*3 21.5 C 0 km/h
219 19-08-2008 19:37:02 21.4 C 9.19 g/m*3 21.4 C 0 km/h
220 19-08-2008 19:49:01 21.3 C 9.32 g/m*3 21.3 C 0 km/h
221 19-08-2008 20:01:01 21.3 C 9.32 g/m*3 21.3 C 0 km/h
222 19-08-2008 20:13:01 21.5 C 9.24 g/m*3 21.5 C 0 km/h
223 19-08-2008 20:25:01 21.2 C 9.27 g/m*3 21.2 C 0 km/h
224 19-08-2008 20:37:02 20.8 C 9.42 g/m*3 20.8 C 0 km/h
225 19-08-2008 20:49:02 20.4 C 9.38 g/m*3 20.4 C 0 km/h
Sensor: Nr:Datum:Temp:Abs-Feuchte:Windchill:Wind:
Aussen-T/F 226 19-08-2008 21:01:02 20 C 9.33 g/m*3 20 C 0 km/h
227 19-08-2008 21:13:02 19.8 C 9.39 g/m*3 19.8 C 0 km/h
228 19-08-2008 21:25:02 19.5 C 9.4 g/m*3 19.5 C 0 km/h
229 19-08-2008 21:37:02 19.4 C 9.51 g/m*3 19.4 C 0 km/h
230 19-08-2008 21:50:02 19.2 C 9.56 g/m*3 19.2 C 0 km/h
231 19-08-2008 22:02:02 19.1 C 9.51 g/m*3 19.1 C 0 km/h
232 19-08-2008 22:14:02 19 C 9.61 g/m*3 19 C 0 km/h
233 19-08-2008 22:26:02 18.9 C 9.72 g/m*3 18.9 C 0 km/h
234 19-08-2008 22:38:02 18.9 C 9.72 g/m*3 18.9 C 0 km/h
235 19-08-2008 22:50:02 18.9 C 9.72 g/m*3 18.9 C 0 km/h
236 19-08-2008 23:02:02 18.8 C 9.82 g/m*3 18.8 C 0 km/h
237 19-08-2008 23:14:02 18.5 C 9.81 g/m*3 18.5 C 0 km/h
238 19-08-2008 23:26:02 18.6 C 9.87 g/m*3 18.6 C 0 km/h
239 19-08-2008 23:38:03 18.3 C 10.01 g/m*3 18.3 C 0 km/h
240 19-08-2008 23:50:03 17.8 C 10.47 g/m*3 17.8 C 0 km/h
241 20-08-2008 00:02:03 17.7 C 10.41 g/m*3 17.7 C 0 km/h
242 20-08-2008 00:14:03 18.1 C 10.2 g/m*3 18.1 C 0 km/h
243 20-08-2008 00:26:03 18.2 C 10.1 g/m*3 18.2 C 0 km/h
244 20-08-2008 00:38:03 18.1 C 10.2 g/m*3 18.1 C 0 km/h
245 20-08-2008 00:50:03 17.9 C 10.69 g/m*3 17.9 C 0 km/h
246 20-08-2008 01:02:03 17.8 C 10.62 g/m*3 17.8 C 0 km/h
247 20-08-2008 01:14:03 18.1 C 10.35 g/m*3 18.1 C 0 km/h
248 20-08-2008 01:26:03 17 C 11.29 g/m*3 17 C 0 km/h
249 20-08-2008 01:38:03 16.7 C 11.65 g/m*3 16.7 C 0 km/h
250 20-08-2008 01:50:03 16.6 C 11.72 g/m*3 16.6 C 0 km/h
Sensor: Nr:Datum:Temp:Abs-Feuchte:Windchill:Wind:
Aussen-T/F 251 20-08-2008 02:02:03 16.8 C 11.72 g/m*3 16.8 C 0 km/h
252 20-08-2008 02:14:03 16.8 C 11.44 g/m*3 16.8 C 0 km/h
253 20-08-2008 02:26:03 16.9 C 11.36 g/m*3 16.9 C 0 km/h
254 20-08-2008 02:38:03 16.7 C 11.23 g/m*3 16.7 C 0 km/h
255 20-08-2008 02:50:03 16.7 C 11.08 g/m*3 16.7 C 0 km/h
256 20-08-2008 03:02:03 16.7 C 10.94 g/m*3 16.7 C 0 km/h
257 20-08-2008 03:14:03 16.6 C 10.74 g/m*3 16.6 C 0 km/h
258 20-08-2008 03:26:04 16.5 C 10.67 g/m*3 16.5 C 0 km/h
259 20-08-2008 03:38:04 16.4 C 10.75 g/m*3 16.4 C 0 km/h
260 20-08-2008 03:50:04 16.3 C 10.82 g/m*3 16.3 C 0 km/h
261 20-08-2008 04:02:04 16.5 C 10.81 g/m*3 16.5 C 0 km/h
262 20-08-2008 04:14:04 16.6 C 10.74 g/m*3 16.6 C 0 km/h
263 20-08-2008 04:26:04 16.5 C 10.67 g/m*3 16.5 C 0 km/h
264 20-08-2008 04:38:04 16.4 C 10.61 g/m*3 16.4 C 0 km/h
265 20-08-2008 04:50:04 16.3 C 10.54 g/m*3 16.3 C 0 km/h
266 20-08-2008 05:02:04 16.4 C 10.61 g/m*3 16.4 C 0 km/h
267 20-08-2008 05:14:04 16.4 C 10.61 g/m*3 16.4 C 0 km/h
268 20-08-2008 05:26:04 16.2 C 10.48 g/m*3 16.2 C 0 km/h
269 20-08-2008 05:38:04 16.2 C 10.48 g/m*3 16.2 C 0 km/h
270 20-08-2008 05:50:04 16.1 C 10.28 g/m*3 16.1 C 0 km/h
271 20-08-2008 06:02:04 16 C 10.22 g/m*3 16 C 0 km/h
272 20-08-2008 06:14:04 16.1 C 10.42 g/m*3 16.1 C 0 km/h
273 20-08-2008 06:26:04 16 C 10.35 g/m*3 16 C 0 km/h
274 20-08-2008 06:38:04 15.8 C 10.36 g/m*3 15.8 C 0 km/h
275 20-08-2008 06:50:04 15.8 C 10.36 g/m*3 15.8 C 0 km/h
Sensor: Nr:Datum:Temp:Abs-Feuchte:Windchill:Wind:
Aussen-T/F 276 20-08-2008 07:02:02 15.8 C 10.36 g/m*3 15.8 C 0 km/h
277 20-08-2008 07:14:02 16 C 10.22 g/m*3 16 C 0 km/h
278 20-08-2008 07:26:02 16.2 C 10.2 g/m*3 16.2 C 0 km/h
279 20-08-2008 07:38:02 16.2 C 10.07 g/m*3 16.2 C 0 km/h
280 20-08-2008 07:50:02 16.2 C 9.79 g/m*3 16.2 C 0 km/h
281 20-08-2008 08:02:03 16.2 C 9.93 g/m*3 16.2 C 0 km/h
282 20-08-2008 08:14:03 16.3 C 9.85 g/m*3 16.3 C 0 km/h
283 20-08-2008 08:26:02 16.5 C 9.69 g/m*3 16.5 C 0 km/h
284 20-08-2008 08:38:02 16.6 C 9.61 g/m*3 16.6 C 0 km/h
285 20-08-2008 08:50:02 16.7 C 9.52 g/m*3 16.7 C 0 km/h
286 20-08-2008 09:02:02 16.9 C 9.35 g/m*3 16.9 C 0 km/h
287 20-08-2008 09:14:02 17 C 8.97 g/m*3 17 C 0 km/h
288 20-08-2008 09:26:02 17.5 C 9.24 g/m*3 17.5 C 0 km/h
289 20-08-2008 09:38:02 18 C 9.22 g/m*3 18 C 0 km/h
290 20-08-2008 09:50:02 18.2 C 9.01 g/m*3 18.2 C 0 km/h
291 20-08-2008 10:02:03 18.9 C 9.23 g/m*3 18.9 C 0 km/h
292 20-08-2008 10:14:03 18.8 C 9.18 g/m*3 18.8 C 0 km/h
293 20-08-2008 10:26:02 18.7 C 9.13 g/m*3 18.7 C 0 km/h
294 20-08-2008 10:38:02 19.4 C 9.01 g/m*3 19.4 C 0 km/h
295 20-08-2008 10:50:02 19.4 C 9.01 g/m*3 19.4 C 0 km/h
296 20-08-2008 11:02:02 19.7 C 9 g/m*3 19.7 C 0 km/h
297 20-08-2008 11:14:02 19.5 C 8.73 g/m*3 19.5 C 0 km/h
298 20-08-2008 11:26:02 19.5 C 9.06 g/m*3 19.5 C 0 km/h
299 20-08-2008 11:38:02 20.4 C 8.67 g/m*3 20.4 C 0 km/h
300 20-08-2008 11:50:02 19.8 C 8.37 g/m*3 19.8 C 0 km/h
Sensor: Nr:Datum:Temp:Abs-Feuchte:Windchill:Wind:
Aussen-T/F 301 20-08-2008 12:02:02 20.2 C 8.57 g/m*3 20.2 C 0 km/h
302 20-08-2008 12:14:02 21.1 C 8.48 g/m*3 21.1 C 0 km/h
303 20-08-2008 12:26:02 21.1 C 8.11 g/m*3 21.1 C 0 km/h
304 20-08-2008 12:38:02 20.8 C 8.33 g/m*3 20.8 C 0 km/h
305 20-08-2008 12:50:02 20.9 C 8.2 g/m*3 20.9 C 0 km/h
306 20-08-2008 13:02:02 20.9 C 8.38 g/m*3 20.9 C 0 km/h
307 20-08-2008 13:14:03 20.3 C 8.44 g/m*3 20.3 C 0 km/h
308 20-08-2008 13:26:02 20.5 C 8.54 g/m*3 20.5 C 0 km/h
309 20-08-2008 13:38:02 21.1 C 8.29 g/m*3 21.1 C 0 km/h
310 20-08-2008 13:50:01 21.1 C 8.29 g/m*3 21.1 C 0 km/h
311 20-08-2008 14:02:02 21.2 C 8.34 g/m*3 21.2 C 0 km/h
312 20-08-2008 14:14:02 22 C 7.96 g/m*3 22 C 0 km/h
313 20-08-2008 14:26:01 22.1 C 7.61 g/m*3 22.1 C 0 km/h
314 20-08-2008 14:38:02 22.5 C 7.99 g/m*3 22.5 C 0 km/h
315 20-08-2008 14:50:02 22.5 C 7.99 g/m*3 22.5 C 0 km/h
316 20-08-2008 15:02:02 22.4 C 8.14 g/m*3 22.4 C 0 km/h
317 20-08-2008 15:14:02 21.7 C 7.82 g/m*3 21.7 C 0 km/h
318 20-08-2008 15:26:02 22.5 C 7.99 g/m*3 22.5 C 0 km/h
319 20-08-2008 15:38:01 23 C 7.4 g/m*3 23 C 0 km/h
320 20-08-2008 15:50:02 21.9 C 7.53 g/m*3 21.9 C 0 km/h
321 20-08-2008 16:02:01 22.2 C 7.66 g/m*3 22.2 C 0 km/h
322 20-08-2008 16:14:01 22.5 C 7.79 g/m*3 22.5 C 0 km/h
323 20-08-2008 16:26:02 20.3 C 8.09 g/m*3 20.3 C 0 km/h
324 20-08-2008 16:38:01 20.4 C 7.78 g/m*3 20.4 C 0 km/h
325 20-08-2008 16:50:02 20.9 C 7.83 g/m*3 20.9 C 0 km/h
Sensor: Nr:Datum:Temp:Abs-Feuchte:Windchill:Wind:
Aussen-T/F 326 20-08-2008 17:02:01 22.7 C 7.68 g/m*3 22.7 C 0 km/h
327 20-08-2008 17:14:01 22.9 C 7.56 g/m*3 22.9 C 0 km/h
328 20-08-2008 17:26:02 23.2 C 7.48 g/m*3 23.2 C 0 km/h
329 20-08-2008 17:38:01 23.4 C 7.57 g/m*3 23.4 C 0 km/h
330 20-08-2008 17:50:01 24.1 C 7.66 g/m*3 24.1 C 0 km/h
331 20-08-2008 18:02:02 22.7 C 7.27 g/m*3 22.7 C 0 km/h
332 20-08-2008 18:14:03 22.2 C 7.07 g/m*3 22.2 C 0 km/h
333 20-08-2008 18:26:01 21.6 C 7.21 g/m*3 21.6 C 0 km/h
334 20-08-2008 18:38:02 21.3 C 7.46 g/m*3 21.3 C 0 km/h
335 20-08-2008 18:50:02 20.6 C 7.16 g/m*3 20.6 C 0 km/h
336 20-08-2008 19:02:02 20.6 C 7.34 g/m*3 20.6 C 0 km/h
337 20-08-2008 19:14:02 20.5 C 7.47 g/m*3 20.5 C 0 km/h
338 20-08-2008 19:26:02 20.3 C 7.56 g/m*3 20.3 C 0 km/h
339 20-08-2008 19:38:02 20.1 C 7.65 g/m*3 20.1 C 0 km/h
340 20-08-2008 19:50:02 20 C 7.78 g/m*3 20 C 0 km/h
341 20-08-2008 20:02:03 19.8 C 7.69 g/m*3 19.8 C 0 km/h
342 20-08-2008 20:14:03 19.7 C 7.81 g/m*3 19.7 C 0 km/h
343 20-08-2008 20:26:02 19.4 C 7.84 g/m*3 19.4 C 0 km/h
344 20-08-2008 20:38:03 19.2 C 7.91 g/m*3 19.2 C 0 km/h
345 20-08-2008 20:50:02 18.9 C 8.42 g/m*3 18.9 C 0 km/h
346 20-08-2008 21:02:01 18.6 C 8.59 g/m*3 18.6 C 0 km/h
347 20-08-2008 21:14:01 18.6 C 8.59 g/m*3 18.6 C 0 km/h
348 20-08-2008 21:26:02 18.4 C 8.65 g/m*3 18.4 C 0 km/h
349 20-08-2008 21:38:02 18.2 C 8.86 g/m*3 18.2 C 0 km/h
350 20-08-2008 21:50:02 17.9 C 9.01 g/m*3 17.9 C 0 km/h
Sensor: Nr:Datum:Temp:Abs-Feuchte:Windchill:Wind:
Aussen-T/F 351 20-08-2008 22:02:01 17.7 C 9.05 g/m*3 17.7 C 0 km/h
352 20-08-2008 22:14:01 17.7 C 9.05 g/m*3 17.7 C 0 km/h
353 20-08-2008 22:26:02 17.8 C 9.11 g/m*3 17.8 C 0 km/h
354 20-08-2008 22:38:01 17.8 C 8.95 g/m*3 17.8 C 0 km/h
355 20-08-2008 22:51:01 17.8 C 8.95 g/m*3 17.8 C 0 km/h
356 20-08-2008 23:03:01 17.8 C 8.95 g/m*3 17.8 C 0 km/h
357 20-08-2008 23:15:01 17.7 C 9.05 g/m*3 17.7 C 0 km/h
358 20-08-2008 23:27:01 17.7 C 9.05 g/m*3 17.7 C 0 km/h
359 20-08-2008 23:39:01 17.6 C 9 g/m*3 17.6 C 0 km/h
360 20-08-2008 23:51:01 17.5 C 9.09 g/m*3 17.5 C 0 km/h
361 21-08-2008 00:03:01 17.4 C 9.04 g/m*3 17.4 C 0 km/h
362 21-08-2008 00:15:01 17.5 C 9.24 g/m*3 17.5 C 0 km/h
363 21-08-2008 00:27:02 17.3 C 9.13 g/m*3 17.3 C 0 km/h
364 21-08-2008 00:39:02 17.2 C 8.93 g/m*3 17.2 C 0 km/h
365 21-08-2008 00:51:02 17.1 C 8.88 g/m*3 17.1 C 0 km/h
366 21-08-2008 01:03:02 17 C 8.97 g/m*3 17 C 0 km/h
367 21-08-2008 01:15:02 16.8 C 9.01 g/m*3 16.8 C 0 km/h
368 21-08-2008 01:27:02 16.7 C 8.95 g/m*3 16.7 C 0 km/h
369 21-08-2008 01:39:02 16.4 C 8.93 g/m*3 16.4 C 0 km/h
370 21-08-2008 01:51:02 16.2 C 8.96 g/m*3 16.2 C 0 km/h
371 21-08-2008 02:03:02 16 C 8.99 g/m*3 16 C 0 km/h
372 21-08-2008 02:15:02 15.9 C 9.07 g/m*3 15.9 C 0 km/h
373 21-08-2008 02:27:02 15.6 C 9.04 g/m*3 15.6 C 0 km/h
374 21-08-2008 02:39:02 15.3 C 9.01 g/m*3 15.3 C 0 km/h
375 21-08-2008 02:51:02 14.9 C 9.05 g/m*3 14.9 C 0 km/h
Sensor: Nr:Datum:Temp:Abs-Feuchte:Windchill:Wind:
Aussen-T/F 376 21-08-2008 03:03:02 14.8 C 9.12 g/m*3 14.8 C 0 km/h
377 21-08-2008 03:15:02 14.4 C 9.02 g/m*3 14.4 C 0 km/h
378 21-08-2008 03:27:02 14.4 C 9.15 g/m*3 14.4 C 0 km/h
379 21-08-2008 03:39:02 14.3 C 9.09 g/m*3 14.3 C 0 km/h
380 21-08-2008 03:51:02 14.1 C 9.1 g/m*3 14.1 C 0 km/h
381 21-08-2008 04:03:02 13.9 C 9.11 g/m*3 13.9 C 0 km/h
382 21-08-2008 04:15:03 13.7 C 9 g/m*3 13.7 C 0 km/h
383 21-08-2008 04:27:03 13.5 C 9.01 g/m*3 13.5 C 0 km/h
384 21-08-2008 04:39:03 13.5 C 9.01 g/m*3 13.5 C 0 km/h
385 21-08-2008 04:51:03 13.3 C 9.01 g/m*3 13.3 C 0 km/h
386 21-08-2008 05:03:03 13.2 C 9.07 g/m*3 13.2 C 0 km/h
387 21-08-2008 05:15:03 13.1 C 9.01 g/m*3 13.1 C 0 km/h
388 21-08-2008 05:27:03 13.1 C 9.13 g/m*3 13.1 C 0 km/h
389 21-08-2008 05:39:03 13.1 C 9.01 g/m*3 13.1 C 0 km/h
390 21-08-2008 05:51:03 13.1 C 9.01 g/m*3 13.1 C 0 km/h
391 21-08-2008 06:03:03 13 C 8.96 g/m*3 13 C 0 km/h
392 21-08-2008 06:15:03 12.9 C 9.02 g/m*3 12.9 C 0 km/h
393 21-08-2008 06:27:03 12.9 C 9.13 g/m*3 12.9 C 0 km/h
394 21-08-2008 06:39:02 13.2 C 9.19 g/m*3 13.2 C 0 km/h
395 21-08-2008 06:51:02 13.4 C 9.3 g/m*3 13.4 C 0 km/h
396 21-08-2008 07:03:02 13.6 C 9.3 g/m*3 13.6 C 0 km/h
397 21-08-2008 07:15:02 13.7 C 9.35 g/m*3 13.7 C 0 km/h
398 21-08-2008 07:27:02 14 C 9.41 g/m*3 14 C 0 km/h
399 21-08-2008 07:39:02 14.2 C 9.4 g/m*3 14.2 C 0 km/h
400 21-08-2008 07:51:02 14.6 C 9.51 g/m*3 14.6 C 0 km/h
Sensor: Nr:Datum:Temp:Abs-Feuchte:Windchill:Wind:
Aussen-T/F 401 21-08-2008 08:03:02 14.6 C 9.26 g/m*3 14.6 C 0 km/h
402 21-08-2008 08:15:02 14.5 C 9.33 g/m*3 14.5 C 0 km/h
403 21-08-2008 08:27:02 14.8 C 9.5 g/m*3 14.8 C 0 km/h
404 21-08-2008 08:39:02 15.4 C 9.2 g/m*3 15.4 C 0 km/h
405 21-08-2008 08:51:02 16 C 9.13 g/m*3 16 C 0 km/h
406 21-08-2008 09:03:02 15.9 C 9.07 g/m*3 15.9 C 0 km/h
407 21-08-2008 09:15:02 15.8 C 9.15 g/m*3 15.8 C 0 km/h
408 21-08-2008 09:27:02 15.9 C 9.21 g/m*3 15.9 C 0 km/h
409 21-08-2008 09:39:02 16.3 C 9.43 g/m*3 16.3 C 0 km/h
410 21-08-2008 09:51:02 16.8 C 9.58 g/m*3 16.8 C 0 km/h
411 21-08-2008 10:03:01 17.3 C 9.43 g/m*3 17.3 C 0 km/h
412 21-08-2008 10:15:02 17.8 C 9.26 g/m*3 17.8 C 0 km/h
413 21-08-2008 10:27:02 18.4 C 9.28 g/m*3 18.4 C 0 km/h
414 21-08-2008 10:39:01 19.1 C 9.02 g/m*3 19.1 C 0 km/h
415 21-08-2008 10:51:02 20.6 C 8.59 g/m*3 20.6 C 0 km/h
416 21-08-2008 11:03:01 20.3 C 8.27 g/m*3 20.3 C 0 km/h
417 21-08-2008 11:15:02 20.8 C 8.15 g/m*3 20.8 C 0 km/h
418 21-08-2008 11:27:02 20.7 C 8.28 g/m*3 20.7 C 0 km/h
419 21-08-2008 11:39:01 21.3 C 7.83 g/m*3 21.3 C 0 km/h
420 21-08-2008 11:51:01 21.5 C 8.11 g/m*3 21.5 C 0 km/h
421 21-08-2008 12:03:01 21.5 C 8.3 g/m*3 21.5 C 0 km/h
422 21-08-2008 12:15:02 22.7 C 7.88 g/m*3 22.7 C 0 km/h
423 21-08-2008 12:27:02 22.5 C 7.99 g/m*3 22.5 C 0 km/h
424 21-08-2008 12:39:01 23.5 C 7.82 g/m*3 23.5 C 0 km/h
425 21-08-2008 12:51:01 23.3 C 7.32 g/m*3 23.3 C 0 km/h
Sensor: Nr:Datum:Temp:Abs-Feuchte:Windchill:Wind:
Aussen-T/F 426 21-08-2008 13:03:02 23.4 C 7.36 g/m*3 23.4 C 0 km/h
427 21-08-2008 13:15:01 24.2 C 7.26 g/m*3 24.2 C 0 km/h
428 21-08-2008 13:27:01 24.6 C 6.98 g/m*3 24.6 C 0 km/h
429 21-08-2008 13:39:02 24.7 C 7.24 g/m*3 24.7 C 0 km/h
430 21-08-2008 13:51:02 24.5 C 7.16 g/m*3 24.5 C 0 km/h
431 21-08-2008 14:03:02 25.1 C 6.94 g/m*3 25.1 C 0 km/h
432 21-08-2008 14:15:02 25.1 C 6.94 g/m*3 25.1 C 0 km/h
433 21-08-2008 14:27:02 25.1 C 6.94 g/m*3 25.1 C 0 km/h
434 21-08-2008 14:39:02 25.6 C 6.67 g/m*3 25.6 C 0 km/h
435 21-08-2008 14:51:02 25.6 C 6.9 g/m*3 25.6 C 0 km/h
436 21-08-2008 15:03:03 25.5 C 6.87 g/m*3 25.5 C 0 km/h
437 21-08-2008 15:15:02 25.8 C 6.98 g/m*3 25.8 C 0 km/h
438 21-08-2008 15:27:02 25.8 C 6.74 g/m*3 25.8 C 0 km/h
439 21-08-2008 15:39:02 25.9 C 7.02 g/m*3 25.9 C 0 km/h
440 21-08-2008 15:51:02 25.7 C 7.18 g/m*3 25.7 C 0 km/h
441 21-08-2008 16:03:01 25.4 C 7.06 g/m*3 25.4 C 0 km/h
442 21-08-2008 16:15:02 25.5 C 7.34 g/m*3 25.5 C 0 km/h
443 21-08-2008 16:27:02 25.3 C 7.26 g/m*3 25.3 C 0 km/h
444 21-08-2008 16:39:02 25.9 C 7.26 g/m*3 25.9 C 0 km/h
445 21-08-2008 16:51:02 25.7 C 7.42 g/m*3 25.7 C 0 km/h
446 21-08-2008 17:03:01 25.4 C 7.53 g/m*3 25.4 C 0 km/h
447 21-08-2008 17:15:01 25 C 7.37 g/m*3 25 C 0 km/h
448 21-08-2008 17:27:01 25.4 C 7.3 g/m*3 25.4 C 0 km/h
449 21-08-2008 17:39:01 25.3 C 7.26 g/m*3 25.3 C 0 km/h
450 21-08-2008 17:51:03 26.1 C 7.34 g/m*3 26.1 C 0 km/h
Sensor: Nr:Datum:Temp:Abs-Feuchte:Windchill:Wind:
Aussen-T/F 451 21-08-2008 18:03:02 25.8 C 7.46 g/m*3 25.8 C 0 km/h
452 21-08-2008 18:15:02 25.4 C 7.53 g/m*3 25.4 C 0 km/h
453 21-08-2008 18:27:02 25.4 C 7.53 g/m*3 25.4 C 0 km/h
454 21-08-2008 18:39:02 24.5 C 7.83 g/m*3 24.5 C 0 km/h
455 21-08-2008 18:51:02 24.1 C 7.88 g/m*3 24.1 C 0 km/h
456 21-08-2008 19:03:02 23.7 C 7.91 g/m*3 23.7 C 0 km/h
457 21-08-2008 19:15:03 23.3 C 8.15 g/m*3 23.3 C 0 km/h
458 21-08-2008 19:27:03 22.9 C 8.17 g/m*3 22.9 C 0 km/h
459 21-08-2008 19:39:02 22.8 C 8.33 g/m*3 22.8 C 0 km/h
460 21-08-2008 19:51:01 22.9 C 8.38 g/m*3 22.9 C 0 km/h
461 21-08-2008 20:03:01 22.8 C 8.53 g/m*3 22.8 C 0 km/h
462 21-08-2008 20:15:01 22.6 C 8.44 g/m*3 22.6 C 0 km/h
463 21-08-2008 20:27:01 22.5 C 8.59 g/m*3 22.5 C 0 km/h
464 21-08-2008 20:39:01 22.3 C 8.49 g/m*3 22.3 C 0 km/h
465 21-08-2008 20:51:01 22.2 C 8.44 g/m*3 22.2 C 0 km/h
466 21-08-2008 21:03:02 22 C 8.54 g/m*3 22 C 0 km/h
467 21-08-2008 21:15:01 21.9 C 8.68 g/m*3 21.9 C 0 km/h
468 21-08-2008 21:27:01 21.9 C 8.68 g/m*3 21.9 C 0 km/h
469 21-08-2008 21:39:02 21.7 C 8.77 g/m*3 21.7 C 0 km/h
470 21-08-2008 21:51:02 21.6 C 8.72 g/m*3 21.6 C 0 km/h
471 21-08-2008 22:04:03 21.3 C 8.76 g/m*3 21.3 C 0 km/h
472 21-08-2008 22:16:03 21.1 C 8.66 g/m*3 21.1 C 0 km/h
473 21-08-2008 22:28:03 21 C 8.79 g/m*3 21 C 0 km/h
474 21-08-2008 22:40:03 20.7 C 9 g/m*3 20.7 C 0 km/h
475 21-08-2008 22:52:03 20.7 C 9 g/m*3 20.7 C 0 km/h
Sensor: Nr:Datum:Temp:Abs-Feuchte:Windchill:Wind:
Aussen-T/F 476 21-08-2008 23:04:03 20.6 C 9.13 g/m*3 20.6 C 0 km/h
477 21-08-2008 23:16:04 20.6 C 9.13 g/m*3 20.6 C 0 km/h
478 21-08-2008 23:28:04 20.4 C 9.2 g/m*3 20.4 C 0 km/h
479 21-08-2008 23:40:04 20.4 C 9.2 g/m*3 20.4 C 0 km/h
480 21-08-2008 23:52:04 20.2 C 9.27 g/m*3 20.2 C 0 km/h
481 22-08-2008 00:04:04 20.1 C 9.21 g/m*3 20.1 C 0 km/h
482 22-08-2008 00:16:04 20 C 9.33 g/m*3 20 C 0 km/h
483 22-08-2008 00:28:04 20.1 C 9.21 g/m*3 20.1 C 0 km/h
484 22-08-2008 00:40:04 20 C 9.33 g/m*3 20 C 0 km/h
485 22-08-2008 00:52:04 19.9 C 9.28 g/m*3 19.9 C 0 km/h
486 22-08-2008 01:04:04 20 C 9.33 g/m*3 20 C 0 km/h
487 22-08-2008 01:16:04 20.3 C 9.67 g/m*3 20.3 C 0 km/h
488 22-08-2008 01:28:04 19.6 C 9.62 g/m*3 19.6 C 0 km/h
489 22-08-2008 01:40:04 19.5 C 9.57 g/m*3 19.5 C 0 km/h
490 22-08-2008 01:52:04 19.3 C 9.45 g/m*3 19.3 C 0 km/h
491 22-08-2008 02:04:04 19.1 C 9.51 g/m*3 19.1 C 0 km/h
492 22-08-2008 02:16:04 18.9 C 9.56 g/m*3 18.9 C 0 km/h
493 22-08-2008 02:28:04 18.7 C 9.45 g/m*3 18.7 C 0 km/h
494 22-08-2008 02:40:04 18.5 C 9.33 g/m*3 18.5 C 0 km/h
495 22-08-2008 02:52:04 18.4 C 9.44 g/m*3 18.4 C 0 km/h
496 22-08-2008 03:04:05 18.5 C 9.33 g/m*3 18.5 C 0 km/h
497 22-08-2008 03:16:05 18.5 C 9.49 g/m*3 18.5 C 0 km/h
498 22-08-2008 03:28:05 18.4 C 9.44 g/m*3 18.4 C 0 km/h
499 22-08-2008 03:40:05 18.5 C 9.49 g/m*3 18.5 C 0 km/h
500 22-08-2008 03:52:05 18.5 C 9.49 g/m*3 18.5 C 0 km/h
Sensor: Nr:Datum:Temp:Abs-Feuchte:Windchill:Wind:
Aussen-T/F 501 22-08-2008 04:04:05 18.5 C 9.49 g/m*3 18.5 C 0 km/h
502 22-08-2008 04:16:05 18.4 C 9.44 g/m*3 18.4 C 0 km/h
503 22-08-2008 04:28:05 18.4 C 9.59 g/m*3 18.4 C 0 km/h
504 22-08-2008 04:40:05 18.3 C 9.54 g/m*3 18.3 C 0 km/h
505 22-08-2008 04:52:05 18.2 C 9.64 g/m*3 18.2 C 0 km/h
506 22-08-2008 05:04:05 18.2 C 9.64 g/m*3 18.2 C 0 km/h
507 22-08-2008 05:16:05 18.1 C 9.58 g/m*3 18.1 C 0 km/h
508 22-08-2008 05:28:05 18.2 C 9.64 g/m*3 18.2 C 0 km/h
509 22-08-2008 05:40:05 18.1 C 9.73 g/m*3 18.1 C 0 km/h
510 22-08-2008 05:52:05 18 C 9.68 g/m*3 18 C 0 km/h
511 22-08-2008 06:04:05 17.9 C 9.77 g/m*3 17.9 C 0 km/h
512 22-08-2008 06:16:05 17.5 C 9.69 g/m*3 17.5 C 0 km/h
513 22-08-2008 06:28:05 17.3 C 9.72 g/m*3 17.3 C 0 km/h
514 22-08-2008 06:40:05 17 C 9.69 g/m*3 17 C 0 km/h
515 22-08-2008 06:52:06 16.8 C 9.87 g/m*3 16.8 C 0 km/h
516 22-08-2008 07:04:06 16.9 C 9.92 g/m*3 16.9 C 0 km/h
517 22-08-2008 07:16:02 16.8 C 10.01 g/m*3 16.8 C 0 km/h
518 22-08-2008 07:28:02 17 C 10.13 g/m*3 17 C 0 km/h
519 22-08-2008 07:40:03 17.2 C 10.1 g/m*3 17.2 C 0 km/h
520 22-08-2008 07:52:01 17.6 C 10.35 g/m*3 17.6 C 0 km/h
521 22-08-2008 08:04:01 17.7 C 10.26 g/m*3 17.7 C 0 km/h
522 22-08-2008 08:16:01 17.8 C 10.32 g/m*3 17.8 C 0 km/h
523 22-08-2008 08:28:01 18 C 9.98 g/m*3 18 C 0 km/h
524 22-08-2008 08:40:01 17.9 C 9.92 g/m*3 17.9 C 0 km/h
525 22-08-2008 08:52:02 17.7 C 9.96 g/m*3 17.7 C 0 km/h
Sensor: Nr:Datum:Temp:Abs-Feuchte:Windchill:Wind:
Aussen-T/F 526 22-08-2008 09:04:02 17.8 C 10.02 g/m*3 17.8 C 0 km/h
527 22-08-2008 09:16:02 18.1 C 9.89 g/m*3 18.1 C 0 km/h
528 22-08-2008 09:28:02 18.7 C 10.09 g/m*3 18.7 C 0 km/h
529 22-08-2008 09:40:02 19.3 C 10.12 g/m*3 19.3 C 0 km/h
530 22-08-2008 09:52:02 20 C 10.02 g/m*3 20 C 0 km/h
531 22-08-2008 10:04:02 20.6 C 10.02 g/m*3 20.6 C 0 km/h
532 22-08-2008 10:16:02 21.2 C 9.82 g/m*3 21.2 C 0 km/h
533 22-08-2008 10:28:02 22.2 C 9.82 g/m*3 22.2 C 0 km/h
534 22-08-2008 10:40:02 22.9 C 9.61 g/m*3 22.9 C 0 km/h
535 22-08-2008 10:52:02 23.3 C 9.41 g/m*3 23.3 C 0 km/h
536 22-08-2008 11:04:02 23.6 C 9.36 g/m*3 23.6 C 0 km/h
537 22-08-2008 11:16:02 24.4 C 9.12 g/m*3 24.4 C 0 km/h
538 22-08-2008 11:28:02 24.9 C 8.93 g/m*3 24.9 C 0 km/h
539 22-08-2008 11:40:02 24.5 C 9.4 g/m*3 24.5 C 0 km/h
540 22-08-2008 11:52:02 24.9 C 9.16 g/m*3 24.9 C 0 km/h
541 22-08-2008 12:04:02 24.8 C 8.88 g/m*3 24.8 C 0 km/h
542 22-08-2008 12:16:02 24.8 C 9.1 g/m*3 24.8 C 0 km/h
543 22-08-2008 12:28:02 24.8 C 8.88 g/m*3 24.8 C 0 km/h
544 22-08-2008 12:40:02 24.5 C 8.95 g/m*3 24.5 C 0 km/h
545 22-08-2008 12:52:02 24.5 C 9.18 g/m*3 24.5 C 0 km/h
546 22-08-2008 13:04:02 24.3 C 9.07 g/m*3 24.3 C 0 km/h
547 22-08-2008 13:16:02 24.2 C 9.24 g/m*3 24.2 C 0 km/h
548 22-08-2008 13:28:02 23.4 C 9.88 g/m*3 23.4 C 0 km/h
549 22-08-2008 13:40:02 22.9 C 10.22 g/m*3 22.9 C 0 km/h
550 22-08-2008 13:52:02 21.5 C 10.94 g/m*3 21.5 C 0 km/h
Sensor: Nr:Datum:Temp:Abs-Feuchte:Windchill:Wind:
Aussen-T/F 551 22-08-2008 14:04:01 19.1 C 11.31 g/m*3 19.1 C 0 km/h
552 22-08-2008 14:16:02 18.1 C 12.05 g/m*3 18.1 C 0 km/h
553 22-08-2008 14:28:02 17.9 C 12.67 g/m*3 17.9 C 0 km/h
554 22-08-2008 14:40:01 18.2 C 12.9 g/m*3 18.2 C 0 km/h
555 22-08-2008 14:52:02 18.1 C 12.82 g/m*3 18.1 C 0 km/h
556 22-08-2008 15:04:01 18.4 C 13.21 g/m*3 18.4 C 0 km/h
557 22-08-2008 15:16:02 18.5 C 13.29 g/m*3 18.5 C 0 km/h
558 22-08-2008 15:28:02 18 C 13.21 g/m*3 18 C 0 km/h
559 22-08-2008 15:40:01 17.9 C 13.44 g/m*3 17.9 C 0 km/h
560 22-08-2008 15:52:03 18.3 C 13.76 g/m*3 18.3 C 0 km/h
561 22-08-2008 16:04:02 18.5 C 13.92 g/m*3 18.5 C 0 km/h
562 22-08-2008 16:16:03 18.3 C 13.76 g/m*3 18.3 C 0 km/h
563 22-08-2008 16:28:03 18.5 C 13.92 g/m*3 18.5 C 0 km/h
564 22-08-2008 16:40:03 18.2 C 13.68 g/m*3 18.2 C 0 km/h
565 22-08-2008 16:52:02 17.9 C 13.59 g/m*3 17.9 C 0 km/h
566 22-08-2008 17:04:02 17.8 C 13.36 g/m*3 17.8 C 0 km/h
567 22-08-2008 17:16:01 17.8 C 13.36 g/m*3 17.8 C 0 km/h
568 22-08-2008 17:28:01 17.7 C 13.28 g/m*3 17.7 C 0 km/h
569 22-08-2008 17:40:02 17.5 C 13.12 g/m*3 17.5 C 0 km/h
570 22-08-2008 17:52:02 17.5 C 13.12 g/m*3 17.5 C 0 km/h
571 22-08-2008 18:04:02 17.5 C 13.12 g/m*3 17.5 C 0 km/h
572 22-08-2008 18:16:02 16.1 C 11.79 g/m*3 16.1 C 0 km/h
573 22-08-2008 18:28:02 15.7 C 11.51 g/m*3 15.7 C 0 km/h
574 22-08-2008 18:40:02 15.5 C 11.5 g/m*3 15.5 C 0 km/h
575 22-08-2008 18:52:02 15.6 C 11.84 g/m*3 15.6 C 0 km/h
Sensor: Nr:Datum:Temp:Abs-Feuchte:Windchill:Wind:
Aussen-T/F 576 22-08-2008 19:04:02 15.4 C 11.69 g/m*3 15.4 C 0 km/h
577 22-08-2008 19:16:02 15.2 C 11.68 g/m*3 15.2 C 0 km/h
578 22-08-2008 19:28:02 15.2 C 11.81 g/m*3 15.2 C 0 km/h
579 22-08-2008 19:40:02 15.4 C 11.96 g/m*3 15.4 C 0 km/h
580 22-08-2008 19:52:02 15.4 C 12.09 g/m*3 15.4 C 0 km/h
581 22-08-2008 20:04:01 15.4 C 12.09 g/m*3 15.4 C 0 km/h
582 22-08-2008 20:16:02 15.3 C 12.01 g/m*3 15.3 C 0 km/h
583 22-08-2008 20:28:02 15.3 C 12.01 g/m*3 15.3 C 0 km/h
584 22-08-2008 20:40:01 15.4 C 12.22 g/m*3 15.4 C 0 km/h
585 22-08-2008 20:52:02 15.4 C 12.22 g/m*3 15.4 C 0 km/h
586 22-08-2008 21:04:01 15.4 C 12.22 g/m*3 15.4 C 0 km/h
587 22-08-2008 21:16:02 15.5 C 12.29 g/m*3 15.5 C 0 km/h
588 22-08-2008 21:28:02 15.3 C 12.14 g/m*3 15.3 C 0 km/h
589 22-08-2008 21:40:01 15.1 C 12 g/m*3 15.1 C 0 km/h
590 22-08-2008 21:52:03 14.9 C 11.98 g/m*3 14.9 C 0 km/h
591 22-08-2008 22:04:02 14.8 C 11.91 g/m*3 14.8 C 0 km/h
592 22-08-2008 22:16:03 14.8 C 11.91 g/m*3 14.8 C 0 km/h
593 22-08-2008 22:28:03 14.8 C 11.91 g/m*3 14.8 C 0 km/h
594 22-08-2008 22:40:02 15 C 12.05 g/m*3 15 C 0 km/h
595 22-08-2008 22:52:01 15 C 12.05 g/m*3 15 C 0 km/h
596 22-08-2008 23:05:02 14.7 C 11.83 g/m*3 14.7 C 0 km/h
597 22-08-2008 23:17:02 14.6 C 11.76 g/m*3 14.6 C 0 km/h
598 22-08-2008 23:29:02 14.7 C 11.83 g/m*3 14.7 C 0 km/h
599 22-08-2008 23:41:02 14.8 C 12.03 g/m*3 14.8 C 0 km/h
600 22-08-2008 23:53:02 14.6 C 11.76 g/m*3 14.6 C 0 km/h
Sensor: Nr:Datum:Temp:Abs-Feuchte:Windchill:Wind:
Aussen-T/F 601 23-08-2008 00:05:02 14.5 C 11.69 g/m*3 14.5 C 0 km/h
602 23-08-2008 00:17:02 14.3 C 11.55 g/m*3 14.3 C 0 km/h
603 23-08-2008 00:29:02 14.1 C 11.53 g/m*3 14.1 C 0 km/h
604 23-08-2008 00:41:02 14 C 11.34 g/m*3 14 C 0 km/h
605 23-08-2008 00:53:02 14 C 11.34 g/m*3 14 C 0 km/h
606 23-08-2008 01:05:02 14 C 11.34 g/m*3 14 C 0 km/h
607 23-08-2008 01:17:02 13.8 C 11.32 g/m*3 13.8 C 0 km/h
608 23-08-2008 01:29:02 13.8 C 11.32 g/m*3 13.8 C 0 km/h
609 23-08-2008 01:41:03 13.7 C 11.13 g/m*3 13.7 C 0 km/h
610 23-08-2008 01:53:03 13.8 C 11.2 g/m*3 13.8 C 0 km/h
611 23-08-2008 02:05:03 13.8 C 11.2 g/m*3 13.8 C 0 km/h
612 23-08-2008 02:17:03 13.7 C 11.13 g/m*3 13.7 C 0 km/h
613 23-08-2008 02:29:03 13.7 C 11.01 g/m*3 13.7 C 0 km/h
614 23-08-2008 02:41:03 13.7 C 11.01 g/m*3 13.7 C 0 km/h
615 23-08-2008 02:53:03 13.6 C 10.95 g/m*3 13.6 C 0 km/h
616 23-08-2008 03:05:03 13.6 C 10.95 g/m*3 13.6 C 0 km/h
617 23-08-2008 03:17:03 13.3 C 10.4 g/m*3 13.3 C 0 km/h
618 23-08-2008 03:29:03 13 C 9.75 g/m*3 13 C 0 km/h
619 23-08-2008 03:41:03 12.6 C 9.4 g/m*3 12.6 C 0 km/h
620 23-08-2008 03:53:03 12.2 C 9.28 g/m*3 12.2 C 0 km/h
621 23-08-2008 04:05:03 11.9 C 9.32 g/m*3 11.9 C 0 km/h
622 23-08-2008 04:17:03 11.7 C 9.31 g/m*3 11.7 C 0 km/h
623 23-08-2008 04:29:03 11.5 C 9.3 g/m*3 11.5 C 0 km/h
624 23-08-2008 04:41:03 11.4 C 9.34 g/m*3 11.4 C 0 km/h
625 23-08-2008 04:53:03 11.2 C 9.22 g/m*3 11.2 C 0 km/h
Sensor: Nr:Datum:Temp:Abs-Feuchte:Windchill:Wind:
Aussen-T/F 626 23-08-2008 05:05:03 11.1 C 9.17 g/m*3 11.1 C 0 km/h
627 23-08-2008 05:17:03 10.9 C 9.15 g/m*3 10.9 C 0 km/h
628 23-08-2008 05:29:04 10.8 C 9.09 g/m*3 10.8 C 0 km/h
629 23-08-2008 05:41:04 10.8 C 9.09 g/m*3 10.8 C 0 km/h
630 23-08-2008 05:53:04 11 C 9.21 g/m*3 11 C 0 km/h
631 23-08-2008 06:05:04 11.2 C 9.43 g/m*3 11.2 C 0 km/h
632 23-08-2008 06:17:04 11 C 9.21 g/m*3 11 C 0 km/h
633 23-08-2008 06:29:04 10.9 C 9.25 g/m*3 10.9 C 0 km/h
634 23-08-2008 06:41:04 10.8 C 9.19 g/m*3 10.8 C 0 km/h
635 23-08-2008 06:53:04 10.7 C 9.13 g/m*3 10.7 C 0 km/h
636 23-08-2008 07:05:04 10.7 C 9.13 g/m*3 10.7 C 0 km/h
637 23-08-2008 07:17:04 10.7 C 9.13 g/m*3 10.7 C 0 km/h
638 23-08-2008 07:29:04 10.8 C 9.19 g/m*3 10.8 C 0 km/h
639 23-08-2008 07:41:04 11.1 C 9.27 g/m*3 11.1 C 0 km/h
640 23-08-2008 07:53:01 11.6 C 9.56 g/m*3 11.6 C 0 km/h
641 23-08-2008 08:05:02 12 C 9.7 g/m*3 12 C 0 km/h
642 23-08-2008 08:17:02 12.1 C 9.65 g/m*3 12.1 C 0 km/h
643 23-08-2008 08:29:02 12.7 C 9.8 g/m*3 12.7 C 0 km/h
644 23-08-2008 08:41:01 12.5 C 9.24 g/m*3 12.5 C 0 km/h
645 23-08-2008 08:53:01 12.6 C 9.07 g/m*3 12.6 C 0 km/h
646 23-08-2008 09:05:02 12.8 C 8.96 g/m*3 12.8 C 0 km/h
647 23-08-2008 09:17:01 13.2 C 8.96 g/m*3 13.2 C 0 km/h
648 23-08-2008 09:29:01 13.3 C 8.78 g/m*3 13.3 C 0 km/h
649 23-08-2008 09:41:01 13.4 C 9.07 g/m*3 13.4 C 0 km/h
650 23-08-2008 09:53:02 14.5 C 9.58 g/m*3 14.5 C 0 km/h
Sensor: Nr:Datum:Temp:Abs-Feuchte:Windchill:Wind:
Aussen-T/F 651 23-08-2008 10:05:01 14.4 C 8.78 g/m*3 14.4 C 0 km/h
652 23-08-2008 10:17:02 14.8 C 8.99 g/m*3 14.8 C 0 km/h
653 23-08-2008 10:29:02 15.1 C 8.9 g/m*3 15.1 C 0 km/h
654 23-08-2008 10:41:01 15.7 C 8.7 g/m*3 15.7 C 0 km/h
655 23-08-2008 10:53:02 16 C 8.72 g/m*3 16 C 0 km/h
656 23-08-2008 11:05:02 16.3 C 8.6 g/m*3 16.3 C 0 km/h
657 23-08-2008 11:17:03 16.6 C 8.62 g/m*3 16.6 C 0 km/h
658 23-08-2008 11:29:03 17.1 C 8.44 g/m*3 17.1 C 0 km/h
659 23-08-2008 11:41:02 17.4 C 8.3 g/m*3 17.4 C 0 km/h
660 23-08-2008 11:53:01 17.7 C 8.3 g/m*3 17.7 C 0 km/h
661 23-08-2008 12:05:02 17.9 C 8.4 g/m*3 17.9 C 0 km/h
662 23-08-2008 12:17:01 18.5 C 7.59 g/m*3 18.5 C 0 km/h
663 23-08-2008 12:29:01 17.5 C 7.6 g/m*3 17.5 C 0 km/h
664 23-08-2008 12:41:02 17.5 C 7.6 g/m*3 17.5 C 0 km/h
665 23-08-2008 12:53:02 17.7 C 7.85 g/m*3 17.7 C 0 km/h
666 23-08-2008 13:05:02 18.2 C 7.62 g/m*3 18.2 C 0 km/h
667 23-08-2008 13:17:02 18 C 7.68 g/m*3 18 C 0 km/h
668 23-08-2008 13:29:02 17.5 C 7.6 g/m*3 17.5 C 0 km/h
669 23-08-2008 13:41:02 17.5 C 7.6 g/m*3 17.5 C 0 km/h
670 23-08-2008 13:53:02 18.4 C 7.24 g/m*3 18.4 C 0 km/h
671 23-08-2008 14:05:03 17.9 C 7.79 g/m*3 17.9 C 0 km/h
672 23-08-2008 14:17:02 17.7 C 6.49 g/m*3 17.7 C 0 km/h
673 23-08-2008 14:29:02 17.9 C 6.11 g/m*3 17.9 C 0 km/h
674 23-08-2008 14:41:03 17.7 C 5.88 g/m*3 17.7 C 0 km/h
675 23-08-2008 14:53:02 17.5 C 6.11 g/m*3 17.5 C 0 km/h
Sensor: Nr:Datum:Temp:Abs-Feuchte:Windchill:Wind:
Aussen-T/F 676 23-08-2008 15:05:02 17.2 C 6.15 g/m*3 17.2 C 0 km/h
677 23-08-2008 15:17:02 17.1 C 6.26 g/m*3 17.1 C 0 km/h
678 23-08-2008 15:29:02 17.1 C 6.4 g/m*3 17.1 C 0 km/h
679 23-08-2008 15:41:02 17 C 6.8 g/m*3 17 C 0 km/h
680 23-08-2008 15:53:01 17.3 C 6.78 g/m*3 17.3 C 0 km/h
681 23-08-2008 16:05:02 16.6 C 7.2 g/m*3 16.6 C 0 km/h
682 23-08-2008 16:17:02 17.4 C 7.41 g/m*3 17.4 C 0 km/h
683 23-08-2008 16:29:02 18.6 C 7.16 g/m*3 18.6 C 0 km/h
684 23-08-2008 16:41:02 18.1 C 7.26 g/m*3 18.1 C 0 km/h
685 23-08-2008 16:53:02 18.5 C 7.91 g/m*3 18.5 C 0 km/h
686 23-08-2008 17:05:02 19.7 C 7.64 g/m*3 19.7 C 0 km/h
687 23-08-2008 17:17:02 19.6 C 7.6 g/m*3 19.6 C 0 km/h
688 23-08-2008 17:29:02 19.7 C 7.64 g/m*3 19.7 C 0 km/h
689 23-08-2008 17:41:02 19.1 C 7.21 g/m*3 19.1 C 0 km/h
690 23-08-2008 17:53:02 19.5 C 7.55 g/m*3 19.5 C 0 km/h
691 23-08-2008 18:05:03 18.9 C 6.97 g/m*3 18.9 C 0 km/h
692 23-08-2008 18:17:02 18.8 C 7.09 g/m*3 18.8 C 0 km/h
693 23-08-2008 18:29:02 18.7 C 6.88 g/m*3 18.7 C 0 km/h
694 23-08-2008 18:41:03 18.6 C 6.84 g/m*3 18.6 C 0 km/h
695 23-08-2008 18:53:02 18.4 C 6.92 g/m*3 18.4 C 0 km/h
696 23-08-2008 19:05:02 18.2 C 7.15 g/m*3 18.2 C 0 km/h
697 23-08-2008 19:17:02 17 C 8.39 g/m*3 17 C 0 km/h
698 23-08-2008 19:29:03 16.8 C 9.29 g/m*3 16.8 C 0 km/h
699 23-08-2008 19:41:02 16 C 9.4 g/m*3 16 C 0 km/h
700 23-08-2008 19:53:02 15.9 C 9.89 g/m*3 15.9 C 0 km/h
Sensor: Nr:Datum:Temp:Abs-Feuchte:Windchill:Wind:
Aussen-T/F 701 23-08-2008 20:05:02 15.8 C 9.69 g/m*3 15.8 C 0 km/h
702 23-08-2008 20:17:02 16 C 8.58 g/m*3 16 C 0 km/h
703 23-08-2008 20:29:02 16.3 C 8.19 g/m*3 16.3 C 0 km/h
704 23-08-2008 20:41:02 15.8 C 8.48 g/m*3 15.8 C 0 km/h
705 23-08-2008 20:53:01 14.9 C 9.18 g/m*3 14.9 C 0 km/h
706 23-08-2008 21:05:02 14.5 C 9.58 g/m*3 14.5 C 0 km/h
707 23-08-2008 21:17:02 14.2 C 9.89 g/m*3 14.2 C 0 km/h
708 23-08-2008 21:29:02 14 C 10.01 g/m*3 14 C 0 km/h
709 23-08-2008 21:41:02 14.2 C 10.14 g/m*3 14.2 C 0 km/h
710 23-08-2008 21:53:02 14.1 C 9.95 g/m*3 14.1 C 0 km/h
711 23-08-2008 22:06:01 14.3 C 9.95 g/m*3 14.3 C 0 km/h
712 23-08-2008 22:18:01 14.4 C 9.77 g/m*3 14.4 C 0 km/h
713 23-08-2008 22:30:01 14.6 C 9.76 g/m*3 14.6 C 0 km/h
714 23-08-2008 22:42:01 14.4 C 9.52 g/m*3 14.4 C 0 km/h
715 23-08-2008 22:54:01 14.1 C 9.47 g/m*3 14.1 C 0 km/h
716 23-08-2008 23:06:01 14 C 9.41 g/m*3 14 C 0 km/h
717 23-08-2008 23:18:01 13.9 C 9.47 g/m*3 13.9 C 0 km/h
718 23-08-2008 23:30:01 13.9 C 9.35 g/m*3 13.9 C 0 km/h
719 23-08-2008 23:42:01 14.1 C 9.1 g/m*3 14.1 C 0 km/h
720 23-08-2008 23:54:02 14.2 C 9.16 g/m*3 14.2 C 0 km/h
721 24-08-2008 00:06:02 13.9 C 9.11 g/m*3 13.9 C 0 km/h
722 24-08-2008 00:18:02 13.8 C 9.17 g/m*3 13.8 C 0 km/h
723 24-08-2008 00:30:02 13.6 C 9.06 g/m*3 13.6 C 0 km/h
724 24-08-2008 00:42:02 13.6 C 9.06 g/m*3 13.6 C 0 km/h
725 24-08-2008 00:54:02 13.5 C 9.01 g/m*3 13.5 C 0 km/h
Sensor: Nr:Datum:Temp:Abs-Feuchte:Windchill:Wind:
Aussen-T/F 726 24-08-2008 01:06:02 13.5 C 9.01 g/m*3 13.5 C 0 km/h
727 24-08-2008 01:18:02 13.4 C 8.95 g/m*3 13.4 C 0 km/h
728 24-08-2008 01:30:02 13.5 C 8.89 g/m*3 13.5 C 0 km/h
729 24-08-2008 01:42:02 13.2 C 8.84 g/m*3 13.2 C 0 km/h
730 24-08-2008 01:54:02 12.9 C 8.9 g/m*3 12.9 C 0 km/h
731 24-08-2008 02:06:02 13 C 8.96 g/m*3 13 C 0 km/h
732 24-08-2008 02:18:02 13.1 C 8.9 g/m*3 13.1 C 0 km/h
733 24-08-2008 02:30:02 12.8 C 8.85 g/m*3 12.8 C 0 km/h
734 24-08-2008 02:42:02 12.6 C 8.96 g/m*3 12.6 C 0 km/h
735 24-08-2008 02:54:02 12.5 C 8.91 g/m*3 12.5 C 0 km/h
736 24-08-2008 03:06:02 12.3 C 8.9 g/m*3 12.3 C 0 km/h
737 24-08-2008 03:18:02 12.4 C 8.96 g/m*3 12.4 C 0 km/h
738 24-08-2008 03:30:02 12.5 C 8.91 g/m*3 12.5 C 0 km/h
739 24-08-2008 03:42:03 12.4 C 8.85 g/m*3 12.4 C 0 km/h
740 24-08-2008 03:54:03 12.1 C 8.9 g/m*3 12.1 C 0 km/h
741 24-08-2008 04:06:03 12.1 C 8.79 g/m*3 12.1 C 0 km/h
742 24-08-2008 04:18:03 12 C 8.85 g/m*3 12 C 0 km/h
743 24-08-2008 04:30:03 12 C 8.85 g/m*3 12 C 0 km/h
744 24-08-2008 04:42:03 11.8 C 8.84 g/m*3 11.8 C 0 km/h
745 24-08-2008 04:54:03 11.7 C 8.79 g/m*3 11.7 C 0 km/h
746 24-08-2008 05:06:03 11.4 C 8.72 g/m*3 11.4 C 0 km/h
747 24-08-2008 05:18:03 11.2 C 8.72 g/m*3 11.2 C 0 km/h
748 24-08-2008 05:30:03 11.2 C 8.82 g/m*3 11.2 C 0 km/h
749 24-08-2008 05:42:03 11.1 C 8.76 g/m*3 11.1 C 0 km/h
750 24-08-2008 05:54:03 11.2 C 8.82 g/m*3 11.2 C 0 km/h
Sensor: Nr:Datum:Temp:Abs-Feuchte:Windchill:Wind:
Aussen-T/F 751 24-08-2008 06:06:03 11.2 C 8.82 g/m*3 11.2 C 0 km/h
752 24-08-2008 06:18:03 11.5 C 8.99 g/m*3 11.5 C 0 km/h
753 24-08-2008 06:30:03 11.7 C 8.99 g/m*3 11.7 C 0 km/h
754 24-08-2008 06:42:03 11.8 C 8.95 g/m*3 11.8 C 0 km/h
755 24-08-2008 06:54:03 11.7 C 8.89 g/m*3 11.7 C 0 km/h
756 24-08-2008 07:06:03 11.8 C 8.95 g/m*3 11.8 C 0 km/h
757 24-08-2008 07:18:03 11.8 C 8.95 g/m*3 11.8 C 0 km/h
758 24-08-2008 07:30:03 11.6 C 8.83 g/m*3 11.6 C 0 km/h
759 24-08-2008 07:42:04 11.6 C 8.83 g/m*3 11.6 C 0 km/h
760 24-08-2008 07:54:04 11.7 C 8.89 g/m*3 11.7 C 0 km/h
761 24-08-2008 08:06:04 11.6 C 8.94 g/m*3 11.6 C 0 km/h
762 24-08-2008 08:18:04 11.8 C 9.05 g/m*3 11.8 C 0 km/h
763 24-08-2008 08:30:04 11.9 C 9 g/m*3 11.9 C 0 km/h
764 24-08-2008 08:42:04 12.1 C 9.01 g/m*3 12.1 C 0 km/h
765 24-08-2008 08:54:04 12.3 C 9.12 g/m*3 12.3 C 0 km/h
766 24-08-2008 09:06:02 12.5 C 9.24 g/m*3 12.5 C 0 km/h
767 24-08-2008 09:18:02 12.8 C 9.3 g/m*3 12.8 C 0 km/h
768 24-08-2008 09:30:02 13.5 C 9.36 g/m*3 13.5 C 0 km/h
769 24-08-2008 09:42:02 14 C 9.17 g/m*3 14 C 0 km/h
770 24-08-2008 09:54:02 14.2 C 9.28 g/m*3 14.2 C 0 km/h
771 24-08-2008 10:06:02 15.2 C 9.48 g/m*3 15.2 C 0 km/h
772 24-08-2008 10:18:02 15.5 C 9.25 g/m*3 15.5 C 0 km/h
773 24-08-2008 10:30:03 15.8 C 9.29 g/m*3 15.8 C 0 km/h
774 24-08-2008 10:42:02 16.2 C 8.96 g/m*3 16.2 C 0 km/h
775 24-08-2008 10:54:02 16.4 C 8.93 g/m*3 16.4 C 0 km/h
Sensor: Nr:Datum:Temp:Abs-Feuchte:Windchill:Wind:
Aussen-T/F 776 24-08-2008 11:06:02 16.6 C 8.9 g/m*3 16.6 C 0 km/h
777 24-08-2008 11:18:02 17 C 8.68 g/m*3 17 C 0 km/h
778 24-08-2008 11:30:02 17.4 C 8.6 g/m*3 17.4 C 0 km/h
779 24-08-2008 11:42:02 18.4 C 8.34 g/m*3 18.4 C 0 km/h
780 24-08-2008 11:54:02 19.1 C 7.7 g/m*3 19.1 C 0 km/h
781 24-08-2008 12:06:02 19.1 C 7.38 g/m*3 19.1 C 0 km/h
782 24-08-2008 12:18:02 19.2 C 7.59 g/m*3 19.2 C 0 km/h
783 24-08-2008 12:30:02 19.7 C 7.47 g/m*3 19.7 C 0 km/h
784 24-08-2008 12:42:02 19.5 C 6.88 g/m*3 19.5 C 0 km/h
785 24-08-2008 12:54:02 19.6 C 6.92 g/m*3 19.6 C 0 km/h
786 24-08-2008 13:06:02 19.6 C 6.75 g/m*3 19.6 C 0 km/h
787 24-08-2008 13:18:01 20.5 C 6.94 g/m*3 20.5 C 0 km/h
788 24-08-2008 13:30:01 21.1 C 6.82 g/m*3 21.1 C 0 km/h
789 24-08-2008 13:42:02 21.6 C 6.45 g/m*3 21.6 C 0 km/h
790 24-08-2008 13:54:02 21.9 C 6.56 g/m*3 21.9 C 0 km/h
791 24-08-2008 14:06:03 21.3 C 6.34 g/m*3 21.3 C 0 km/h
792 24-08-2008 14:18:02 21.5 C 6.22 g/m*3 21.5 C 0 km/h
793 24-08-2008 14:30:02 21.6 C 6.07 g/m*3 21.6 C 0 km/h
794 24-08-2008 14:42:03 22.5 C 5.99 g/m*3 22.5 C 0 km/h
795 24-08-2008 14:54:02 22 C 6.02 g/m*3 22 C 0 km/h
796 24-08-2008 15:06:01 22.1 C 6.05 g/m*3 22.1 C 0 km/h
797 24-08-2008 15:18:02 22.9 C 6.34 g/m*3 22.9 C 0 km/h
798 24-08-2008 15:30:03 22.9 C 6.13 g/m*3 22.9 C 0 km/h
799 24-08-2008 15:42:01 22.7 C 6.26 g/m*3 22.7 C 0 km/h
800 24-08-2008 15:54:02 22.4 C 5.96 g/m*3 22.4 C 0 km/h
Sensor: Nr:Datum:Temp:Abs-Feuchte:Windchill:Wind:
Aussen-T/F 801 24-08-2008 16:06:02 22.7 C 6.06 g/m*3 22.7 C 0 km/h
802 24-08-2008 16:18:02 22.7 C 6.26 g/m*3 22.7 C 0 km/h
803 24-08-2008 16:30:02 22.6 C 6.23 g/m*3 22.6 C 0 km/h
804 24-08-2008 16:42:02 22.4 C 6.16 g/m*3 22.4 C 0 km/h
805 24-08-2008 16:54:01 22.7 C 6.06 g/m*3 22.7 C 0 km/h
806 24-08-2008 17:06:02 22.5 C 5.99 g/m*3 22.5 C 0 km/h
807 24-08-2008 17:18:02 22.4 C 6.36 g/m*3 22.4 C 0 km/h
808 24-08-2008 17:30:02 23.5 C 5.71 g/m*3 23.5 C 0 km/h
809 24-08-2008 17:42:02 23.4 C 5.89 g/m*3 23.4 C 0 km/h
810 24-08-2008 17:54:01 22.1 C 6.25 g/m*3 22.1 C 0 km/h
811 24-08-2008 18:06:01 21.8 C 6.91 g/m*3 21.8 C 0 km/h
812 24-08-2008 18:18:02 21.9 C 6.95 g/m*3 21.9 C 0 km/h
813 24-08-2008 18:30:03 21.6 C 7.59 g/m*3 21.6 C 0 km/h
814 24-08-2008 18:42:01 21.2 C 7.41 g/m*3 21.2 C 0 km/h
815 24-08-2008 18:54:03 21.1 C 7 g/m*3 21.1 C 0 km/h
816 24-08-2008 19:06:02 21 C 7.33 g/m*3 21 C 0 km/h
817 24-08-2008 19:18:03 20.7 C 7.56 g/m*3 20.7 C 0 km/h
818 24-08-2008 19:30:03 20.3 C 7.74 g/m*3 20.3 C 0 km/h
819 24-08-2008 19:42:02 19.9 C 7.73 g/m*3 19.9 C 0 km/h
820 24-08-2008 19:54:01 19.5 C 7.89 g/m*3 19.5 C 0 km/h
821 24-08-2008 20:06:01 19 C 7.66 g/m*3 19 C 0 km/h
822 24-08-2008 20:18:01 18.8 C 7.89 g/m*3 18.8 C 0 km/h
823 24-08-2008 20:30:01 18.6 C 8.12 g/m*3 18.6 C 0 km/h
824 24-08-2008 20:42:01 18.3 C 8.13 g/m*3 18.3 C 0 km/h
825 24-08-2008 20:54:01 18.2 C 8.24 g/m*3 18.2 C 0 km/h
Sensor: Nr:Datum:Temp:Abs-Feuchte:Windchill:Wind:
Aussen-T/F 826 24-08-2008 21:06:02 17.9 C 8.24 g/m*3 17.9 C 0 km/h
827 24-08-2008 21:18:01 17.9 C 8.24 g/m*3 17.9 C 0 km/h
828 24-08-2008 21:30:01 17.9 C 8.4 g/m*3 17.9 C 0 km/h
829 24-08-2008 21:42:02 17.9 C 8.09 g/m*3 17.9 C 0 km/h
830 24-08-2008 21:55:03 17.9 C 8.24 g/m*3 17.9 C 0 km/h
831 24-08-2008 22:07:03 17.9 C 8.09 g/m*3 17.9 C 0 km/h
832 24-08-2008 22:19:03 17.8 C 8.2 g/m*3 17.8 C 0 km/h
833 24-08-2008 22:31:03 17.3 C 8.54 g/m*3 17.3 C 0 km/h
834 24-08-2008 22:43:03 16.4 C 9.07 g/m*3 16.4 C 0 km/h
835 24-08-2008 22:55:03 16.2 C 9.38 g/m*3 16.2 C 0 km/h
836 24-08-2008 23:07:03 15.9 C 9.89 g/m*3 15.9 C 0 km/h
837 24-08-2008 23:19:03 15.6 C 10.24 g/m*3 15.6 C 0 km/h
838 24-08-2008 23:31:03 15.4 C 10.38 g/m*3 15.4 C 0 km/h
839 24-08-2008 23:43:03 15 C 10.51 g/m*3 15 C 0 km/h
840 24-08-2008 23:55:03 14.6 C 10.64 g/m*3 14.6 C 0 km/h
841 25-08-2008 00:07:03 14.5 C 10.7 g/m*3 14.5 C 0 km/h
842 25-08-2008 00:19:03 14.4 C 10.88 g/m*3 14.4 C 0 km/h
843 25-08-2008 00:31:03 14.5 C 11.07 g/m*3 14.5 C 0 km/h
844 25-08-2008 00:43:03 14.5 C 11.07 g/m*3 14.5 C 0 km/h
845 25-08-2008 00:55:03 14.4 C 11.13 g/m*3 14.4 C 0 km/h
846 25-08-2008 01:07:03 14.5 C 11.19 g/m*3 14.5 C 0 km/h
847 25-08-2008 01:19:03 14.4 C 11.13 g/m*3 14.4 C 0 km/h
848 25-08-2008 01:31:04 14.4 C 11.13 g/m*3 14.4 C 0 km/h
849 25-08-2008 01:43:04 14.4 C 11.13 g/m*3 14.4 C 0 km/h
850 25-08-2008 01:55:04 14.5 C 11.19 g/m*3 14.5 C 0 km/h
Sensor: Nr:Datum:Temp:Abs-Feuchte:Windchill:Wind:
Aussen-T/F 851 25-08-2008 02:07:04 14.7 C 11.46 g/m*3 14.7 C 0 km/h
852 25-08-2008 02:19:04 14.7 C 11.33 g/m*3 14.7 C 0 km/h
853 25-08-2008 02:31:04 14.6 C 11.26 g/m*3 14.6 C 0 km/h
854 25-08-2008 02:43:04 14.7 C 11.33 g/m*3 14.7 C 0 km/h
855 25-08-2008 02:55:04 14.6 C 11.26 g/m*3 14.6 C 0 km/h
856 25-08-2008 03:07:04 14.5 C 11.19 g/m*3 14.5 C 0 km/h
857 25-08-2008 03:19:04 14.5 C 11.07 g/m*3 14.5 C 0 km/h
858 25-08-2008 03:31:04 14.4 C 11 g/m*3 14.4 C 0 km/h
859 25-08-2008 03:43:04 14.4 C 11 g/m*3 14.4 C 0 km/h
860 25-08-2008 03:55:04 14.4 C 11.13 g/m*3 14.4 C 0 km/h
861 25-08-2008 04:07:04 14.4 C 11.13 g/m*3 14.4 C 0 km/h
862 25-08-2008 04:19:04 14.3 C 10.93 g/m*3 14.3 C 0 km/h
863 25-08-2008 04:31:04 14.3 C 11.06 g/m*3 14.3 C 0 km/h
864 25-08-2008 04:43:04 14.3 C 11.06 g/m*3 14.3 C 0 km/h
865 25-08-2008 04:55:04 14.2 C 10.99 g/m*3 14.2 C 0 km/h
866 25-08-2008 05:07:04 14.2 C 10.99 g/m*3 14.2 C 0 km/h
867 25-08-2008 05:19:04 14.2 C 11.11 g/m*3 14.2 C 0 km/h
868 25-08-2008 05:31:05 14.2 C 11.11 g/m*3 14.2 C 0 km/h
869 25-08-2008 05:43:05 14.3 C 11.18 g/m*3 14.3 C 0 km/h
870 25-08-2008 05:55:05 14.2 C 11.11 g/m*3 14.2 C 0 km/h
871 25-08-2008 06:07:05 14.3 C 11.06 g/m*3 14.3 C 0 km/h
872 25-08-2008 06:19:05 14.4 C 11 g/m*3 14.4 C 0 km/h
873 25-08-2008 06:31:05 14.5 C 10.94 g/m*3 14.5 C 0 km/h
874 25-08-2008 06:43:05 14.6 C 10.89 g/m*3 14.6 C 0 km/h
875 25-08-2008 06:55:05 14.6 C 10.89 g/m*3 14.6 C 0 km/h
Sensor: Nr:Datum:Temp:Abs-Feuchte:Windchill:Wind:
Aussen-T/F 876 25-08-2008 07:07:05 14.7 C 10.95 g/m*3 14.7 C 0 km/h
877 25-08-2008 07:19:05 14.8 C 11.02 g/m*3 14.8 C 0 km/h
878 25-08-2008 07:31:03 14.7 C 11.08 g/m*3 14.7 C 0 km/h
879 25-08-2008 07:43:03 14.7 C 11.08 g/m*3 14.7 C 0 km/h
880 25-08-2008 07:55:02 14.7 C 11.08 g/m*3 14.7 C 0 km/h
881 25-08-2008 08:07:01 14.8 C 11.15 g/m*3 14.8 C 0 km/h
882 25-08-2008 08:19:01 14.8 C 11.15 g/m*3 14.8 C 0 km/h
883 25-08-2008 08:31:02 14.9 C 11.09 g/m*3 14.9 C 0 km/h
884 25-08-2008 08:43:02 15.1 C 11.22 g/m*3 15.1 C 0 km/h
885 25-08-2008 08:55:02 15.2 C 11.29 g/m*3 15.2 C 0 km/h
886 25-08-2008 09:07:02 15.5 C 11.5 g/m*3 15.5 C 0 km/h
887 25-08-2008 09:19:03 15.6 C 11.44 g/m*3 15.6 C 0 km/h
888 25-08-2008 09:31:02 15.6 C 11.57 g/m*3 15.6 C 0 km/h
889 25-08-2008 09:43:02 15.9 C 11.78 g/m*3 15.9 C 0 km/h
890 25-08-2008 09:55:02 16 C 11.58 g/m*3 16 C 0 km/h
891 25-08-2008 10:07:01 16.5 C 11.8 g/m*3 16.5 C 0 km/h
892 25-08-2008 10:19:02 16.8 C 11.87 g/m*3 16.8 C 0 km/h
893 25-08-2008 10:31:01 17 C 11.87 g/m*3 17 C 0 km/h
894 25-08-2008 10:43:01 17 C 11.58 g/m*3 17 C 0 km/h
895 25-08-2008 10:55:02 17.1 C 11.35 g/m*3 17.1 C 0 km/h
896 25-08-2008 11:07:01 17.2 C 11.42 g/m*3 17.2 C 0 km/h
897 25-08-2008 11:19:02 17.5 C 11.48 g/m*3 17.5 C 0 km/h
898 25-08-2008 11:31:01 17.7 C 11.47 g/m*3 17.7 C 0 km/h
899 25-08-2008 11:43:01 17.9 C 11.45 g/m*3 17.9 C 0 km/h
900 25-08-2008 11:55:02 18.7 C 11.37 g/m*3 18.7 C 0 km/h
Sensor: Nr:Datum:Temp:Abs-Feuchte:Windchill:Wind:
Aussen-T/F 901 25-08-2008 12:07:02 18.9 C 11.18 g/m*3 18.9 C 0 km/h
902 25-08-2008 12:19:02 19.5 C 10.74 g/m*3 19.5 C 0 km/h
903 25-08-2008 12:31:02 19.6 C 10.8 g/m*3 19.6 C 0 km/h
904 25-08-2008 12:43:02 20 C 10.71 g/m*3 20 C 0 km/h
905 25-08-2008 12:55:02 20.5 C 10.5 g/m*3 20.5 C 0 km/h
906 25-08-2008 13:07:03 20 C 10.37 g/m*3 20 C 0 km/h
907 25-08-2008 13:19:02 19.4 C 10.34 g/m*3 19.4 C 0 km/h
908 25-08-2008 13:31:03 20 C 10.54 g/m*3 20 C 0 km/h
909 25-08-2008 13:43:03 20.5 C 10.32 g/m*3 20.5 C 0 km/h
910 25-08-2008 13:55:02 19.7 C 10.36 g/m*3 19.7 C 0 km/h
911 25-08-2008 14:07:01 20 C 10.37 g/m*3 20 C 0 km/h
912 25-08-2008 14:19:02 20.5 C 10.32 g/m*3 20.5 C 0 km/h
913 25-08-2008 14:31:01 20.8 C 10.32 g/m*3 20.8 C 0 km/h
914 25-08-2008 14:43:01 20.9 C 10.2 g/m*3 20.9 C 0 km/h
915 25-08-2008 14:55:02 21.2 C 10.01 g/m*3 21.2 C 0 km/h
916 25-08-2008 15:07:01 20.4 C 10.26 g/m*3 20.4 C 0 km/h
917 25-08-2008 15:19:02 20.7 C 10.62 g/m*3 20.7 C 0 km/h
918 25-08-2008 15:31:01 21.4 C 10.31 g/m*3 21.4 C 0 km/h
919 25-08-2008 15:43:01 21.4 C 10.31 g/m*3 21.4 C 0 km/h
920 25-08-2008 15:55:02 22.2 C 9.82 g/m*3 22.2 C 0 km/h
921 25-08-2008 16:07:01 22.4 C 9.93 g/m*3 22.4 C 0 km/h
922 25-08-2008 16:19:02 22.4 C 10.13 g/m*3 22.4 C 0 km/h
923 25-08-2008 16:31:01 22.5 C 9.79 g/m*3 22.5 C 0 km/h
924 25-08-2008 16:43:01 22.4 C 10.13 g/m*3 22.4 C 0 km/h
925 25-08-2008 16:55:01 23.5 C 9.73 g/m*3 23.5 C 0 km/h
Sensor: Nr:Datum:Temp:Abs-Feuchte:Windchill:Wind:
Aussen-T/F 926 25-08-2008 17:07:02 23.8 C 9.9 g/m*3 23.8 C 0 km/h
927 25-08-2008 17:19:01 23.9 C 9.74 g/m*3 23.9 C 0 km/h
928 25-08-2008 17:31:02 23.8 C 9.68 g/m*3 23.8 C 0 km/h
929 25-08-2008 17:43:02 22.6 C 9.84 g/m*3 22.6 C 0 km/h
930 25-08-2008 17:55:02 21.9 C 10.03 g/m*3 21.9 C 0 km/h
931 25-08-2008 18:07:02 21.9 C 10.23 g/m*3 21.9 C 0 km/h
932 25-08-2008 18:19:02 21.4 C 10.12 g/m*3 21.4 C 0 km/h
933 25-08-2008 18:31:02 21 C 10.08 g/m*3 21 C 0 km/h
934 25-08-2008 18:43:02 21 C 10.62 g/m*3 21 C 0 km/h
935 25-08-2008 18:55:02 20.9 C 10.75 g/m*3 20.9 C 0 km/h
936 25-08-2008 19:07:03 20.9 C 10.75 g/m*3 20.9 C 0 km/h
937 25-08-2008 19:19:02 20.5 C 10.85 g/m*3 20.5 C 0 km/h
938 25-08-2008 19:31:03 20.3 C 10.9 g/m*3 20.3 C 0 km/h
939 25-08-2008 19:43:03 21 C 10.62 g/m*3 21 C 0 km/h
940 25-08-2008 19:55:02 20.9 C 9.29 g/m*3 20.9 C 0 km/h
941 25-08-2008 20:07:02 20 C 9.33 g/m*3 20 C 0 km/h
942 25-08-2008 20:19:02 19.3 C 9.79 g/m*3 19.3 C 0 km/h
943 25-08-2008 20:31:01 18.8 C 9.82 g/m*3 18.8 C 0 km/h
944 25-08-2008 20:43:01 18.3 C 9.85 g/m*3 18.3 C 0 km/h
945 25-08-2008 20:55:02 17.9 C 9.92 g/m*3 17.9 C 0 km/h
946 25-08-2008 21:07:02 17.6 C 10.05 g/m*3 17.6 C 0 km/h
947 25-08-2008 21:19:02 17.4 C 9.93 g/m*3 17.4 C 0 km/h
948 25-08-2008 21:31:01 17.2 C 9.96 g/m*3 17.2 C 0 km/h
949 25-08-2008 21:43:01 17 C 9.98 g/m*3 17 C 0 km/h
950 25-08-2008 21:56:02 17 C 9.98 g/m*3 17 C 0 km/h
Sensor: Nr:Datum:Temp:Abs-Feuchte:Windchill:Wind:
Aussen-T/F 951 25-08-2008 22:08:02 16.8 C 10.01 g/m*3 16.8 C 0 km/h
952 25-08-2008 22:20:02 16.6 C 9.89 g/m*3 16.6 C 0 km/h
953 25-08-2008 22:32:02 16.6 C 9.75 g/m*3 16.6 C 0 km/h
954 25-08-2008 22:44:02 16.3 C 9.71 g/m*3 16.3 C 0 km/h
955 25-08-2008 22:56:02 16.1 C 9.73 g/m*3 16.1 C 0 km/h
956 25-08-2008 23:08:02 15.8 C 9.83 g/m*3 15.8 C 0 km/h
957 25-08-2008 23:20:02 15.7 C 9.9 g/m*3 15.7 C 0 km/h
958 25-08-2008 23:32:02 15.5 C 9.91 g/m*3 15.5 C 0 km/h
959 25-08-2008 23:44:02 15.3 C 9.92 g/m*3 15.3 C 0 km/h
960 25-08-2008 23:56:02 15.1 C 10.06 g/m*3 15.1 C 0 km/h
961 26-08-2008 00:08:02 14.9 C 10.2 g/m*3 14.9 C 0 km/h
962 26-08-2008 00:20:02 14.7 C 10.2 g/m*3 14.7 C 0 km/h
963 26-08-2008 00:32:03 14.5 C 10.07 g/m*3 14.5 C 0 km/h
964 26-08-2008 00:44:03 14.4 C 10.14 g/m*3 14.4 C 0 km/h
965 26-08-2008 00:56:03 14.3 C 10.07 g/m*3 14.3 C 0 km/h
966 26-08-2008 01:08:03 14.2 C 10.01 g/m*3 14.2 C 0 km/h
967 26-08-2008 01:20:03 14.1 C 9.95 g/m*3 14.1 C 0 km/h
968 26-08-2008 01:32:03 13.9 C 9.95 g/m*3 13.9 C 0 km/h
969 26-08-2008 01:44:03 13.8 C 9.89 g/m*3 13.8 C 0 km/h
970 26-08-2008 01:56:03 13.7 C 9.83 g/m*3 13.7 C 0 km/h
971 26-08-2008 02:08:03 13.6 C 9.77 g/m*3 13.6 C 0 km/h
972 26-08-2008 02:20:03 13.8 C 10.01 g/m*3 13.8 C 0 km/h
973 26-08-2008 02:32:03 13.9 C 10.07 g/m*3 13.9 C 0 km/h
974 26-08-2008 02:44:03 14.1 C 10.07 g/m*3 14.1 C 0 km/h
975 26-08-2008 02:56:03 14.2 C 10.01 g/m*3 14.2 C 0 km/h
Sensor: Nr:Datum:Temp:Abs-Feuchte:Windchill:Wind:
Aussen-T/F 976 26-08-2008 03:08:03 14.2 C 10.01 g/m*3 14.2 C 0 km/h
977 26-08-2008 03:20:03 14.2 C 10.01 g/m*3 14.2 C 0 km/h
978 26-08-2008 03:32:03 14 C 9.77 g/m*3 14 C 0 km/h
979 26-08-2008 03:44:03 14 C 9.77 g/m*3 14 C 0 km/h
980 26-08-2008 03:56:03 14 C 9.77 g/m*3 14 C 0 km/h
981 26-08-2008 04:08:03 14.1 C 9.95 g/m*3 14.1 C 0 km/h
982 26-08-2008 04:20:03 14.1 C 9.83 g/m*3 14.1 C 0 km/h
983 26-08-2008 04:32:04 14.1 C 9.95 g/m*3 14.1 C 0 km/h
984 26-08-2008 04:44:04 14.3 C 10.07 g/m*3 14.3 C 0 km/h
985 26-08-2008 04:56:04 14.4 C 10.01 g/m*3 14.4 C 0 km/h
986 26-08-2008 05:08:04 14.5 C 10.07 g/m*3 14.5 C 0 km/h
987 26-08-2008 05:20:04 14.6 C 10.14 g/m*3 14.6 C 0 km/h
988 26-08-2008 05:32:04 14.6 C 10.01 g/m*3 14.6 C 0 km/h
989 26-08-2008 05:44:04 14.6 C 10.14 g/m*3 14.6 C 0 km/h
990 26-08-2008 05:56:04 14.7 C 9.95 g/m*3 14.7 C 0 km/h
991 26-08-2008 06:08:04 14.7 C 9.95 g/m*3 14.7 C 0 km/h
992 26-08-2008 06:20:04 14.7 C 9.82 g/m*3 14.7 C 0 km/h
993 26-08-2008 06:32:04 15 C 9.87 g/m*3 15 C 0 km/h
994 26-08-2008 06:44:04 14.7 C 9.82 g/m*3 14.7 C 0 km/h
995 26-08-2008 06:56:02 14.8 C 9.75 g/m*3 14.8 C 0 km/h
996 26-08-2008 07:08:02 14.9 C 9.81 g/m*3 14.9 C 0 km/h
997 26-08-2008 07:20:02 15 C 9.62 g/m*3 15 C 0 km/h
998 26-08-2008 07:32:02 15.2 C 9.73 g/m*3 15.2 C 0 km/h
999 26-08-2008 07:44:02 15.3 C 9.79 g/m*3 15.3 C 0 km/h
1000 26-08-2008 07:56:01 15.4 C 9.72 g/m*3 15.4 C 0 km/h
Sensor: Nr:Datum:Temp:Abs-Feuchte:Windchill:Wind:
Aussen-T/F 1001 26-08-2008 08:08:02 15.6 C 9.84 g/m*3 15.6 C 0 km/h
1002 26-08-2008 08:20:01 15.6 C 9.71 g/m*3 15.6 C 0 km/h
1003 26-08-2008 08:32:02 15.8 C 9.83 g/m*3 15.8 C 0 km/h
1004 26-08-2008 08:44:02 15.9 C 9.75 g/m*3 15.9 C 0 km/h
1005 26-08-2008 08:56:02 16.2 C 9.79 g/m*3 16.2 C 0 km/h
1006 26-08-2008 09:08:02 16.4 C 9.77 g/m*3 16.4 C 0 km/h
1007 26-08-2008 09:20:02 16.7 C 9.66 g/m*3 16.7 C 0 km/h
1008 26-08-2008 09:32:01 16.8 C 9.72 g/m*3 16.8 C 0 km/h
1009 26-08-2008 09:44:01 17 C 9.55 g/m*3 17 C 0 km/h
1010 26-08-2008 09:56:01 17.2 C 9.52 g/m*3 17.2 C 0 km/h
1011 26-08-2008 10:08:02 17.5 C 9.54 g/m*3 17.5 C 0 km/h
1012 26-08-2008 10:20:02 17.7 C 9.66 g/m*3 17.7 C 0 km/h
1013 26-08-2008 10:32:02 18.2 C 9.48 g/m*3 18.2 C 0 km/h
1014 26-08-2008 10:44:02 18.6 C 9.39 g/m*3 18.6 C 0 km/h
1015 26-08-2008 10:56:01 19.1 C 9.51 g/m*3 19.1 C 0 km/h
1016 26-08-2008 11:08:02 19.7 C 9.51 g/m*3 19.7 C 0 km/h
1017 26-08-2008 11:20:01 20.1 C 9.21 g/m*3 20.1 C 0 km/h
1018 26-08-2008 11:32:02 20.6 C 9.31 g/m*3 20.6 C 0 km/h
1019 26-08-2008 11:44:02 21 C 8.98 g/m*3 21 C 0 km/h
1020 26-08-2008 11:56:02 21.4 C 9.19 g/m*3 21.4 C 0 km/h
1021 26-08-2008 12:08:02 22.2 C 9.03 g/m*3 22.2 C 0 km/h
1022 26-08-2008 12:20:02 22.5 C 8.79 g/m*3 22.5 C 0 km/h
1023 26-08-2008 12:32:02 22.9 C 8.79 g/m*3 22.9 C 0 km/h
1024 26-08-2008 12:44:02 22.9 C 8.79 g/m*3 22.9 C 0 km/h
1025 26-08-2008 12:56:02 22.9 C 8.99 g/m*3 22.9 C 0 km/h
Sensor: Nr:Datum:Temp:Abs-Feuchte:Windchill:Wind:
Aussen-T/F 1026 26-08-2008 13:08:02 22.7 C 9.09 g/m*3 22.7 C 0 km/h
1027 26-08-2008 13:20:01 23.1 C 9.3 g/m*3 23.1 C 0 km/h
1028 26-08-2008 13:32:02 23.6 C 9.15 g/m*3 23.6 C 0 km/h
1029 26-08-2008 13:44:02 24.3 C 8.85 g/m*3 24.3 C 0 km/h
1030 26-08-2008 13:56:02 23.9 C 9.09 g/m*3 23.9 C 0 km/h
1031 26-08-2008 14:08:02 23.4 C 8.83 g/m*3 23.4 C 0 km/h
1032 26-08-2008 14:20:02 23.8 C 8.82 g/m*3 23.8 C 0 km/h
1033 26-08-2008 14:32:02 23.6 C 8.93 g/m*3 23.6 C 0 km/h
1034 26-08-2008 14:44:02 23.6 C 9.15 g/m*3 23.6 C 0 km/h
1035 26-08-2008 14:56:02 24.5 C 8.95 g/m*3 24.5 C 0 km/h
1036 26-08-2008 15:08:02 24.8 C 8.88 g/m*3 24.8 C 0 km/h
1037 26-08-2008 15:20:02 24.6 C 8.78 g/m*3 24.6 C 0 km/h
1038 26-08-2008 15:32:02 24.9 C 8.93 g/m*3 24.9 C 0 km/h
1039 26-08-2008 15:44:02 24.6 C 8.78 g/m*3 24.6 C 0 km/h
1040 26-08-2008 15:56:02 25.2 C 8.61 g/m*3 25.2 C 0 km/h
1041 26-08-2008 16:08:02 25.4 C 8.71 g/m*3 25.4 C 0 km/h
1042 26-08-2008 16:20:02 25.9 C 8.72 g/m*3 25.9 C 0 km/h
1043 26-08-2008 16:32:02 25.7 C 8.62 g/m*3 25.7 C 0 km/h
1044 26-08-2008 16:44:02 26 C 8.76 g/m*3 26 C 0 km/h
1045 26-08-2008 16:56:02 25.9 C 8.72 g/m*3 25.9 C 0 km/h
1046 26-08-2008 17:08:02 26 C 8.28 g/m*3 26 C 0 km/h
1047 26-08-2008 17:20:01 26.3 C 8.42 g/m*3 26.3 C 0 km/h
1048 26-08-2008 17:32:02 25.8 C 8.67 g/m*3 25.8 C 0 km/h
1049 26-08-2008 17:44:02 27.3 C 8.63 g/m*3 27.3 C 0 km/h
1050 26-08-2008 17:56:02 26.4 C 8.46 g/m*3 26.4 C 0 km/h
Sensor: Nr:Datum:Temp:Abs-Feuchte:Windchill:Wind:
Aussen-T/F 1051 26-08-2008 18:08:02 26.8 C 8.91 g/m*3 26.8 C 0 km/h
1052 26-08-2008 18:20:02 25.8 C 8.91 g/m*3 25.8 C 0 km/h
1053 26-08-2008 18:32:02 26 C 8.76 g/m*3 26 C 0 km/h
1054 26-08-2008 18:44:02 25.7 C 8.86 g/m*3 25.7 C 0 km/h
1055 26-08-2008 18:56:02 24.9 C 9.16 g/m*3 24.9 C 0 km/h
1056 26-08-2008 19:08:02 24.6 C 9.23 g/m*3 24.6 C 0 km/h
1057 26-08-2008 19:20:02 24.3 C 9.52 g/m*3 24.3 C 0 km/h
1058 26-08-2008 19:32:02 23.8 C 9.68 g/m*3 23.8 C 0 km/h
1059 26-08-2008 19:44:02 23.8 C 9.68 g/m*3 23.8 C 0 km/h
1060 26-08-2008 19:56:03 23.7 C 9.63 g/m*3 23.7 C 0 km/h
1061 26-08-2008 20:08:02 23.2 C 9.56 g/m*3 23.2 C 0 km/h
1062 26-08-2008 20:20:02 22.6 C 9.84 g/m*3 22.6 C 0 km/h
1063 26-08-2008 20:32:02 22 C 9.9 g/m*3 22 C 0 km/h
1064 26-08-2008 20:44:02 21.4 C 10.31 g/m*3 21.4 C 0 km/h
1065 26-08-2008 20:56:02 21 C 10.26 g/m*3 21 C 0 km/h
1066 26-08-2008 21:08:02 20.8 C 10.32 g/m*3 20.8 C 0 km/h
1067 26-08-2008 21:20:02 20.7 C 10.44 g/m*3 20.7 C 0 km/h
1068 26-08-2008 21:32:02 20.6 C 10.56 g/m*3 20.6 C 0 km/h
1069 26-08-2008 21:44:02 20.3 C 10.55 g/m*3 20.3 C 0 km/h
1070 26-08-2008 21:57:03 19.9 C 10.65 g/m*3 19.9 C 0 km/h
1071 26-08-2008 22:09:03 19.4 C 10.68 g/m*3 19.4 C 0 km/h
1072 26-08-2008 22:21:03 18.9 C 11.02 g/m*3 18.9 C 0 km/h
1073 26-08-2008 22:33:03 18.8 C 11.11 g/m*3 18.8 C 0 km/h
1074 26-08-2008 22:45:03 18.6 C 11.14 g/m*3 18.6 C 0 km/h
1075 26-08-2008 22:57:03 18.4 C 11.01 g/m*3 18.4 C 0 km/h
Sensor: Nr:Datum:Temp:Abs-Feuchte:Windchill:Wind:
Aussen-T/F 1076 26-08-2008 23:09:03 18.2 C 11.04 g/m*3 18.2 C 0 km/h
1077 26-08-2008 23:21:03 17.8 C 11.08 g/m*3 17.8 C 0 km/h
1078 26-08-2008 23:33:03 17.7 C 11.16 g/m*3 17.7 C 0 km/h
1079 26-08-2008 23:45:03 17.6 C 11.4 g/m*3 17.6 C 0 km/h
1080 26-08-2008 23:57:03 17.4 C 11.26 g/m*3 17.4 C 0 km/h
1081 27-08-2008 00:09:03 17.2 C 11.28 g/m*3 17.2 C 0 km/h
1082 27-08-2008 00:21:03 17 C 11.29 g/m*3 17 C 0 km/h
1083 27-08-2008 00:33:03 16.8 C 11.29 g/m*3 16.8 C 0 km/h
1084 27-08-2008 00:45:03 16.5 C 11.23 g/m*3 16.5 C 0 km/h
1085 27-08-2008 00:57:04 16.5 C 11.23 g/m*3 16.5 C 0 km/h
1086 27-08-2008 01:09:04 16.2 C 11.17 g/m*3 16.2 C 0 km/h
1087 27-08-2008 01:21:04 16.1 C 11.1 g/m*3 16.1 C 0 km/h
1088 27-08-2008 01:33:04 16 C 11.17 g/m*3 16 C 0 km/h
1089 27-08-2008 01:45:04 16.1 C 11.24 g/m*3 16.1 C 0 km/h
1090 27-08-2008 01:57:04 15.9 C 11.24 g/m*3 15.9 C 0 km/h
1091 27-08-2008 02:09:04 15.8 C 11.17 g/m*3 15.8 C 0 km/h
1092 27-08-2008 02:21:04 15.6 C 11.04 g/m*3 15.6 C 0 km/h
1093 27-08-2008 02:33:04 15.6 C 11.17 g/m*3 15.6 C 0 km/h
1094 27-08-2008 02:45:04 15.7 C 11.24 g/m*3 15.7 C 0 km/h
1095 27-08-2008 02:57:04 15.7 C 11.24 g/m*3 15.7 C 0 km/h
1096 27-08-2008 03:09:04 15.8 C 11.17 g/m*3 15.8 C 0 km/h
1097 27-08-2008 03:21:04 15.8 C 11.17 g/m*3 15.8 C 0 km/h
1098 27-08-2008 03:33:04 15.8 C 11.17 g/m*3 15.8 C 0 km/h
1099 27-08-2008 03:45:04 15.7 C 11.11 g/m*3 15.7 C 0 km/h
1100 27-08-2008 03:57:04 15.6 C 11.04 g/m*3 15.6 C 0 km/h
Sensor: Nr:Datum:Temp:Abs-Feuchte:Windchill:Wind:
Aussen-T/F 1101 27-08-2008 04:09:04 15.6 C 11.04 g/m*3 15.6 C 0 km/h
1102 27-08-2008 04:21:04 15.5 C 10.97 g/m*3 15.5 C 0 km/h
1103 27-08-2008 04:33:04 15.4 C 10.9 g/m*3 15.4 C 0 km/h
1104 27-08-2008 04:45:04 15.3 C 10.84 g/m*3 15.3 C 0 km/h
1105 27-08-2008 04:57:04 15 C 10.64 g/m*3 15 C 0 km/h
1106 27-08-2008 05:09:05 14.7 C 10.7 g/m*3 14.7 C 0 km/h
1107 27-08-2008 05:21:05 14.5 C 10.7 g/m*3 14.5 C 0 km/h
1108 27-08-2008 05:33:05 14.3 C 10.57 g/m*3 14.3 C 0 km/h
1109 27-08-2008 05:45:05 14.2 C 10.62 g/m*3 14.2 C 0 km/h
1110 27-08-2008 05:57:05 14 C 10.49 g/m*3 14 C 0 km/h
1111 27-08-2008 06:09:05 14 C 10.61 g/m*3 14 C 0 km/h
1112 27-08-2008 06:21:05 14.2 C 10.87 g/m*3 14.2 C 0 km/h
1113 27-08-2008 06:33:05 14.2 C 10.75 g/m*3 14.2 C 0 km/h
1114 27-08-2008 06:45:05 14.2 C 10.75 g/m*3 14.2 C 0 km/h
1115 27-08-2008 06:57:05 14.2 C 10.75 g/m*3 14.2 C 0 km/h
1116 27-08-2008 07:09:02 14.2 C 10.75 g/m*3 14.2 C 0 km/h
1117 27-08-2008 07:21:02 14.3 C 10.81 g/m*3 14.3 C 0 km/h
1118 27-08-2008 07:33:02 14.4 C 10.88 g/m*3 14.4 C 0 km/h
1119 27-08-2008 07:45:03 14.5 C 10.82 g/m*3 14.5 C 0 km/h
1120 27-08-2008 07:57:03 14.7 C 10.83 g/m*3 14.7 C 0 km/h
1121 27-08-2008 08:09:02 14.8 C 10.77 g/m*3 14.8 C 0 km/h
1122 27-08-2008 08:21:03 14.8 C 10.64 g/m*3 14.8 C 0 km/h
1123 27-08-2008 08:33:02 14.7 C 10.45 g/m*3 14.7 C 0 km/h
1124 27-08-2008 08:45:02 15 C 10.64 g/m*3 15 C 0 km/h
1125 27-08-2008 08:57:02 15.1 C 10.45 g/m*3 15.1 C 0 km/h
Sensor: Nr:Datum:Temp:Abs-Feuchte:Windchill:Wind:
Aussen-T/F 1126 27-08-2008 09:09:02 15.5 C 10.71 g/m*3 15.5 C 0 km/h
1127 27-08-2008 09:21:03 15.8 C 10.63 g/m*3 15.8 C 0 km/h
1128 27-08-2008 09:33:03 16.3 C 10.82 g/m*3 16.3 C 0 km/h
1129 27-08-2008 09:45:02 16.8 C 10.87 g/m*3 16.8 C 0 km/h
1130 27-08-2008 09:57:02 17.1 C 10.63 g/m*3 17.1 C 0 km/h
1131 27-08-2008 10:09:01 17.3 C 10.75 g/m*3 17.3 C 0 km/h
1132 27-08-2008 10:21:02 17.7 C 10.86 g/m*3 17.7 C 0 km/h
1133 27-08-2008 10:33:02 18 C 10.75 g/m*3 18 C 0 km/h
1134 27-08-2008 10:45:02 18.3 C 10.94 g/m*3 18.3 C 0 km/h
1135 27-08-2008 10:57:02 19.3 C 10.62 g/m*3 19.3 C 0 km/h
1136 27-08-2008 11:09:01 19.9 C 9.97 g/m*3 19.9 C 0 km/h
1137 27-08-2008 11:21:02 20.3 C 9.85 g/m*3 20.3 C 0 km/h
1138 27-08-2008 11:33:01 20.7 C 9.54 g/m*3 20.7 C 0 km/h
1139 27-08-2008 11:45:02 21 C 9.34 g/m*3 21 C 0 km/h
1140 27-08-2008 11:57:02 21 C 9.53 g/m*3 21 C 0 km/h
1141 27-08-2008 12:09:01 21.5 C 9.43 g/m*3 21.5 C 0 km/h
1142 27-08-2008 12:21:02 21.5 C 9.43 g/m*3 21.5 C 0 km/h
1143 27-08-2008 12:33:01 21.9 C 9.46 g/m*3 21.9 C 0 km/h
1144 27-08-2008 12:45:01 22 C 9.32 g/m*3 22 C 0 km/h
1145 27-08-2008 12:57:01 22.3 C 9.28 g/m*3 22.3 C 0 km/h
1146 27-08-2008 13:09:01 22.7 C 9.5 g/m*3 22.7 C 0 km/h
1147 27-08-2008 13:21:01 23.1 C 9.1 g/m*3 23.1 C 0 km/h
1148 27-08-2008 13:33:01 23.7 C 9.41 g/m*3 23.7 C 0 km/h
1149 27-08-2008 13:45:01 23.6 C 9.36 g/m*3 23.6 C 0 km/h
1150 27-08-2008 13:57:01 24 C 8.92 g/m*3 24 C 0 km/h
Sensor: Nr:Datum:Temp:Abs-Feuchte:Windchill:Wind:
Aussen-T/F 1151 27-08-2008 14:09:02 24.6 C 9 g/m*3 24.6 C 0 km/h
1152 27-08-2008 14:21:01 24.6 C 8.78 g/m*3 24.6 C 0 km/h
1153 27-08-2008 14:33:02 25.6 C 9.28 g/m*3 25.6 C 0 km/h
1154 27-08-2008 14:45:02 25.8 C 8.91 g/m*3 25.8 C 0 km/h
1155 27-08-2008 14:57:02 26.3 C 8.66 g/m*3 26.3 C 0 km/h
1156 27-08-2008 15:09:02 26.5 C 8.76 g/m*3 26.5 C 0 km/h
1157 27-08-2008 15:21:02 26.6 C 8.81 g/m*3 26.6 C 0 km/h
1158 27-08-2008 15:33:02 27 C 8.49 g/m*3 27 C 0 km/h
1159 27-08-2008 15:45:02 27.4 C 8.95 g/m*3 27.4 C 0 km/h
1160 27-08-2008 15:57:02 28.1 C 8.75 g/m*3 28.1 C 0 km/h
1161 27-08-2008 16:09:03 28.5 C 8.66 g/m*3 28.5 C 0 km/h
1162 27-08-2008 16:21:02 28.9 C 8.86 g/m*3 28.9 C 0 km/h
1163 27-08-2008 16:33:03 29 C 8.62 g/m*3 29 C 0 km/h
1164 27-08-2008 16:45:02 29 C 8.33 g/m*3 29 C 0 km/h
1165 27-08-2008 16:57:02 28.8 C 8.52 g/m*3 28.8 C 0 km/h
1166 27-08-2008 17:09:01 28.5 C 8.66 g/m*3 28.5 C 0 km/h
1167 27-08-2008 17:21:02 27.8 C 8.34 g/m*3 27.8 C 0 km/h
1168 27-08-2008 17:33:02 27.3 C 8.63 g/m*3 27.3 C 0 km/h
1169 27-08-2008 17:45:02 26.8 C 9.16 g/m*3 26.8 C 0 km/h
1170 27-08-2008 17:57:02 26.6 C 9.31 g/m*3 26.6 C 0 km/h
1171 27-08-2008 18:09:01 26.7 C 8.86 g/m*3 26.7 C 0 km/h
1172 27-08-2008 18:21:02 26.4 C 9.21 g/m*3 26.4 C 0 km/h
1173 27-08-2008 18:33:01 26.5 C 9.26 g/m*3 26.5 C 0 km/h
1174 27-08-2008 18:45:03 25.9 C 9.44 g/m*3 25.9 C 0 km/h
1175 27-08-2008 18:57:03 25 C 9.44 g/m*3 25 C 0 km/h
Sensor: Nr:Datum:Temp:Abs-Feuchte:Windchill:Wind:
Aussen-T/F 1176 27-08-2008 19:09:02 24.3 C 9.52 g/m*3 24.3 C 0 km/h
1177 27-08-2008 19:21:03 23.5 C 9.73 g/m*3 23.5 C 0 km/h
1178 27-08-2008 19:33:02 23.3 C 9.62 g/m*3 23.3 C 0 km/h
1179 27-08-2008 19:45:02 23 C 9.66 g/m*3 23 C 0 km/h
1180 27-08-2008 19:57:02 22.7 C 9.9 g/m*3 22.7 C 0 km/h
1181 27-08-2008 20:09:02 22 C 9.7 g/m*3 22 C 0 km/h
1182 27-08-2008 20:21:02 21.8 C 9.78 g/m*3 21.8 C 0 km/h
1183 27-08-2008 20:33:02 21.6 C 9.67 g/m*3 21.6 C 0 km/h
1184 27-08-2008 20:45:01 21.3 C 9.69 g/m*3 21.3 C 0 km/h
1185 27-08-2008 20:57:01 21.1 C 9.58 g/m*3 21.1 C 0 km/h
1186 27-08-2008 21:09:01 20.9 C 9.65 g/m*3 20.9 C 0 km/h
1187 27-08-2008 21:21:01 20.8 C 9.6 g/m*3 20.8 C 0 km/h
1188 27-08-2008 21:33:01 20.8 C 9.6 g/m*3 20.8 C 0 km/h
1189 27-08-2008 21:45:01 20.2 C 9.27 g/m*3 20.2 C 0 km/h
1190 27-08-2008 21:57:01 20.1 C 9.21 g/m*3 20.1 C 0 km/h
1191 27-08-2008 22:09:02 20.1 C 9.21 g/m*3 20.1 C 0 km/h
1192 27-08-2008 22:21:01 20.2 C 9.27 g/m*3 20.2 C 0 km/h
1193 27-08-2008 22:33:02 20 C 9.16 g/m*3 20 C 0 km/h
1194 27-08-2008 22:46:02 19.7 C 9.34 g/m*3 19.7 C 0 km/h
1195 27-08-2008 22:58:02 19.7 C 9.51 g/m*3 19.7 C 0 km/h
1196 27-08-2008 23:10:02 19.8 C 9.74 g/m*3 19.8 C 0 km/h
1197 27-08-2008 23:22:02 19.6 C 9.45 g/m*3 19.6 C 0 km/h
1198 27-08-2008 23:34:02 19.7 C 9.68 g/m*3 19.7 C 0 km/h
1199 27-08-2008 23:46:02 19.5 C 9.57 g/m*3 19.5 C 0 km/h
1200 27-08-2008 23:58:02 19.4 C 9.51 g/m*3 19.4 C 0 km/h
Sensor: Nr:Datum:Temp:Abs-Feuchte:Windchill:Wind:
Aussen-T/F 1201 28-08-2008 00:10:02 19.4 C 9.68 g/m*3 19.4 C 0 km/h
1202 28-08-2008 00:22:02 19.4 C 9.68 g/m*3 19.4 C 0 km/h
1203 28-08-2008 00:34:02 19.2 C 9.56 g/m*3 19.2 C 0 km/h
1204 28-08-2008 00:46:02 19.1 C 9.67 g/m*3 19.1 C 0 km/h
1205 28-08-2008 00:58:02 19.1 C 9.67 g/m*3 19.1 C 0 km/h
1206 28-08-2008 01:10:02 19 C 9.61 g/m*3 19 C 0 km/h
1207 28-08-2008 01:22:02 19.1 C 9.84 g/m*3 19.1 C 0 km/h
1208 28-08-2008 01:34:02 19 C 9.61 g/m*3 19 C 0 km/h
1209 28-08-2008 01:46:02 19 C 9.78 g/m*3 19 C 0 km/h
1210 28-08-2008 01:58:02 18.9 C 9.88 g/m*3 18.9 C 0 km/h
1211 28-08-2008 02:10:02 18.8 C 9.82 g/m*3 18.8 C 0 km/h
1212 28-08-2008 02:22:02 18.9 C 10.04 g/m*3 18.9 C 0 km/h
1213 28-08-2008 02:34:03 18.9 C 10.04 g/m*3 18.9 C 0 km/h
1214 28-08-2008 02:46:03 18.7 C 10.09 g/m*3 18.7 C 0 km/h
1215 28-08-2008 02:58:03 18.6 C 10.03 g/m*3 18.6 C 0 km/h
1216 28-08-2008 03:10:03 18.6 C 10.03 g/m*3 18.6 C 0 km/h
1217 28-08-2008 03:22:03 18.6 C 10.03 g/m*3 18.6 C 0 km/h
1218 28-08-2008 03:34:03 18.5 C 10.13 g/m*3 18.5 C 0 km/h
1219 28-08-2008 03:46:03 18.5 C 10.13 g/m*3 18.5 C 0 km/h
1220 28-08-2008 03:58:03 18.5 C 10.13 g/m*3 18.5 C 0 km/h
1221 28-08-2008 04:10:03 18.4 C 10.22 g/m*3 18.4 C 0 km/h
1222 28-08-2008 04:22:03 18.4 C 10.22 g/m*3 18.4 C 0 km/h
1223 28-08-2008 04:34:03 18.4 C 10.22 g/m*3 18.4 C 0 km/h
1224 28-08-2008 04:46:03 18.3 C 10.16 g/m*3 18.3 C 0 km/h
1225 28-08-2008 04:58:03 18.3 C 10.32 g/m*3 18.3 C 0 km/h
Sensor: Nr:Datum:Temp:Abs-Feuchte:Windchill:Wind:
Aussen-T/F 1226 28-08-2008 05:10:03 18.2 C 10.1 g/m*3 18.2 C 0 km/h
1227 28-08-2008 05:22:03 18.2 C 10.26 g/m*3 18.2 C 0 km/h
1228 28-08-2008 05:34:03 18.2 C 10.26 g/m*3 18.2 C 0 km/h
1229 28-08-2008 05:46:03 18.1 C 10.04 g/m*3 18.1 C 0 km/h
1230 28-08-2008 05:58:03 18 C 10.14 g/m*3 18 C 0 km/h
1231 28-08-2008 06:10:03 18 C 10.14 g/m*3 18 C 0 km/h
1232 28-08-2008 06:22:04 17.9 C 10.23 g/m*3 17.9 C 0 km/h
1233 28-08-2008 06:34:04 17.9 C 10.23 g/m*3 17.9 C 0 km/h
1234 28-08-2008 06:46:04 17.9 C 10.38 g/m*3 17.9 C 0 km/h
1235 28-08-2008 06:58:04 17.8 C 10.32 g/m*3 17.8 C 0 km/h
1236 28-08-2008 07:10:02 17.8 C 10.32 g/m*3 17.8 C 0 km/h
1237 28-08-2008 07:22:02 17.8 C 10.32 g/m*3 17.8 C 0 km/h
1238 28-08-2008 07:34:03 17.8 C 10.32 g/m*3 17.8 C 0 km/h
1239 28-08-2008 07:46:02 17.9 C 10.54 g/m*3 17.9 C 0 km/h
1240 28-08-2008 07:58:02 18.1 C 10.51 g/m*3 18.1 C 0 km/h
1241 28-08-2008 08:10:02 18.1 C 10.51 g/m*3 18.1 C 0 km/h
1242 28-08-2008 08:22:02 18.1 C 10.66 g/m*3 18.1 C 0 km/h
1243 28-08-2008 08:34:02 18.5 C 10.92 g/m*3 18.5 C 0 km/h
1244 28-08-2008 08:46:02 18.6 C 10.66 g/m*3 18.6 C 0 km/h
1245 28-08-2008 08:58:02 18.7 C 10.73 g/m*3 18.7 C 0 km/h
1246 28-08-2008 09:10:03 18.9 C 10.69 g/m*3 18.9 C 0 km/h
1247 28-08-2008 09:22:02 19.1 C 10.16 g/m*3 19.1 C 0 km/h
1248 28-08-2008 09:34:02 19.2 C 10.06 g/m*3 19.2 C 0 km/h
1249 28-08-2008 09:46:02 19.3 C 9.79 g/m*3 19.3 C 0 km/h
1250 28-08-2008 09:58:02 19.3 C 9.95 g/m*3 19.3 C 0 km/h
Sensor: Nr:Datum:Temp:Abs-Feuchte:Windchill:Wind:
Aussen-T/F 1251 28-08-2008 10:10:02 19.4 C 9.84 g/m*3 19.4 C 0 km/h
1252 28-08-2008 10:22:02 19.6 C 9.79 g/m*3 19.6 C 0 km/h
1253 28-08-2008 10:34:02 19.9 C 9.45 g/m*3 19.9 C 0 km/h
1254 28-08-2008 10:46:02 20.2 C 8.92 g/m*3 20.2 C 0 km/h
1255 28-08-2008 10:58:02 20.5 C 9.07 g/m*3 20.5 C 0 km/h
1256 28-08-2008 11:10:02 21 C 8.43 g/m*3 21 C 0 km/h
1257 28-08-2008 11:22:02 21.5 C 8.3 g/m*3 21.5 C 0 km/h
1258 28-08-2008 11:34:02 21.7 C 8.2 g/m*3 21.7 C 0 km/h
1259 28-08-2008 11:46:02 22.1 C 7.81 g/m*3 22.1 C 0 km/h
1260 28-08-2008 11:58:02 22.7 C 7.88 g/m*3 22.7 C 0 km/h
1261 28-08-2008 12:10:02 23 C 7.6 g/m*3 23 C 0 km/h
1262 28-08-2008 12:22:02 22.9 C 7.56 g/m*3 22.9 C 0 km/h
1263 28-08-2008 12:34:02 23.1 C 7.44 g/m*3 23.1 C 0 km/h
1264 28-08-2008 12:46:02 23.3 C 7.32 g/m*3 23.3 C 0 km/h
1265 28-08-2008 12:58:02 23.5 C 7.4 g/m*3 23.5 C 0 km/h
1266 28-08-2008 13:10:02 23.6 C 7.44 g/m*3 23.6 C 0 km/h
1267 28-08-2008 13:22:02 23.9 C 7.57 g/m*3 23.9 C 0 km/h
1268 28-08-2008 13:34:02 23.2 C 7.28 g/m*3 23.2 C 0 km/h
1269 28-08-2008 13:46:02 23.1 C 7.65 g/m*3 23.1 C 0 km/h
1270 28-08-2008 13:58:02 23.3 C 7.53 g/m*3 23.3 C 0 km/h
1271 28-08-2008 14:10:02 23 C 7.6 g/m*3 23 C 0 km/h
1272 28-08-2008 14:22:02 23.3 C 7.74 g/m*3 23.3 C 0 km/h
1273 28-08-2008 14:34:02 23.7 C 7.7 g/m*3 23.7 C 0 km/h
1274 28-08-2008 14:46:02 23.1 C 7.86 g/m*3 23.1 C 0 km/h
1275 28-08-2008 14:58:02 23.6 C 7.87 g/m*3 23.6 C 0 km/h
Sensor: Nr:Datum:Temp:Abs-Feuchte:Windchill:Wind:
Aussen-T/F 1276 28-08-2008 15:10:02 23.7 C 7.7 g/m*3 23.7 C 0 km/h
1277 28-08-2008 15:22:02 24.4 C 7.79 g/m*3 24.4 C 0 km/h
1278 28-08-2008 15:34:02 24.2 C 7.48 g/m*3 24.2 C 0 km/h
1279 28-08-2008 15:46:01 23.6 C 7.87 g/m*3 23.6 C 0 km/h
1280 28-08-2008 15:58:01 23.2 C 7.69 g/m*3 23.2 C 0 km/h
1281 28-08-2008 16:10:02 22.6 C 8.04 g/m*3 22.6 C 0 km/h
1282 28-08-2008 16:22:02 23 C 8.22 g/m*3 23 C 0 km/h
1283 28-08-2008 16:34:02 23.1 C 7.86 g/m*3 23.1 C 0 km/h
1284 28-08-2008 16:46:02 23.3 C 8.15 g/m*3 23.3 C 0 km/h
1285 28-08-2008 16:58:02 23.4 C 7.78 g/m*3 23.4 C 0 km/h
1286 28-08-2008 17:10:02 22.8 C 8.13 g/m*3 22.8 C 0 km/h
1287 28-08-2008 17:22:02 22.9 C 8.17 g/m*3 22.9 C 0 km/h
1288 28-08-2008 17:34:02 22.6 C 8.04 g/m*3 22.6 C 0 km/h
1289 28-08-2008 17:46:02 22 C 7.96 g/m*3 22 C 0 km/h
1290 28-08-2008 17:58:02 22 C 7.96 g/m*3 22 C 0 km/h
1291 28-08-2008 18:10:03 21.8 C 8.25 g/m*3 21.8 C 0 km/h
1292 28-08-2008 18:22:02 22 C 8.15 g/m*3 22 C 0 km/h
1293 28-08-2008 18:34:02 22 C 8.15 g/m*3 22 C 0 km/h
1294 28-08-2008 18:46:02 21.7 C 8.2 g/m*3 21.7 C 0 km/h
1295 28-08-2008 18:58:02 21.7 C 8.2 g/m*3 21.7 C 0 km/h
1296 28-08-2008 19:10:02 21.6 C 8.35 g/m*3 21.6 C 0 km/h
1297 28-08-2008 19:22:02 21.6 C 8.72 g/m*3 21.6 C 0 km/h
1298 28-08-2008 19:34:02 21.5 C 8.49 g/m*3 21.5 C 0 km/h
1299 28-08-2008 19:46:03 21.3 C 8.57 g/m*3 21.3 C 0 km/h
1300 28-08-2008 19:58:03 21.1 C 8.84 g/m*3 21.1 C 0 km/h
Sensor: Nr:Datum:Temp:Abs-Feuchte:Windchill:Wind:
Aussen-T/F 1301 28-08-2008 20:10:02 20.8 C 9.23 g/m*3 20.8 C 0 km/h
1302 28-08-2008 20:22:03 20.6 C 9.13 g/m*3 20.6 C 0 km/h
1303 28-08-2008 20:34:02 20.4 C 9.38 g/m*3 20.4 C 0 km/h
1304 28-08-2008 20:46:03 20.3 C 9.15 g/m*3 20.3 C 0 km/h
1305 28-08-2008 20:58:03 20.2 C 9.09 g/m*3 20.2 C 0 km/h
1306 28-08-2008 21:10:02 20.1 C 9.04 g/m*3 20.1 C 0 km/h
1307 28-08-2008 21:22:02 20 C 9.16 g/m*3 20 C 0 km/h
1308 28-08-2008 21:34:02 20 C 9.33 g/m*3 20 C 0 km/h
1309 28-08-2008 21:46:02 19.8 C 9.57 g/m*3 19.8 C 0 km/h
1310 28-08-2008 21:58:02 19.6 C 9.79 g/m*3 19.6 C 0 km/h
1311 28-08-2008 22:10:03 19.5 C 9.9 g/m*3 19.5 C 0 km/h
1312 28-08-2008 22:22:02 19.4 C 9.68 g/m*3 19.4 C 0 km/h
1313 28-08-2008 22:35:02 19.4 C 9.68 g/m*3 19.4 C 0 km/h
1314 28-08-2008 22:47:02 19.3 C 9.79 g/m*3 19.3 C 0 km/h
1315 28-08-2008 22:59:02 19.1 C 9.67 g/m*3 19.1 C 0 km/h
1316 28-08-2008 23:11:02 19.1 C 9.84 g/m*3 19.1 C 0 km/h
1317 28-08-2008 23:23:02 19.2 C 9.89 g/m*3 19.2 C 0 km/h
1318 28-08-2008 23:35:02 19.2 C 9.89 g/m*3 19.2 C 0 km/h
1319 28-08-2008 23:47:02 19.1 C 9.84 g/m*3 19.1 C 0 km/h
1320 28-08-2008 23:59:02 19.1 C 10 g/m*3 19.1 C 0 km/h
1321 29-08-2008 00:11:02 19 C 9.94 g/m*3 19 C 0 km/h
1322 29-08-2008 00:23:02 18.9 C 10.04 g/m*3 18.9 C 0 km/h
1323 29-08-2008 00:35:02 18.9 C 10.04 g/m*3 18.9 C 0 km/h
1324 29-08-2008 00:47:02 18.9 C 10.04 g/m*3 18.9 C 0 km/h
1325 29-08-2008 00:59:02 18.8 C 9.99 g/m*3 18.8 C 0 km/h
Sensor: Nr:Datum:Temp:Abs-Feuchte:Windchill:Wind:
Aussen-T/F 1326 29-08-2008 01:11:02 18.8 C 9.99 g/m*3 18.8 C 0 km/h
1327 29-08-2008 01:23:02 18.8 C 9.99 g/m*3 18.8 C 0 km/h
1328 29-08-2008 01:35:02 18.7 C 9.93 g/m*3 18.7 C 0 km/h
1329 29-08-2008 01:47:02 18.7 C 9.77 g/m*3 18.7 C 0 km/h
1330 29-08-2008 01:59:02 18.6 C 9.71 g/m*3 18.6 C 0 km/h
1331 29-08-2008 02:11:03 18.6 C 9.71 g/m*3 18.6 C 0 km/h
1332 29-08-2008 02:23:03 18.5 C 9.65 g/m*3 18.5 C 0 km/h
1333 29-08-2008 02:35:03 18.5 C 9.81 g/m*3 18.5 C 0 km/h
1334 29-08-2008 02:47:03 18.5 C 9.49 g/m*3 18.5 C 0 km/h
1335 29-08-2008 02:59:03 18.4 C 9.59 g/m*3 18.4 C 0 km/h
1336 29-08-2008 03:11:03 18.4 C 9.91 g/m*3 18.4 C 0 km/h
1337 29-08-2008 03:23:03 18.3 C 9.69 g/m*3 18.3 C 0 km/h
1338 29-08-2008 03:35:03 18.2 C 9.64 g/m*3 18.2 C 0 km/h
1339 29-08-2008 03:47:03 18.2 C 9.64 g/m*3 18.2 C 0 km/h
1340 29-08-2008 03:59:03 18.1 C 9.58 g/m*3 18.1 C 0 km/h
1341 29-08-2008 04:11:03 18.1 C 9.43 g/m*3 18.1 C 0 km/h
1342 29-08-2008 04:23:03 18.1 C 9.58 g/m*3 18.1 C 0 km/h
1343 29-08-2008 04:35:03 18.1 C 9.43 g/m*3 18.1 C 0 km/h
1344 29-08-2008 04:47:03 18.1 C 9.43 g/m*3 18.1 C 0 km/h
1345 29-08-2008 04:59:03 18.1 C 9.43 g/m*3 18.1 C 0 km/h
1346 29-08-2008 05:11:03 18 C 9.22 g/m*3 18 C 0 km/h
1347 29-08-2008 05:23:03 18 C 9.22 g/m*3 18 C 0 km/h
1348 29-08-2008 05:35:03 17.9 C 9.31 g/m*3 17.9 C 0 km/h
1349 29-08-2008 05:47:03 17.9 C 9.47 g/m*3 17.9 C 0 km/h
1350 29-08-2008 05:59:04 17.9 C 9.31 g/m*3 17.9 C 0 km/h
Sensor: Nr:Datum:Temp:Abs-Feuchte:Windchill:Wind:
Aussen-T/F 1351 29-08-2008 06:11:04 17.8 C 9.41 g/m*3 17.8 C 0 km/h
1352 29-08-2008 06:23:04 17.8 C 9.41 g/m*3 17.8 C 0 km/h
1353 29-08-2008 06:35:04 17.8 C 9.41 g/m*3 17.8 C 0 km/h
1354 29-08-2008 06:47:04 17.8 C 9.41 g/m*3 17.8 C 0 km/h
1355 29-08-2008 06:59:04 17.8 C 9.41 g/m*3 17.8 C 0 km/h
1356 29-08-2008 07:11:04 17.8 C 9.56 g/m*3 17.8 C 0 km/h
1357 29-08-2008 07:23:04 17.8 C 9.56 g/m*3 17.8 C 0 km/h
1358 29-08-2008 07:35:04 17.8 C 9.56 g/m*3 17.8 C 0 km/h
1359 29-08-2008 07:47:04 17.9 C 9.62 g/m*3 17.9 C 0 km/h
1360 29-08-2008 07:59:04 17.9 C 9.47 g/m*3 17.9 C 0 km/h
1361 29-08-2008 08:11:04 17.9 C 9.47 g/m*3 17.9 C 0 km/h
1362 29-08-2008 08:23:02 18.1 C 9.43 g/m*3 18.1 C 0 km/h
1363 29-08-2008 08:35:02 18.1 C 9.43 g/m*3 18.1 C 0 km/h
1364 29-08-2008 08:47:01 18.1 C 9.58 g/m*3 18.1 C 0 km/h
1365 29-08-2008 08:59:01 18.2 C 9.79 g/m*3 18.2 C 0 km/h
1366 29-08-2008 09:11:02 18.3 C 9.85 g/m*3 18.3 C 0 km/h
1367 29-08-2008 09:23:02 18.4 C 9.91 g/m*3 18.4 C 0 km/h
1368 29-08-2008 09:35:02 18.5 C 9.97 g/m*3 18.5 C 0 km/h
1369 29-08-2008 09:47:02 18.6 C 9.55 g/m*3 18.6 C 0 km/h
1370 29-08-2008 09:59:02 18.9 C 9.72 g/m*3 18.9 C 0 km/h
1371 29-08-2008 10:11:03 19.3 C 9.45 g/m*3 19.3 C 0 km/h
1372 29-08-2008 10:23:02 19.6 C 9.45 g/m*3 19.6 C 0 km/h
1373 29-08-2008 10:35:03 19.8 C 9.39 g/m*3 19.8 C 0 km/h
1374 29-08-2008 10:47:02 20.4 C 9.38 g/m*3 20.4 C 0 km/h
1375 29-08-2008 10:59:02 20.5 C 9.25 g/m*3 20.5 C 0 km/h
Sensor: Nr:Datum:Temp:Abs-Feuchte:Windchill:Wind:
Aussen-T/F 1376 29-08-2008 11:11:01 20.7 C 9.36 g/m*3 20.7 C 0 km/h
1377 29-08-2008 11:23:02 20.4 C 9.38 g/m*3 20.4 C 0 km/h
1378 29-08-2008 11:35:02 20.5 C 9.25 g/m*3 20.5 C 0 km/h
1379 29-08-2008 11:47:02 20.8 C 9.42 g/m*3 20.8 C 0 km/h
1380 29-08-2008 11:59:02 21.3 C 9.51 g/m*3 21.3 C 0 km/h
1381 29-08-2008 12:11:01 21 C 9.34 g/m*3 21 C 0 km/h
1382 29-08-2008 12:23:02 21.1 C 9.4 g/m*3 21.1 C 0 km/h
1383 29-08-2008 12:35:01 21.5 C 9.62 g/m*3 21.5 C 0 km/h
1384 29-08-2008 12:47:02 21.8 C 9.59 g/m*3 21.8 C 0 km/h
1385 29-08-2008 12:59:02 22.3 C 9.08 g/m*3 22.3 C 0 km/h
1386 29-08-2008 13:11:01 23.1 C 9.1 g/m*3 23.1 C 0 km/h
1387 29-08-2008 13:23:02 23.2 C 8.94 g/m*3 23.2 C 0 km/h
1388 29-08-2008 13:35:01 23.3 C 8.78 g/m*3 23.3 C 0 km/h
1389 29-08-2008 13:47:01 23.8 C 8.6 g/m*3 23.8 C 0 km/h
1390 29-08-2008 13:59:01 23.4 C 8.83 g/m*3 23.4 C 0 km/h
1391 29-08-2008 14:11:01 23.7 C 8.98 g/m*3 23.7 C 0 km/h
1392 29-08-2008 14:23:01 24.5 C 8.95 g/m*3 24.5 C 0 km/h
1393 29-08-2008 14:35:01 23.9 C 8.87 g/m*3 23.9 C 0 km/h
1394 29-08-2008 14:47:01 24.1 C 8.97 g/m*3 24.1 C 0 km/h
1395 29-08-2008 14:59:01 24.5 C 8.95 g/m*3 24.5 C 0 km/h
1396 29-08-2008 15:11:02 24.1 C 8.53 g/m*3 24.1 C 0 km/h
1397 29-08-2008 15:23:01 24.1 C 8.75 g/m*3 24.1 C 0 km/h
1398 29-08-2008 15:35:02 24.6 C 8.78 g/m*3 24.6 C 0 km/h
1399 29-08-2008 15:47:02 25.3 C 8.43 g/m*3 25.3 C 0 km/h
1400 29-08-2008 15:59:02 25.7 C 8.62 g/m*3 25.7 C 0 km/h
Sensor: Nr:Datum:Temp:Abs-Feuchte:Windchill:Wind:
Aussen-T/F 1401 29-08-2008 16:11:02 25.7 C 8.38 g/m*3 25.7 C 0 km/h
1402 29-08-2008 16:23:02 25.7 C 8.62 g/m*3 25.7 C 0 km/h
1403 29-08-2008 16:35:02 25 C 8.52 g/m*3 25 C 0 km/h
1404 29-08-2008 16:47:01 24.7 C 9.05 g/m*3 24.7 C 0 km/h
1405 29-08-2008 16:59:01 25.4 C 8.95 g/m*3 25.4 C 0 km/h
1406 29-08-2008 17:11:01 26.1 C 8.32 g/m*3 26.1 C 0 km/h
1407 29-08-2008 17:23:01 26 C 8.52 g/m*3 26 C 0 km/h
1408 29-08-2008 17:35:01 27.4 C 8.42 g/m*3 27.4 C 0 km/h
1409 29-08-2008 17:47:03 28.5 C 8.94 g/m*3 28.5 C 0 km/h
1410 29-08-2008 17:59:03 28.1 C 8.75 g/m*3 28.1 C 0 km/h
1411 29-08-2008 18:11:02 27.9 C 8.65 g/m*3 27.9 C 0 km/h
1412 29-08-2008 18:23:03 27.3 C 8.63 g/m*3 27.3 C 0 km/h
1413 29-08-2008 18:35:02 27.6 C 8.78 g/m*3 27.6 C 0 km/h
1414 29-08-2008 18:47:02 28 C 8.7 g/m*3 28 C 0 km/h
1415 29-08-2008 18:59:02 27.9 C 8.38 g/m*3 27.9 C 0 km/h
1416 29-08-2008 19:11:03 26.7 C 8.1 g/m*3 26.7 C 0 km/h
1417 29-08-2008 19:23:02 25.1 C 8.57 g/m*3 25.1 C 0 km/h
1418 29-08-2008 19:35:03 24.9 C 9.16 g/m*3 24.9 C 0 km/h
1419 29-08-2008 19:47:02 24.5 C 9.62 g/m*3 24.5 C 0 km/h
1420 29-08-2008 19:59:03 23.7 C 9.63 g/m*3 23.7 C 0 km/h
1421 29-08-2008 20:11:01 23.1 C 9.72 g/m*3 23.1 C 0 km/h
1422 29-08-2008 20:23:02 22.3 C 10.07 g/m*3 22.3 C 0 km/h
1423 29-08-2008 20:35:01 21.4 C 9.94 g/m*3 21.4 C 0 km/h
1424 29-08-2008 20:47:02 20.7 C 10.08 g/m*3 20.7 C 0 km/h
1425 29-08-2008 20:59:02 20.1 C 10.08 g/m*3 20.1 C 0 km/h
Sensor: Nr:Datum:Temp:Abs-Feuchte:Windchill:Wind:
Aussen-T/F 1426 29-08-2008 21:11:01 19.8 C 10.42 g/m*3 19.8 C 0 km/h
1427 29-08-2008 21:23:02 19.5 C 10.41 g/m*3 19.5 C 0 km/h
1428 29-08-2008 21:35:01 19.3 C 10.45 g/m*3 19.3 C 0 km/h
1429 29-08-2008 21:47:02 19.3 C 10.45 g/m*3 19.3 C 0 km/h
1430 29-08-2008 21:59:02 19 C 10.43 g/m*3 19 C 0 km/h
1431 29-08-2008 22:11:01 18.9 C 10.69 g/m*3 18.9 C 0 km/h
1432 29-08-2008 22:24:01 18.8 C 10.79 g/m*3 18.8 C 0 km/h
1433 29-08-2008 22:36:01 18.6 C 10.82 g/m*3 18.6 C 0 km/h
1434 29-08-2008 22:48:01 18.5 C 10.76 g/m*3 18.5 C 0 km/h
1435 29-08-2008 23:00:01 18.3 C 10.79 g/m*3 18.3 C 0 km/h
1436 29-08-2008 23:12:01 18.1 C 10.82 g/m*3 18.1 C 0 km/h
1437 29-08-2008 23:24:01 17.9 C 10.99 g/m*3 17.9 C 0 km/h
1438 29-08-2008 23:36:02 17.7 C 11.01 g/m*3 17.7 C 0 km/h
1439 29-08-2008 23:48:02 17.4 C 10.97 g/m*3 17.4 C 0 km/h
1440 30-08-2008 00:00:02 17.2 C 10.84 g/m*3 17.2 C 0 km/h
1441 30-08-2008 00:12:02 17.1 C 10.92 g/m*3 17.1 C 0 km/h
1442 30-08-2008 00:24:02 16.9 C 10.93 g/m*3 16.9 C 0 km/h
1443 30-08-2008 00:36:02 16.8 C 11.01 g/m*3 16.8 C 0 km/h
1444 30-08-2008 00:48:02 16.6 C 10.88 g/m*3 16.6 C 0 km/h
1445 30-08-2008 01:00:02 16.4 C 10.89 g/m*3 16.4 C 0 km/h
1446 30-08-2008 01:12:02 16.3 C 10.82 g/m*3 16.3 C 0 km/h
1447 30-08-2008 01:24:02 16.2 C 10.89 g/m*3 16.2 C 0 km/h
1448 30-08-2008 01:36:02 16.1 C 10.83 g/m*3 16.1 C 0 km/h
1449 30-08-2008 01:48:02 15.9 C 10.83 g/m*3 15.9 C 0 km/h
1450 30-08-2008 02:00:02 15.8 C 10.77 g/m*3 15.8 C 0 km/h
Sensor: Nr:Datum:Temp:Abs-Feuchte:Windchill:Wind:
Aussen-T/F 1451 30-08-2008 02:12:02 15.6 C 10.64 g/m*3 15.6 C 0 km/h
1452 30-08-2008 02:24:02 15.5 C 10.71 g/m*3 15.5 C 0 km/h
1453 30-08-2008 02:36:02 15.4 C 10.64 g/m*3 15.4 C 0 km/h
1454 30-08-2008 02:48:02 15.4 C 10.64 g/m*3 15.4 C 0 km/h
1455 30-08-2008 03:00:02 15.2 C 10.51 g/m*3 15.2 C 0 km/h
1456 30-08-2008 03:12:02 15 C 10.39 g/m*3 15 C 0 km/h
1457 30-08-2008 03:24:03 14.9 C 10.45 g/m*3 14.9 C 0 km/h
1458 30-08-2008 03:36:03 14.7 C 10.45 g/m*3 14.7 C 0 km/h
1459 30-08-2008 03:48:03 14.7 C 10.45 g/m*3 14.7 C 0 km/h
1460 30-08-2008 04:00:03 14.7 C 10.45 g/m*3 14.7 C 0 km/h
1461 30-08-2008 04:12:03 14.4 C 10.26 g/m*3 14.4 C 0 km/h
1462 30-08-2008 04:24:03 14.4 C 10.26 g/m*3 14.4 C 0 km/h
1463 30-08-2008 04:36:03 14.3 C 10.2 g/m*3 14.3 C 0 km/h
1464 30-08-2008 04:48:03 14.4 C 10.26 g/m*3 14.4 C 0 km/h
1465 30-08-2008 05:00:03 14.5 C 10.45 g/m*3 14.5 C 0 km/h
1466 30-08-2008 05:12:03 14.5 C 10.45 g/m*3 14.5 C 0 km/h
1467 30-08-2008 05:24:03 14.5 C 10.45 g/m*3 14.5 C 0 km/h
1468 30-08-2008 05:36:03 14.5 C 10.45 g/m*3 14.5 C 0 km/h
1469 30-08-2008 05:48:03 14 C 10.25 g/m*3 14 C 0 km/h
1470 30-08-2008 06:00:03 14.5 C 10.57 g/m*3 14.5 C 0 km/h
1471 30-08-2008 06:12:03 14.4 C 10.51 g/m*3 14.4 C 0 km/h
1472 30-08-2008 06:24:03 14.3 C 10.57 g/m*3 14.3 C 0 km/h
1473 30-08-2008 06:36:03 14.3 C 10.69 g/m*3 14.3 C 0 km/h
1474 30-08-2008 06:48:03 14.4 C 10.88 g/m*3 14.4 C 0 km/h
1475 30-08-2008 07:00:03 14.6 C 11.01 g/m*3 14.6 C 0 km/h
Sensor: Nr:Datum:Temp:Abs-Feuchte:Windchill:Wind:
Aussen-T/F 1476 30-08-2008 07:12:04 14.6 C 10.89 g/m*3 14.6 C 0 km/h
1477 30-08-2008 07:24:04 14.8 C 11.15 g/m*3 14.8 C 0 km/h
1478 30-08-2008 07:36:04 14.9 C 11.09 g/m*3 14.9 C 0 km/h
1479 30-08-2008 07:48:04 15.1 C 11.09 g/m*3 15.1 C 0 km/h
1480 30-08-2008 08:00:04 15.2 C 11.03 g/m*3 15.2 C 0 km/h
1481 30-08-2008 08:12:02 15.4 C 11.04 g/m*3 15.4 C 0 km/h
1482 30-08-2008 08:24:01 15.5 C 10.97 g/m*3 15.5 C 0 km/h
1483 30-08-2008 08:36:02 15.7 C 11.11 g/m*3 15.7 C 0 km/h
1484 30-08-2008 08:48:02 15.8 C 11.04 g/m*3 15.8 C 0 km/h
1485 30-08-2008 09:00:02 15.8 C 11.04 g/m*3 15.8 C 0 km/h
1486 30-08-2008 09:12:02 16.1 C 11.1 g/m*3 16.1 C 0 km/h
1487 30-08-2008 09:24:02 16.4 C 11.17 g/m*3 16.4 C 0 km/h
1488 30-08-2008 09:36:02 16.8 C 11.29 g/m*3 16.8 C 0 km/h
1489 30-08-2008 09:48:02 17.1 C 11.21 g/m*3 17.1 C 0 km/h
1490 30-08-2008 10:00:02 17 C 11.29 g/m*3 17 C 0 km/h
1491 30-08-2008 10:12:02 17.4 C 11.71 g/m*3 17.4 C 0 km/h
1492 30-08-2008 10:24:02 17.9 C 11.76 g/m*3 17.9 C 0 km/h
1493 30-08-2008 10:36:02 18.5 C 11.71 g/m*3 18.5 C 0 km/h
1494 30-08-2008 10:48:02 19.1 C 11.8 g/m*3 19.1 C 0 km/h
1495 30-08-2008 11:00:02 19.6 C 11.82 g/m*3 19.6 C 0 km/h
1496 30-08-2008 11:12:01 20.2 C 11.19 g/m*3 20.2 C 0 km/h
1497 30-08-2008 11:24:02 20.7 C 11.16 g/m*3 20.7 C 0 km/h
1498 30-08-2008 11:36:02 21.2 C 10.93 g/m*3 21.2 C 0 km/h
1499 30-08-2008 11:48:02 21.8 C 10.94 g/m*3 21.8 C 0 km/h
1500 30-08-2008 12:00:02 22.4 C 10.92 g/m*3 22.4 C 0 km/h
Sensor: Nr:Datum:Temp:Abs-Feuchte:Windchill:Wind:
Aussen-T/F 1501 30-08-2008 12:12:01 22.9 C 10.63 g/m*3 22.9 C 0 km/h
1502 30-08-2008 12:24:02 23.5 C 10.79 g/m*3 23.5 C 0 km/h
1503 30-08-2008 12:36:01 23.8 C 10.54 g/m*3 23.8 C 0 km/h
1504 30-08-2008 12:48:02 24.1 C 10.06 g/m*3 24.1 C 0 km/h
1505 30-08-2008 13:00:02 24.5 C 9.85 g/m*3 24.5 C 0 km/h
1506 30-08-2008 13:12:02 25.1 C 9.95 g/m*3 25.1 C 0 km/h
1507 30-08-2008 13:24:02 25.6 C 10 g/m*3 25.6 C 0 km/h
1508 30-08-2008 13:36:03 26.1 C 9.55 g/m*3 26.1 C 0 km/h
1509 30-08-2008 13:48:02 26.3 C 9.65 g/m*3 26.3 C 0 km/h
1510 30-08-2008 14:00:02 26.9 C 9.47 g/m*3 26.9 C 0 km/h
1511 30-08-2008 14:12:02 27.7 C 9.63 g/m*3 27.7 C 0 km/h
1512 30-08-2008 14:24:02 28.4 C 9.45 g/m*3 28.4 C 0 km/h
1513 30-08-2008 14:36:02 28.9 C 9.14 g/m*3 28.9 C 0 km/h
1514 30-08-2008 14:48:02 29.3 C 8.76 g/m*3 29.3 C 0 km/h
1515 30-08-2008 15:00:02 29.6 C 8.9 g/m*3 29.6 C 0 km/h
1516 30-08-2008 15:12:02 30.3 C 8.94 g/m*3 30.3 C 0 km/h
1517 30-08-2008 15:24:01 30.4 C 8.68 g/m*3 30.4 C 0 km/h
1518 30-08-2008 15:36:02 30.4 C 8.37 g/m*3 30.4 C 0 km/h
1519 30-08-2008 15:48:02 30.7 C 8.19 g/m*3 30.7 C 0 km/h
1520 30-08-2008 16:00:02 31 C 8.32 g/m*3 31 C 0 km/h
1521 30-08-2008 16:12:02 31.2 C 8.09 g/m*3 31.2 C 0 km/h
1522 30-08-2008 16:24:02 31.2 C 7.76 g/m*3 31.2 C 0 km/h
1523 30-08-2008 16:36:02 31.6 C 7.6 g/m*3 31.6 C 0 km/h
1524 30-08-2008 16:48:02 31.9 C 7.39 g/m*3 31.9 C 0 km/h
1525 30-08-2008 17:00:02 31.4 C 7.19 g/m*3 31.4 C 0 km/h
Sensor: Nr:Datum:Temp:Abs-Feuchte:Windchill:Wind:
Aussen-T/F 1526 30-08-2008 17:12:02 31.7 C 7.31 g/m*3 31.7 C 0 km/h
1527 30-08-2008 17:24:01 32.1 C 7.13 g/m*3 32.1 C 0 km/h
1528 30-08-2008 17:36:02 32.1 C 6.79 g/m*3 32.1 C 0 km/h
1529 30-08-2008 17:48:02 32.1 C 6.79 g/m*3 32.1 C 0 km/h
1530 30-08-2008 18:00:02 32.2 C 6.82 g/m*3 32.2 C 0 km/h
1531 30-08-2008 18:12:02 32.3 C 6.86 g/m*3 32.3 C 0 km/h
1532 30-08-2008 18:24:02 32 C 6.75 g/m*3 32 C 0 km/h
1533 30-08-2008 18:36:02 31.8 C 6.68 g/m*3 31.8 C 0 km/h
1534 30-08-2008 18:48:02 31.7 C 7.31 g/m*3 31.7 C 0 km/h
1535 30-08-2008 19:00:02 31.3 C 7.48 g/m*3 31.3 C 0 km/h
1536 30-08-2008 19:12:02 31 C 8 g/m*3 31 C 0 km/h
1537 30-08-2008 19:24:02 30.4 C 8.06 g/m*3 30.4 C 0 km/h
1538 30-08-2008 19:36:02 29.4 C 8.51 g/m*3 29.4 C 0 km/h
1539 30-08-2008 19:48:02 28.1 C 8.48 g/m*3 28.1 C 0 km/h
1540 30-08-2008 20:00:02 26.5 C 8.76 g/m*3 26.5 C 0 km/h
1541 30-08-2008 20:12:02 25.2 C 8.85 g/m*3 25.2 C 0 km/h
1542 30-08-2008 20:24:02 24.3 C 9.07 g/m*3 24.3 C 0 km/h
1543 30-08-2008 20:36:02 23.5 C 9.31 g/m*3 23.5 C 0 km/h
1544 30-08-2008 20:48:02 23 C 9.25 g/m*3 23 C 0 km/h
1545 30-08-2008 21:00:02 22.7 C 9.7 g/m*3 22.7 C 0 km/h
1546 30-08-2008 21:12:03 22.6 C 9.64 g/m*3 22.6 C 0 km/h
1547 30-08-2008 21:24:02 22.2 C 9.62 g/m*3 22.2 C 0 km/h
1548 30-08-2008 21:36:03 22 C 9.51 g/m*3 22 C 0 km/h
1549 30-08-2008 21:48:02 21.6 C 9.67 g/m*3 21.6 C 0 km/h
1550 30-08-2008 22:00:02 21.4 C 9.75 g/m*3 21.4 C 0 km/h
Sensor: Nr:Datum:Temp:Abs-Feuchte:Windchill:Wind:
Aussen-T/F 1551 30-08-2008 22:12:02 21.2 C 9.82 g/m*3 21.2 C 0 km/h
1552 30-08-2008 22:24:02 21 C 9.71 g/m*3 21 C 0 km/h
1553 30-08-2008 22:36:02 20.7 C 9.72 g/m*3 20.7 C 0 km/h
1554 30-08-2008 22:48:02 20.4 C 9.73 g/m*3 20.4 C 0 km/h
1555 30-08-2008 23:00:02 20.4 C 9.73 g/m*3 20.4 C 0 km/h
1556 30-08-2008 23:12:01 20.1 C 9.73 g/m*3 20.1 C 0 km/h
1557 30-08-2008 23:24:02 20 C 9.68 g/m*3 20 C 0 km/h
1558 30-08-2008 23:36:01 19.6 C 9.62 g/m*3 19.6 C 0 km/h
1559 30-08-2008 23:49:02 19.4 C 9.68 g/m*3 19.4 C 0 km/h
1560 31-08-2008 00:01:02 19.2 C 9.73 g/m*3 19.2 C 0 km/h
1561 31-08-2008 00:13:02 19.1 C 9.67 g/m*3 19.1 C 0 km/h
1562 31-08-2008 00:25:02 18.8 C 9.82 g/m*3 18.8 C 0 km/h
1563 31-08-2008 00:37:02 18.6 C 10.03 g/m*3 18.6 C 0 km/h
1564 31-08-2008 00:49:02 18.4 C 9.75 g/m*3 18.4 C 0 km/h
1565 31-08-2008 01:01:02 18.2 C 9.79 g/m*3 18.2 C 0 km/h
1566 31-08-2008 01:13:02 18.1 C 9.73 g/m*3 18.1 C 0 km/h
1567 31-08-2008 01:25:02 17.9 C 9.92 g/m*3 17.9 C 0 km/h
1568 31-08-2008 01:37:02 17.7 C 9.81 g/m*3 17.7 C 0 km/h
1569 31-08-2008 01:49:02 17.5 C 9.69 g/m*3 17.5 C 0 km/h
1570 31-08-2008 02:01:02 17.4 C 10.08 g/m*3 17.4 C 0 km/h
1571 31-08-2008 02:13:02 17.1 C 10.19 g/m*3 17.1 C 0 km/h
1572 31-08-2008 02:25:02 16.9 C 10.07 g/m*3 16.9 C 0 km/h
1573 31-08-2008 02:37:03 16.8 C 10.29 g/m*3 16.8 C 0 km/h
1574 31-08-2008 02:49:03 16.6 C 10.03 g/m*3 16.6 C 0 km/h
1575 31-08-2008 03:01:03 16.4 C 9.91 g/m*3 16.4 C 0 km/h
Sensor: Nr:Datum:Temp:Abs-Feuchte:Windchill:Wind:
Aussen-T/F 1576 31-08-2008 03:13:03 16.1 C 9.6 g/m*3 16.1 C 0 km/h
1577 31-08-2008 03:25:03 16 C 9.67 g/m*3 16 C 0 km/h
1578 31-08-2008 03:37:03 15.9 C 9.89 g/m*3 15.9 C 0 km/h
1579 31-08-2008 03:49:03 15.8 C 10.1 g/m*3 15.8 C 0 km/h
1580 31-08-2008 04:01:03 15.6 C 9.97 g/m*3 15.6 C 0 km/h
1581 31-08-2008 04:13:03 15.6 C 10.11 g/m*3 15.6 C 0 km/h
1582 31-08-2008 04:25:03 15.4 C 10.12 g/m*3 15.4 C 0 km/h
1583 31-08-2008 04:37:03 15.2 C 9.99 g/m*3 15.2 C 0 km/h
1584 31-08-2008 04:49:03 15.1 C 9.93 g/m*3 15.1 C 0 km/h
1585 31-08-2008 05:01:03 14.9 C 9.81 g/m*3 14.9 C 0 km/h
1586 31-08-2008 05:13:03 14.8 C 9.88 g/m*3 14.8 C 0 km/h
1587 31-08-2008 05:25:03 14.7 C 9.69 g/m*3 14.7 C 0 km/h
1588 31-08-2008 05:37:03 14.5 C 9.58 g/m*3 14.5 C 0 km/h
1589 31-08-2008 05:49:03 14.5 C 9.58 g/m*3 14.5 C 0 km/h
1590 31-08-2008 06:01:03 14.3 C 9.46 g/m*3 14.3 C 0 km/h
1591 31-08-2008 06:13:03 14.2 C 9.4 g/m*3 14.2 C 0 km/h
1592 31-08-2008 06:25:04 14.1 C 9.47 g/m*3 14.1 C 0 km/h
1593 31-08-2008 06:37:04 14 C 9.41 g/m*3 14 C 0 km/h
1594 31-08-2008 06:49:04 13.9 C 9.59 g/m*3 13.9 C 0 km/h
1595 31-08-2008 07:01:04 14 C 9.65 g/m*3 14 C 0 km/h
1596 31-08-2008 07:13:04 14 C 9.53 g/m*3 14 C 0 km/h
1597 31-08-2008 07:25:04 14 C 9.53 g/m*3 14 C 0 km/h
1598 31-08-2008 07:37:04 14 C 9.65 g/m*3 14 C 0 km/h
1599 31-08-2008 07:49:04 14.1 C 9.71 g/m*3 14.1 C 0 km/h
1600 31-08-2008 08:01:04 14.2 C 9.77 g/m*3 14.2 C 0 km/h
Sensor: Nr:Datum:Temp:Abs-Feuchte:Windchill:Wind:
Aussen-T/F 1601 31-08-2008 08:13:04 14.4 C 9.77 g/m*3 14.4 C 0 km/h
1602 31-08-2008 08:25:04 14.5 C 9.83 g/m*3 14.5 C 0 km/h
1603 31-08-2008 08:37:04 14.6 C 9.89 g/m*3 14.6 C 0 km/h
1604 31-08-2008 08:49:01 14.7 C 9.95 g/m*3 14.7 C 0 km/h
1605 31-08-2008 09:01:02 15 C 10 g/m*3 15 C 0 km/h
1606 31-08-2008 09:13:02 15.4 C 10.12 g/m*3 15.4 C 0 km/h
1607 31-08-2008 09:25:02 15.8 C 10.36 g/m*3 15.8 C 0 km/h
1608 31-08-2008 09:37:02 16.5 C 10.39 g/m*3 16.5 C 0 km/h
1609 31-08-2008 09:49:03 17.1 C 10.19 g/m*3 17.1 C 0 km/h
1610 31-08-2008 10:01:02 17.7 C 10.11 g/m*3 17.7 C 0 km/h
1611 31-08-2008 10:13:02 18.4 C 9.91 g/m*3 18.4 C 0 km/h
1612 31-08-2008 10:25:02 19 C 9.94 g/m*3 19 C 0 km/h
1613 31-08-2008 10:37:02 19.3 C 10.12 g/m*3 19.3 C 0 km/h
1614 31-08-2008 10:49:03 20 C 10.02 g/m*3 20 C 0 km/h
1615 31-08-2008 11:01:02 20.7 C 10.44 g/m*3 20.7 C 0 km/h
1616 31-08-2008 11:13:02 21.4 C 10.12 g/m*3 21.4 C 0 km/h
1617 31-08-2008 11:25:03 22.1 C 9.76 g/m*3 22.1 C 0 km/h
1618 31-08-2008 11:37:02 22.8 C 9.55 g/m*3 22.8 C 0 km/h
1619 31-08-2008 11:49:02 23.5 C 9.31 g/m*3 23.5 C 0 km/h
1620 31-08-2008 12:01:02 24.1 C 9.63 g/m*3 24.1 C 0 km/h
1621 31-08-2008 12:13:02 24.9 C 8.93 g/m*3 24.9 C 0 km/h
1622 31-08-2008 12:25:02 25.3 C 8.43 g/m*3 25.3 C 0 km/h
1623 31-08-2008 12:37:02 25.6 C 8.33 g/m*3 25.6 C 0 km/h
1624 31-08-2008 12:49:01 26 C 7.79 g/m*3 26 C 0 km/h
1625 31-08-2008 13:01:02 26.1 C 7.83 g/m*3 26.1 C 0 km/h
Sensor: Nr:Datum:Temp:Abs-Feuchte:Windchill:Wind:
Aussen-T/F 1626 31-08-2008 13:13:02 26.6 C 8.31 g/m*3 26.6 C 0 km/h
1627 31-08-2008 13:25:01 26.8 C 8.4 g/m*3 26.8 C 0 km/h
1628 31-08-2008 13:37:02 27.9 C 8.65 g/m*3 27.9 C 0 km/h
1629 31-08-2008 13:49:02 28.3 C 8.29 g/m*3 28.3 C 0 km/h
1630 31-08-2008 14:01:02 28.7 C 8.48 g/m*3 28.7 C 0 km/h
1631 31-08-2008 14:13:02 28.7 C 8.48 g/m*3 28.7 C 0 km/h
1632 31-08-2008 14:25:02 29.7 C 8.65 g/m*3 29.7 C 0 km/h
1633 31-08-2008 14:37:02 30.1 C 8.54 g/m*3 30.1 C 0 km/h
1634 31-08-2008 14:49:02 30.3 C 8.32 g/m*3 30.3 C 0 km/h
1635 31-08-2008 15:01:01 30.4 C 8.06 g/m*3 30.4 C 0 km/h
1636 31-08-2008 15:13:01 30.5 C 8.1 g/m*3 30.5 C 0 km/h
1637 31-08-2008 15:25:02 31 C 8 g/m*3 31 C 0 km/h
1638 31-08-2008 15:37:01 31.2 C 7.76 g/m*3 31.2 C 0 km/h
1639 31-08-2008 15:49:02 31.8 C 7.35 g/m*3 31.8 C 0 km/h
1640 31-08-2008 16:01:01 31.8 C 7.68 g/m*3 31.8 C 0 km/h
1641 31-08-2008 16:13:01 32 C 7.09 g/m*3 32 C 0 km/h
1642 31-08-2008 16:25:02 32 C 7.43 g/m*3 32 C 0 km/h
1643 31-08-2008 16:37:01 32.3 C 7.2 g/m*3 32.3 C 0 km/h
1644 31-08-2008 16:49:01 31.5 C 7.89 g/m*3 31.5 C 0 km/h
1645 31-08-2008 17:01:02 31.8 C 7.68 g/m*3 31.8 C 0 km/h
1646 31-08-2008 17:13:02 31.4 C 8.17 g/m*3 31.4 C 0 km/h
1647 31-08-2008 17:25:01 31.4 C 8.17 g/m*3 31.4 C 0 km/h
1648 31-08-2008 17:37:02 31.6 C 8.26 g/m*3 31.6 C 0 km/h
1649 31-08-2008 17:49:02 31.9 C 8.06 g/m*3 31.9 C 0 km/h
1650 31-08-2008 18:01:02 32.4 C 7.59 g/m*3 32.4 C 0 km/h
Sensor: Nr:Datum:Temp:Abs-Feuchte:Windchill:Wind:
Aussen-T/F 1651 31-08-2008 18:13:02 32.3 C 7.55 g/m*3 32.3 C 0 km/h
1652 31-08-2008 18:25:02 32.4 C 7.59 g/m*3 32.4 C 0 km/h
1653 31-08-2008 18:37:02 32.1 C 7.81 g/m*3 32.1 C 0 km/h
1654 31-08-2008 18:49:02 31.9 C 8.39 g/m*3 31.9 C 0 km/h
1655 31-08-2008 19:01:02 31.2 C 8.73 g/m*3 31.2 C 0 km/h
1656 31-08-2008 19:13:02 30.9 C 9.23 g/m*3 30.9 C 0 km/h
1657 31-08-2008 19:25:02 30.6 C 9.4 g/m*3 30.6 C 0 km/h
1658 31-08-2008 19:37:02 29.5 C 10.03 g/m*3 29.5 C 0 km/h
1659 31-08-2008 19:49:02 28.2 C 10.17 g/m*3 28.2 C 0 km/h
1660 31-08-2008 20:01:02 27.1 C 10.35 g/m*3 27.1 C 0 km/h
1661 31-08-2008 20:13:03 26.2 C 10.34 g/m*3 26.2 C 0 km/h
1662 31-08-2008 20:25:01 25.5 C 10.65 g/m*3 25.5 C 0 km/h
1663 31-08-2008 20:37:02 25 C 10.59 g/m*3 25 C 0 km/h
1664 31-08-2008 20:49:02 24.9 C 10.99 g/m*3 24.9 C 0 km/h
1665 31-08-2008 21:01:02 24.8 C 11.15 g/m*3 24.8 C 0 km/h
1666 31-08-2008 21:13:02 24.5 C 11.19 g/m*3 24.5 C 0 km/h
1667 31-08-2008 21:25:02 24.5 C 11.41 g/m*3 24.5 C 0 km/h
1668 31-08-2008 21:37:02 24.4 C 11.35 g/m*3 24.4 C 0 km/h
1669 31-08-2008 21:49:02 24.3 C 11.29 g/m*3 24.3 C 0 km/h
1670 31-08-2008 22:01:01 24.1 C 11.38 g/m*3 24.1 C 0 km/h
1671 31-08-2008 22:13:01 23.7 C 11.55 g/m*3 23.7 C 0 km/h
1672 31-08-2008 22:25:02 23.3 C 11.71 g/m*3 23.3 C 0 km/h
1673 31-08-2008 22:37:02 23 C 11.92 g/m*3 23 C 0 km/h
1674 31-08-2008 22:49:03 23 C 11.92 g/m*3 23 C 0 km/h
1675 31-08-2008 23:01:02 22.9 C 11.85 g/m*3 22.9 C 0 km/h
Sensor: Nr:Datum:Temp:Abs-Feuchte:Windchill:Wind:
Aussen-T/F 1676 31-08-2008 23:13:02 22.6 C 11.85 g/m*3 22.6 C 0 km/h
1677 31-08-2008 23:25:03 22.8 C 11.99 g/m*3 22.8 C 0 km/h
1678 31-08-2008 23:37:02 22.5 C 11.78 g/m*3 22.5 C 0 km/h
1679 31-08-2008 23:49:03 22.3 C 11.85 g/m*3 22.3 C 0 km/h
1680 01-09-2008 00:02:02 22.1 C 11.71 g/m*3 22.1 C 0 km/h
1681 01-09-2008 00:14:02 22.1 C 11.91 g/m*3 22.1 C 0 km/h
1682 01-09-2008 00:26:02 22 C 12.03 g/m*3 22 C 0 km/h
1683 01-09-2008 00:38:02 22.2 C 12.17 g/m*3 22.2 C 0 km/h
1684 01-09-2008 00:50:02 22 C 12.03 g/m*3 22 C 0 km/h
1685 01-09-2008 01:02:03 22 C 12.03 g/m*3 22 C 0 km/h
1686 01-09-2008 01:14:03 21.9 C 12.16 g/m*3 21.9 C 0 km/h
1687 01-09-2008 01:26:03 21.8 C 12.09 g/m*3 21.8 C 0 km/h
1688 01-09-2008 01:38:03 21.7 C 12.02 g/m*3 21.7 C 0 km/h
1689 01-09-2008 01:50:03 21.8 C 11.9 g/m*3 21.8 C 0 km/h
1690 01-09-2008 02:02:03 21.6 C 11.76 g/m*3 21.6 C 0 km/h
1691 01-09-2008 02:14:03 21.7 C 11.83 g/m*3 21.7 C 0 km/h
1692 01-09-2008 02:26:03 21.7 C 11.83 g/m*3 21.7 C 0 km/h
1693 01-09-2008 02:38:03 21.3 C 12.49 g/m*3 21.3 C 0 km/h
1694 01-09-2008 02:50:03 20.8 C 12.86 g/m*3 20.8 C 0 km/h
1695 01-09-2008 03:02:03 20.6 C 12.35 g/m*3 20.6 C 0 km/h
1696 01-09-2008 03:14:03 20.7 C 11.88 g/m*3 20.7 C 0 km/h
1697 01-09-2008 03:26:03 20.9 C 11.47 g/m*3 20.9 C 0 km/h
1698 01-09-2008 03:38:03 20.9 C 11.66 g/m*3 20.9 C 0 km/h
1699 01-09-2008 03:50:03 20.9 C 11.84 g/m*3 20.9 C 0 km/h
1700 01-09-2008 04:02:03 20.8 C 11.77 g/m*3 20.8 C 0 km/h
Sensor: Nr:Datum:Temp:Abs-Feuchte:Windchill:Wind:
Aussen-T/F 1701 01-09-2008 04:14:03 20.8 C 11.59 g/m*3 20.8 C 0 km/h
1702 01-09-2008 04:26:03 20.8 C 11.77 g/m*3 20.8 C 0 km/h
1703 01-09-2008 04:38:03 20.8 C 11.59 g/m*3 20.8 C 0 km/h
1704 01-09-2008 04:50:04 20.2 C 11.89 g/m*3 20.2 C 0 km/h
1705 01-09-2008 05:02:04 20 C 12.1 g/m*3 20 C 0 km/h
1706 01-09-2008 05:14:04 19.4 C 12.68 g/m*3 19.4 C 0 km/h
1707 01-09-2008 05:26:04 19.1 C 12.95 g/m*3 19.1 C 0 km/h
1708 01-09-2008 05:38:04 18.8 C 13.21 g/m*3 18.8 C 0 km/h
1709 01-09-2008 05:50:04 18.9 C 13.45 g/m*3 18.9 C 0 km/h
1710 01-09-2008 06:02:04 19.1 C 13.44 g/m*3 19.1 C 0 km/h
1711 01-09-2008 06:14:04 19.3 C 13.44 g/m*3 19.3 C 0 km/h
1712 01-09-2008 06:26:04 19.3 C 13.1 g/m*3 19.3 C 0 km/h
1713 01-09-2008 06:38:04 19.1 C 13.11 g/m*3 19.1 C 0 km/h
1714 01-09-2008 06:50:04 18.9 C 13.28 g/m*3 18.9 C 0 km/h
1715 01-09-2008 07:02:04 18.7 C 13.45 g/m*3 18.7 C 0 km/h
1716 01-09-2008 07:14:04 18.6 C 13.53 g/m*3 18.6 C 0 km/h
1717 01-09-2008 07:26:04 18.7 C 13.61 g/m*3 18.7 C 0 km/h
1718 01-09-2008 07:38:04 18.8 C 13.69 g/m*3 18.8 C 0 km/h
1719 01-09-2008 07:50:04 18.9 C 13.77 g/m*3 18.9 C 0 km/h
1720 01-09-2008 08:02:04 18.9 C 13.45 g/m*3 18.9 C 0 km/h
1721 01-09-2008 08:14:04 19.1 C 13.44 g/m*3 19.1 C 0 km/h
1722 01-09-2008 08:26:04 19.3 C 13.44 g/m*3 19.3 C 0 km/h
1723 01-09-2008 08:38:05 19.1 C 13.11 g/m*3 19.1 C 0 km/h
1724 01-09-2008 08:50:05 19.2 C 13.36 g/m*3 19.2 C 0 km/h
1725 01-09-2008 09:02:05 19.3 C 13.44 g/m*3 19.3 C 0 km/h
Sensor: Nr:Datum:Temp:Abs-Feuchte:Windchill:Wind:
Aussen-T/F 1726 01-09-2008 09:14:05 19.3 C 13.44 g/m*3 19.3 C 0 km/h
1727 01-09-2008 09:26:05 19.4 C 13.18 g/m*3 19.4 C 0 km/h
1728 01-09-2008 09:38:03 20.7 C 13.14 g/m*3 20.7 C 0 km/h
1729 01-09-2008 09:50:02 21.2 C 12.23 g/m*3 21.2 C 0 km/h
1730 01-09-2008 10:02:01 21.5 C 11.88 g/m*3 21.5 C 0 km/h
1731 01-09-2008 10:14:01 21.4 C 11.81 g/m*3 21.4 C 0 km/h
1732 01-09-2008 10:26:02 21.2 C 11.68 g/m*3 21.2 C 0 km/h
1733 01-09-2008 10:38:01 21.3 C 11.74 g/m*3 21.3 C 0 km/h
1734 01-09-2008 10:50:01 21.7 C 11.45 g/m*3 21.7 C 0 km/h
1735 01-09-2008 11:02:01 22.1 C 10.93 g/m*3 22.1 C 0 km/h
1736 01-09-2008 11:14:01 22.4 C 10.53 g/m*3 22.4 C 0 km/h
1737 01-09-2008 11:26:01 22.4 C 10.53 g/m*3 22.4 C 0 km/h
1738 01-09-2008 11:38:01 22.6 C 10.45 g/m*3 22.6 C 0 km/h
1739 01-09-2008 11:50:01 22.6 C 9.84 g/m*3 22.6 C 0 km/h
1740 01-09-2008 12:02:02 22.6 C 9.84 g/m*3 22.6 C 0 km/h
1741 01-09-2008 12:14:02 22.5 C 9.99 g/m*3 22.5 C 0 km/h
1742 01-09-2008 12:26:01 21.4 C 9.56 g/m*3 21.4 C 0 km/h
1743 01-09-2008 12:38:02 21.5 C 9.81 g/m*3 21.5 C 0 km/h
1744 01-09-2008 12:50:02 21.5 C 9.81 g/m*3 21.5 C 0 km/h
1745 01-09-2008 13:02:02 22 C 9.9 g/m*3 22 C 0 km/h
1746 01-09-2008 13:14:02 22.6 C 10.04 g/m*3 22.6 C 0 km/h
1747 01-09-2008 13:26:02 24.1 C 9.63 g/m*3 24.1 C 0 km/h
1748 01-09-2008 13:38:02 24.1 C 7.66 g/m*3 24.1 C 0 km/h
1749 01-09-2008 13:50:02 24 C 7.4 g/m*3 24 C 0 km/h
1750 01-09-2008 14:02:03 24.9 C 7.32 g/m*3 24.9 C 0 km/h
Sensor: Nr:Datum:Temp:Abs-Feuchte:Windchill:Wind:
Aussen-T/F 1751 01-09-2008 14:14:03 24.8 C 7.74 g/m*3 24.8 C 0 km/h
1752 01-09-2008 14:26:02 24.5 C 7.39 g/m*3 24.5 C 0 km/h
1753 01-09-2008 14:38:03 24.1 C 7.22 g/m*3 24.1 C 0 km/h
1754 01-09-2008 14:50:02 23.7 C 7.49 g/m*3 23.7 C 0 km/h
1755 01-09-2008 15:02:01 23.5 C 7.82 g/m*3 23.5 C 0 km/h
1756 01-09-2008 15:14:01 23.5 C 8.04 g/m*3 23.5 C 0 km/h
1757 01-09-2008 15:26:02 23.9 C 7.57 g/m*3 23.9 C 0 km/h
1758 01-09-2008 15:38:01 23.5 C 7.19 g/m*3 23.5 C 0 km/h
1759 01-09-2008 15:50:02 23.4 C 7.36 g/m*3 23.4 C 0 km/h
1760 01-09-2008 16:02:01 23.4 C 7.15 g/m*3 23.4 C 0 km/h
1761 01-09-2008 16:14:01 23.4 C 7.36 g/m*3 23.4 C 0 km/h
1762 01-09-2008 16:26:02 23.2 C 7.07 g/m*3 23.2 C 0 km/h
1763 01-09-2008 16:38:01 23.3 C 6.9 g/m*3 23.3 C 0 km/h
1764 01-09-2008 16:50:02 23.3 C 6.9 g/m*3 23.3 C 0 km/h
1765 01-09-2008 17:02:01 23.2 C 6.86 g/m*3 23.2 C 0 km/h
1766 01-09-2008 17:14:01 23.1 C 6.82 g/m*3 23.1 C 0 km/h
1767 01-09-2008 17:26:02 22.9 C 6.95 g/m*3 22.9 C 0 km/h
1768 01-09-2008 17:38:01 22.8 C 7.11 g/m*3 22.8 C 0 km/h
1769 01-09-2008 17:50:01 22.5 C 6.99 g/m*3 22.5 C 0 km/h
1770 01-09-2008 18:02:01 22.5 C 6.99 g/m*3 22.5 C 0 km/h
1771 01-09-2008 18:14:01 22.7 C 7.07 g/m*3 22.7 C 0 km/h
1772 01-09-2008 18:26:02 22.6 C 6.83 g/m*3 22.6 C 0 km/h
1773 01-09-2008 18:38:01 22 C 6.79 g/m*3 22 C 0 km/h
1774 01-09-2008 18:50:01 21.9 C 7.33 g/m*3 21.9 C 0 km/h
1775 01-09-2008 19:02:02 21.6 C 7.21 g/m*3 21.6 C 0 km/h
Sensor: Nr:Datum:Temp:Abs-Feuchte:Windchill:Wind:
Aussen-T/F 1776 01-09-2008 19:14:03 21.4 C 7.31 g/m*3 21.4 C 0 km/h
1777 01-09-2008 19:26:01 21.3 C 7.64 g/m*3 21.3 C 0 km/h
1778 01-09-2008 19:38:02 21 C 7.69 g/m*3 21 C 0 km/h
1779 01-09-2008 19:50:02 20.6 C 7.87 g/m*3 20.6 C 0 km/h
1780 01-09-2008 20:02:02 20 C 7.95 g/m*3 20 C 0 km/h
1781 01-09-2008 20:14:02 19.6 C 7.93 g/m*3 19.6 C 0 km/h
1782 01-09-2008 20:26:02 19.5 C 8.06 g/m*3 19.5 C 0 km/h
1783 01-09-2008 20:38:02 19.4 C 8.18 g/m*3 19.4 C 0 km/h
1784 01-09-2008 20:50:02 19.4 C 8.18 g/m*3 19.4 C 0 km/h
1785 01-09-2008 21:02:02 19.3 C 8.29 g/m*3 19.3 C 0 km/h
1786 01-09-2008 21:14:02 18.9 C 8.26 g/m*3 18.9 C 0 km/h
1787 01-09-2008 21:26:02 18.6 C 8.59 g/m*3 18.6 C 0 km/h
1788 01-09-2008 21:38:02 18.2 C 8.39 g/m*3 18.2 C 0 km/h
1789 01-09-2008 21:50:02 18 C 8.45 g/m*3 18 C 0 km/h
1790 01-09-2008 22:02:02 17.9 C 8.55 g/m*3 17.9 C 0 km/h
1791 01-09-2008 22:14:02 17.7 C 8.6 g/m*3 17.7 C 0 km/h
1792 01-09-2008 22:27:03 17.5 C 8.65 g/m*3 17.5 C 0 km/h
1793 01-09-2008 22:39:03 17.3 C 8.69 g/m*3 17.3 C 0 km/h
1794 01-09-2008 22:51:03 17.3 C 8.69 g/m*3 17.3 C 0 km/h
1795 01-09-2008 23:03:03 17.2 C 8.79 g/m*3 17.2 C 0 km/h
1796 01-09-2008 23:15:03 17 C 8.83 g/m*3 17 C 0 km/h
1797 01-09-2008 23:27:03 17 C 8.83 g/m*3 17 C 0 km/h
1798 01-09-2008 23:39:03 16.9 C 9.06 g/m*3 16.9 C 0 km/h
1799 01-09-2008 23:51:03 16.8 C 9.15 g/m*3 16.8 C 0 km/h
1800 02-09-2008 00:03:03 16.7 C 9.1 g/m*3 16.7 C 0 km/h
Sensor: Nr:Datum:Temp:Abs-Feuchte:Windchill:Wind:
Aussen-T/F 1801 02-09-2008 00:15:03 16.6 C 9.18 g/m*3 16.6 C 0 km/h
1802 02-09-2008 00:27:03 16.6 C 9.18 g/m*3 16.6 C 0 km/h
1803 02-09-2008 00:39:03 16.6 C 9.18 g/m*3 16.6 C 0 km/h
1804 02-09-2008 00:51:03 16.4 C 9.21 g/m*3 16.4 C 0 km/h
1805 02-09-2008 01:03:04 16 C 9.26 g/m*3 16 C 0 km/h
1806 02-09-2008 01:15:04 15.9 C 9.48 g/m*3 15.9 C 0 km/h
1807 02-09-2008 01:27:04 15.7 C 9.5 g/m*3 15.7 C 0 km/h
1808 02-09-2008 01:39:04 15.6 C 9.44 g/m*3 15.6 C 0 km/h
1809 02-09-2008 01:51:04 15.7 C 9.5 g/m*3 15.7 C 0 km/h
1810 02-09-2008 02:03:04 15.6 C 9.44 g/m*3 15.6 C 0 km/h
1811 02-09-2008 02:15:04 15.4 C 9.33 g/m*3 15.4 C 0 km/h
1812 02-09-2008 02:27:04 15.1 C 9.29 g/m*3 15.1 C 0 km/h
1813 02-09-2008 02:39:04 14.9 C 9.43 g/m*3 14.9 C 0 km/h
1814 02-09-2008 02:51:04 14.7 C 9.44 g/m*3 14.7 C 0 km/h
1815 02-09-2008 03:03:04 14.2 C 9.16 g/m*3 14.2 C 0 km/h
1816 02-09-2008 03:15:04 14.3 C 9.34 g/m*3 14.3 C 0 km/h
1817 02-09-2008 03:27:04 14.2 C 9.4 g/m*3 14.2 C 0 km/h
1818 02-09-2008 03:39:04 14 C 9.41 g/m*3 14 C 0 km/h
1819 02-09-2008 03:51:04 14 C 9.53 g/m*3 14 C 0 km/h
1820 02-09-2008 04:03:04 14 C 9.53 g/m*3 14 C 0 km/h
1821 02-09-2008 04:15:04 13.9 C 9.47 g/m*3 13.9 C 0 km/h
1822 02-09-2008 04:27:04 13.8 C 9.41 g/m*3 13.8 C 0 km/h
1823 02-09-2008 04:39:04 13.5 C 9.36 g/m*3 13.5 C 0 km/h
1824 02-09-2008 04:51:04 13.4 C 9.3 g/m*3 13.4 C 0 km/h
1825 02-09-2008 05:03:05 13.4 C 9.42 g/m*3 13.4 C 0 km/h
Sensor: Nr:Datum:Temp:Abs-Feuchte:Windchill:Wind:
Aussen-T/F 1826 02-09-2008 05:15:05 13.3 C 9.36 g/m*3 13.3 C 0 km/h
1827 02-09-2008 05:27:05 13.3 C 9.36 g/m*3 13.3 C 0 km/h
1828 02-09-2008 05:39:05 13.2 C 9.42 g/m*3 13.2 C 0 km/h
1829 02-09-2008 05:51:05 13 C 9.3 g/m*3 13 C 0 km/h
1830 02-09-2008 06:03:05 12.9 C 9.35 g/m*3 12.9 C 0 km/h
1831 02-09-2008 06:15:05 12.8 C 9.3 g/m*3 12.8 C 0 km/h
1832 02-09-2008 06:27:05 12.6 C 9.18 g/m*3 12.6 C 0 km/h
1833 02-09-2008 06:39:05 12.5 C 9.24 g/m*3 12.5 C 0 km/h
1834 02-09-2008 06:51:05 12.4 C 9.18 g/m*3 12.4 C 0 km/h
1835 02-09-2008 07:03:02 12.4 C 9.18 g/m*3 12.4 C 0 km/h
1836 02-09-2008 07:15:02 12.4 C 9.18 g/m*3 12.4 C 0 km/h
1837 02-09-2008 07:27:02 12.5 C 9.24 g/m*3 12.5 C 0 km/h
1838 02-09-2008 07:39:02 12.6 C 9.29 g/m*3 12.6 C 0 km/h
1839 02-09-2008 07:51:01 12.7 C 9.35 g/m*3 12.7 C 0 km/h
1840 02-09-2008 08:03:02 12.8 C 9.52 g/m*3 12.8 C 0 km/h
1841 02-09-2008 08:15:01 13.2 C 9.64 g/m*3 13.2 C 0 km/h
1842 02-09-2008 08:27:01 14 C 10.01 g/m*3 14 C 0 km/h
1843 02-09-2008 08:39:01 14.6 C 10.26 g/m*3 14.6 C 0 km/h
1844 02-09-2008 08:51:01 14.8 C 10.01 g/m*3 14.8 C 0 km/h
1845 02-09-2008 09:03:01 14.6 C 9.64 g/m*3 14.6 C 0 km/h
1846 02-09-2008 09:15:02 14.8 C 9.88 g/m*3 14.8 C 0 km/h
1847 02-09-2008 09:27:02 15.4 C 9.99 g/m*3 15.4 C 0 km/h
1848 02-09-2008 09:39:01 16.4 C 9.91 g/m*3 16.4 C 0 km/h
1849 02-09-2008 09:51:02 17.2 C 9.81 g/m*3 17.2 C 0 km/h
1850 02-09-2008 10:03:02 17.8 C 10.02 g/m*3 17.8 C 0 km/h
Sensor: Nr:Datum:Temp:Abs-Feuchte:Windchill:Wind:
Aussen-T/F 1851 02-09-2008 10:15:02 18.3 C 10.01 g/m*3 18.3 C 0 km/h
1852 02-09-2008 10:27:02 18.6 C 9.87 g/m*3 18.6 C 0 km/h
1853 02-09-2008 10:39:02 19 C 10.1 g/m*3 19 C 0 km/h
1854 02-09-2008 10:51:02 19.5 C 10.07 g/m*3 19.5 C 0 km/h
1855 02-09-2008 11:03:03 20 C 9.68 g/m*3 20 C 0 km/h
1856 02-09-2008 11:15:02 20.3 C 9.15 g/m*3 20.3 C 0 km/h
1857 02-09-2008 11:27:02 20.8 C 9.05 g/m*3 20.8 C 0 km/h
1858 02-09-2008 11:39:03 21.6 C 8.91 g/m*3 21.6 C 0 km/h
1859 02-09-2008 11:51:02 21.9 C 8.88 g/m*3 21.9 C 0 km/h
1860 02-09-2008 12:03:02 21.9 C 8.88 g/m*3 21.9 C 0 km/h
1861 02-09-2008 12:15:02 22 C 8.54 g/m*3 22 C 0 km/h
1862 02-09-2008 12:27:02 22.7 C 8.49 g/m*3 22.7 C 0 km/h
1863 02-09-2008 12:39:01 23 C 8.22 g/m*3 23 C 0 km/h
1864 02-09-2008 12:51:02 23.4 C 8.41 g/m*3 23.4 C 0 km/h
1865 02-09-2008 13:03:02 23.7 C 8.13 g/m*3 23.7 C 0 km/h
1866 02-09-2008 13:15:02 23.5 C 7.61 g/m*3 23.5 C 0 km/h
1867 02-09-2008 13:27:02 23.4 C 7.57 g/m*3 23.4 C 0 km/h
1868 02-09-2008 13:39:02 23.6 C 7.66 g/m*3 23.6 C 0 km/h
1869 02-09-2008 13:51:02 23.6 C 7.44 g/m*3 23.6 C 0 km/h
1870 02-09-2008 14:03:02 24.8 C 7.74 g/m*3 24.8 C 0 km/h
1871 02-09-2008 14:15:02 24.5 C 7.39 g/m*3 24.5 C 0 km/h
1872 02-09-2008 14:27:02 25.1 C 7.18 g/m*3 25.1 C 0 km/h
1873 02-09-2008 14:39:02 24.8 C 7.28 g/m*3 24.8 C 0 km/h
1874 02-09-2008 14:51:02 25.2 C 7.22 g/m*3 25.2 C 0 km/h
1875 02-09-2008 15:03:02 24.7 C 7.24 g/m*3 24.7 C 0 km/h
Sensor: Nr:Datum:Temp:Abs-Feuchte:Windchill:Wind:
Aussen-T/F 1876 02-09-2008 15:15:01 25.5 C 7.34 g/m*3 25.5 C 0 km/h
1877 02-09-2008 15:27:01 25.5 C 7.1 g/m*3 25.5 C 0 km/h
1878 02-09-2008 15:39:02 25.7 C 7.42 g/m*3 25.7 C 0 km/h
1879 02-09-2008 15:51:02 24.9 C 7.32 g/m*3 24.9 C 0 km/h
1880 02-09-2008 16:03:02 24.8 C 7.06 g/m*3 24.8 C 0 km/h
1881 02-09-2008 16:15:02 24.6 C 7.2 g/m*3 24.6 C 0 km/h
1882 02-09-2008 16:27:03 24.4 C 7.12 g/m*3 24.4 C 0 km/h
1883 02-09-2008 16:39:02 24.5 C 7.16 g/m*3 24.5 C 0 km/h
1884 02-09-2008 16:51:02 24.1 C 7.22 g/m*3 24.1 C 0 km/h
1885 02-09-2008 17:03:02 24 C 7.18 g/m*3 24 C 0 km/h
1886 02-09-2008 17:15:02 24 C 7.4 g/m*3 24 C 0 km/h
1887 02-09-2008 17:27:02 24.1 C 7.44 g/m*3 24.1 C 0 km/h
1888 02-09-2008 17:39:01 25.1 C 7.64 g/m*3 25.1 C 0 km/h
1889 02-09-2008 17:51:01 24.8 C 7.74 g/m*3 24.8 C 0 km/h
1890 02-09-2008 18:03:02 24.3 C 7.75 g/m*3 24.3 C 0 km/h
1891 02-09-2008 18:15:02 24.1 C 7.88 g/m*3 24.1 C 0 km/h
1892 02-09-2008 18:27:02 23.9 C 8 g/m*3 23.9 C 0 km/h
1893 02-09-2008 18:39:02 23.7 C 8.13 g/m*3 23.7 C 0 km/h
1894 02-09-2008 18:51:01 23.6 C 7.87 g/m*3 23.6 C 0 km/h
1895 02-09-2008 19:03:02 23.9 C 8 g/m*3 23.9 C 0 km/h
1896 02-09-2008 19:15:01 23.7 C 8.13 g/m*3 23.7 C 0 km/h
1897 02-09-2008 19:27:01 23.3 C 7.95 g/m*3 23.3 C 0 km/h
1898 02-09-2008 19:39:02 22.8 C 8.13 g/m*3 22.8 C 0 km/h
1899 02-09-2008 19:51:02 22.5 C 8.19 g/m*3 22.5 C 0 km/h
1900 02-09-2008 20:03:02 22.3 C 8.29 g/m*3 22.3 C 0 km/h
Sensor: Nr:Datum:Temp:Abs-Feuchte:Windchill:Wind:
Aussen-T/F 1901 02-09-2008 20:15:02 22.1 C 8.2 g/m*3 22.1 C 0 km/h
1902 02-09-2008 20:27:02 22 C 8.15 g/m*3 22 C 0 km/h
1903 02-09-2008 20:39:02 21.8 C 8.63 g/m*3 21.8 C 0 km/h
1904 02-09-2008 20:51:01 21.6 C 8.53 g/m*3 21.6 C 0 km/h
1905 02-09-2008 21:03:02 21.4 C 8.62 g/m*3 21.4 C 0 km/h
1906 02-09-2008 21:15:01 21.2 C 8.71 g/m*3 21.2 C 0 km/h
1907 02-09-2008 21:27:01 21.1 C 8.84 g/m*3 21.1 C 0 km/h
1908 02-09-2008 21:39:02 20.9 C 8.92 g/m*3 20.9 C 0 km/h
1909 02-09-2008 21:51:02 20.8 C 9.05 g/m*3 20.8 C 0 km/h
1910 02-09-2008 22:03:01 20.7 C 9 g/m*3 20.7 C 0 km/h
1911 02-09-2008 22:16:05 20.2 C 9.09 g/m*3 20.2 C 0 km/h
1912 02-09-2008 22:28:05 20 C 8.99 g/m*3 20 C 0 km/h
1913 02-09-2008 22:40:05 20 C 9.16 g/m*3 20 C 0 km/h
1914 02-09-2008 22:52:05 20.3 C 9.15 g/m*3 20.3 C 0 km/h
1915 02-09-2008 23:04:05 20.2 C 9.27 g/m*3 20.2 C 0 km/h
1916 02-09-2008 23:16:05 20.2 C 9.27 g/m*3 20.2 C 0 km/h
1917 02-09-2008 23:28:05 20.1 C 9.39 g/m*3 20.1 C 0 km/h
1918 02-09-2008 23:40:05 20.2 C 9.44 g/m*3 20.2 C 0 km/h
1919 02-09-2008 23:52:05 20.4 C 9.38 g/m*3 20.4 C 0 km/h
1920 03-09-2008 00:04:05 20.7 C 9.36 g/m*3 20.7 C 0 km/h
1921 03-09-2008 00:16:05 20.8 C 9.42 g/m*3 20.8 C 0 km/h
1922 03-09-2008 00:28:05 20.4 C 9.73 g/m*3 20.4 C 0 km/h
1923 03-09-2008 00:40:05 18.4 C 11.17 g/m*3 18.4 C 0 km/h
1924 03-09-2008 00:52:06 18 C 11.83 g/m*3 18 C 0 km/h
1925 03-09-2008 01:04:06 17.8 C 12.29 g/m*3 17.8 C 0 km/h
Sensor: Nr:Datum:Temp:Abs-Feuchte:Windchill:Wind:
Aussen-T/F 1926 03-09-2008 01:16:06 18 C 12.44 g/m*3 18 C 0 km/h
1927 03-09-2008 01:28:06 18.4 C 12.58 g/m*3 18.4 C 0 km/h
1928 03-09-2008 01:40:06 18.5 C 12.5 g/m*3 18.5 C 0 km/h
1929 03-09-2008 01:52:06 18.6 C 12.41 g/m*3 18.6 C 0 km/h
1930 03-09-2008 02:04:06 18.6 C 12.26 g/m*3 18.6 C 0 km/h
1931 03-09-2008 02:16:06 18.4 C 12.11 g/m*3 18.4 C 0 km/h
1932 03-09-2008 02:28:06 18.4 C 11.95 g/m*3 18.4 C 0 km/h
1933 03-09-2008 02:40:06 18.3 C 11.88 g/m*3 18.3 C 0 km/h
1934 03-09-2008 02:52:06 18.3 C 11.73 g/m*3 18.3 C 0 km/h
1935 03-09-2008 03:04:06 18.5 C 11.87 g/m*3 18.5 C 0 km/h
1936 03-09-2008 03:16:06 18.6 C 11.78 g/m*3 18.6 C 0 km/h
1937 03-09-2008 03:28:06 18.5 C 11.71 g/m*3 18.5 C 0 km/h
1938 03-09-2008 03:40:06 17.5 C 12.37 g/m*3 17.5 C 0 km/h
1939 03-09-2008 03:52:06 17 C 12.3 g/m*3 17 C 0 km/h
1940 03-09-2008 04:04:06 16.6 C 12.29 g/m*3 16.6 C 0 km/h
1941 03-09-2008 04:16:06 16.4 C 12.42 g/m*3 16.4 C 0 km/h
1942 03-09-2008 04:28:06 16.2 C 12.27 g/m*3 16.2 C 0 km/h
1943 03-09-2008 04:40:06 16.2 C 12.41 g/m*3 16.2 C 0 km/h
1944 03-09-2008 04:52:06 16 C 12.26 g/m*3 16 C 0 km/h
1945 03-09-2008 05:04:07 15.9 C 12.32 g/m*3 15.9 C 0 km/h
1946 03-09-2008 05:16:07 15.9 C 12.46 g/m*3 15.9 C 0 km/h
1947 03-09-2008 05:28:07 15.8 C 12.38 g/m*3 15.8 C 0 km/h
1948 03-09-2008 05:40:07 15.8 C 12.38 g/m*3 15.8 C 0 km/h
1949 03-09-2008 05:52:07 15.7 C 12.31 g/m*3 15.7 C 0 km/h
1950 03-09-2008 06:04:02 15.6 C 12.37 g/m*3 15.6 C 0 km/h
Sensor: Nr:Datum:Temp:Abs-Feuchte:Windchill:Wind:
Aussen-T/F 1951 03-09-2008 06:16:02 15.5 C 12.29 g/m*3 15.5 C 0 km/h
1952 03-09-2008 06:28:02 15.5 C 12.29 g/m*3 15.5 C 0 km/h
1953 03-09-2008 06:40:02 15.5 C 12.29 g/m*3 15.5 C 0 km/h
1954 03-09-2008 06:52:02 15.4 C 12.22 g/m*3 15.4 C 0 km/h
1955 03-09-2008 07:04:02 15.1 C 11.87 g/m*3 15.1 C 0 km/h
1956 03-09-2008 07:16:02 14.8 C 11.53 g/m*3 14.8 C 0 km/h
1957 03-09-2008 07:28:02 14.8 C 11.53 g/m*3 14.8 C 0 km/h
1958 03-09-2008 07:40:02 14.9 C 11.6 g/m*3 14.9 C 0 km/h
1959 03-09-2008 07:52:02 14.8 C 11.4 g/m*3 14.8 C 0 km/h
1960 03-09-2008 08:04:02 15 C 10.9 g/m*3 15 C 0 km/h
1961 03-09-2008 08:16:02 15.1 C 10.71 g/m*3 15.1 C 0 km/h
1962 03-09-2008 08:28:02 15 C 10.51 g/m*3 15 C 0 km/h
1963 03-09-2008 08:40:02 15.1 C 10.06 g/m*3 15.1 C 0 km/h
1964 03-09-2008 08:52:01 15.2 C 9.99 g/m*3 15.2 C 0 km/h
1965 03-09-2008 09:04:02 15.6 C 10.24 g/m*3 15.6 C 0 km/h
1966 03-09-2008 09:16:01 15.9 C 10.16 g/m*3 15.9 C 0 km/h
1967 03-09-2008 09:28:01 15.8 C 9.83 g/m*3 15.8 C 0 km/h
1968 03-09-2008 09:40:02 16.1 C 10.01 g/m*3 16.1 C 0 km/h
1969 03-09-2008 09:52:01 16.1 C 9.6 g/m*3 16.1 C 0 km/h
1970 03-09-2008 10:04:01 16 C 9.26 g/m*3 16 C 0 km/h
1971 03-09-2008 10:16:02 16.2 C 9.24 g/m*3 16.2 C 0 km/h
1972 03-09-2008 10:28:02 16.6 C 9.04 g/m*3 16.6 C 0 km/h
1973 03-09-2008 10:40:01 16.7 C 9.24 g/m*3 16.7 C 0 km/h
1974 03-09-2008 10:52:01 16.6 C 8.9 g/m*3 16.6 C 0 km/h
1975 03-09-2008 11:04:02 16.8 C 9.01 g/m*3 16.8 C 0 km/h
Sensor: Nr:Datum:Temp:Abs-Feuchte:Windchill:Wind:
Aussen-T/F 1976 03-09-2008 11:16:01 16.6 C 8.9 g/m*3 16.6 C 0 km/h
1977 03-09-2008 11:28:01 16.8 C 8.86 g/m*3 16.8 C 0 km/h
1978 03-09-2008 11:40:02 16.6 C 8.9 g/m*3 16.6 C 0 km/h
1979 03-09-2008 11:52:02 16.5 C 8.57 g/m*3 16.5 C 0 km/h
1980 03-09-2008 12:04:02 16.7 C 8.67 g/m*3 16.7 C 0 km/h
1981 03-09-2008 12:16:02 16.9 C 8.77 g/m*3 16.9 C 0 km/h
1982 03-09-2008 12:28:02 17 C 9.55 g/m*3 17 C 0 km/h
1983 03-09-2008 12:40:02 17.2 C 9.37 g/m*3 17.2 C 0 km/h
1984 03-09-2008 12:52:01 17.5 C 8.65 g/m*3 17.5 C 0 km/h
1985 03-09-2008 13:04:02 17.7 C 8.3 g/m*3 17.7 C 0 km/h
1986 03-09-2008 13:16:01 17.4 C 8.45 g/m*3 17.4 C 0 km/h
1987 03-09-2008 13:28:01 17.3 C 8.25 g/m*3 17.3 C 0 km/h
1988 03-09-2008 13:40:02 17 C 8.39 g/m*3 17 C 0 km/h
1989 03-09-2008 13:52:02 15.9 C 9.34 g/m*3 15.9 C 0 km/h
1990 03-09-2008 14:04:02 14.9 C 9.94 g/m*3 14.9 C 0 km/h
1991 03-09-2008 14:16:02 14.9 C 10.32 g/m*3 14.9 C 0 km/h
1992 03-09-2008 14:28:03 14.4 C 10.01 g/m*3 14.4 C 0 km/h
1993 03-09-2008 14:40:02 13.6 C 9.42 g/m*3 13.6 C 0 km/h
1994 03-09-2008 14:52:02 13.6 C 9.65 g/m*3 13.6 C 0 km/h
1995 03-09-2008 15:04:02 13.8 C 10.01 g/m*3 13.8 C 0 km/h
1996 03-09-2008 15:16:02 13.9 C 10.19 g/m*3 13.9 C 0 km/h
1997 03-09-2008 15:28:02 13.8 C 10.25 g/m*3 13.8 C 0 km/h
1998 03-09-2008 15:40:02 13.8 C 10.13 g/m*3 13.8 C 0 km/h
1999 03-09-2008 15:52:01 13.7 C 10.18 g/m*3 13.7 C 0 km/h
2000 03-09-2008 16:04:02 13.7 C 10.18 g/m*3 13.7 C 0 km/h
Sensor: Nr:Datum:Temp:Abs-Feuchte:Windchill:Wind:
Aussen-T/F 2001 03-09-2008 16:16:02 13.5 C 10.06 g/m*3 13.5 C 0 km/h
2002 03-09-2008 16:28:02 13.7 C 10.3 g/m*3 13.7 C 0 km/h
2003 03-09-2008 16:40:02 14 C 10.49 g/m*3 14 C 0 km/h
2004 03-09-2008 16:52:02 14 C 10.49 g/m*3 14 C 0 km/h
2005 03-09-2008 17:04:02 13.6 C 10.36 g/m*3 13.6 C 0 km/h
2006 03-09-2008 17:16:02 13.5 C 10.29 g/m*3 13.5 C 0 km/h
2007 03-09-2008 17:28:02 14 C 10.61 g/m*3 14 C 0 km/h
2008 03-09-2008 17:40:02 13.9 C 10.67 g/m*3 13.9 C 0 km/h
2009 03-09-2008 17:52:01 14.1 C 10.68 g/m*3 14.1 C 0 km/h
2010 03-09-2008 18:04:02 13.9 C 10.67 g/m*3 13.9 C 0 km/h
2011 03-09-2008 18:16:01 13.7 C 10.54 g/m*3 13.7 C 0 km/h
2012 03-09-2008 18:28:01 13.7 C 10.54 g/m*3 13.7 C 0 km/h
2013 03-09-2008 18:40:02 13.5 C 10.41 g/m*3 13.5 C 0 km/h
2014 03-09-2008 18:52:02 13.4 C 10.35 g/m*3 13.4 C 0 km/h
2015 03-09-2008 19:04:02 13.3 C 10.28 g/m*3 13.3 C 0 km/h
2016 03-09-2008 19:16:02 13 C 9.98 g/m*3 13 C 0 km/h
2017 03-09-2008 19:28:02 12.8 C 9.86 g/m*3 12.8 C 0 km/h
2018 03-09-2008 19:40:02 12.8 C 9.97 g/m*3 12.8 C 0 km/h
2019 03-09-2008 19:52:02 12.7 C 9.8 g/m*3 12.7 C 0 km/h
2020 03-09-2008 20:04:01 12.8 C 9.97 g/m*3 12.8 C 0 km/h
2021 03-09-2008 20:16:02 12.7 C 9.8 g/m*3 12.7 C 0 km/h
2022 03-09-2008 20:28:02 12.5 C 9.57 g/m*3 12.5 C 0 km/h
2023 03-09-2008 20:40:02 12.4 C 9.4 g/m*3 12.4 C 0 km/h
2024 03-09-2008 20:52:02 12.4 C 9.4 g/m*3 12.4 C 0 km/h
2025 03-09-2008 21:04:02 12.4 C 9.4 g/m*3 12.4 C 0 km/h
Sensor: Nr:Datum:Temp:Abs-Feuchte:Windchill:Wind:
Aussen-T/F 2026 03-09-2008 21:16:01 12.2 C 9.28 g/m*3 12.2 C 0 km/h
2027 03-09-2008 21:28:01 12.1 C 9.22 g/m*3 12.1 C 0 km/h
2028 03-09-2008 21:40:02 12.1 C 9.22 g/m*3 12.1 C 0 km/h
2029 03-09-2008 21:52:02 12.1 C 9.12 g/m*3 12.1 C 0 km/h
2030 03-09-2008 22:04:02 12 C 9.06 g/m*3 12 C 0 km/h
2031 03-09-2008 22:16:02 11.8 C 8.95 g/m*3 11.8 C 0 km/h
2032 03-09-2008 22:28:02 11.7 C 8.89 g/m*3 11.7 C 0 km/h
2033 03-09-2008 22:41:02 11.6 C 8.73 g/m*3 11.6 C 0 km/h
2034 03-09-2008 22:53:02 11.5 C 8.68 g/m*3 11.5 C 0 km/h
2035 03-09-2008 23:05:02 11.4 C 8.72 g/m*3 11.4 C 0 km/h
2036 03-09-2008 23:17:02 11.3 C 8.77 g/m*3 11.3 C 0 km/h
2037 03-09-2008 23:29:02 11.3 C 8.77 g/m*3 11.3 C 0 km/h
2038 03-09-2008 23:41:02 11.4 C 8.83 g/m*3 11.4 C 0 km/h
2039 03-09-2008 23:53:02 11.4 C 8.72 g/m*3 11.4 C 0 km/h
2040 04-09-2008 00:05:02 11.2 C 8.51 g/m*3 11.2 C 0 km/h
2041 04-09-2008 00:17:02 11.1 C 8.46 g/m*3 11.1 C 0 km/h
2042 04-09-2008 00:29:02 11 C 8.51 g/m*3 11 C 0 km/h
2043 04-09-2008 00:41:02 10.8 C 8.4 g/m*3 10.8 C 0 km/h
2044 04-09-2008 00:53:02 10.5 C 8.34 g/m*3 10.5 C 0 km/h
2045 04-09-2008 01:05:02 10.1 C 8.13 g/m*3 10.1 C 0 km/h
2046 04-09-2008 01:17:02 10 C 8.17 g/m*3 10 C 0 km/h
2047 04-09-2008 01:29:03 10.1 C 8.32 g/m*3 10.1 C 0 km/h
2048 04-09-2008 01:41:03 10.1 C 8.32 g/m*3 10.1 C 0 km/h
2049 04-09-2008 01:53:03 10.4 C 8.58 g/m*3 10.4 C 0 km/h
2050 04-09-2008 02:05:03 10.4 C 8.48 g/m*3 10.4 C 0 km/h
Sensor: Nr:Datum:Temp:Abs-Feuchte:Windchill:Wind:
Aussen-T/F 2051 04-09-2008 02:17:03 10.4 C 8.48 g/m*3 10.4 C 0 km/h
2052 04-09-2008 02:29:03 10.3 C 8.33 g/m*3 10.3 C 0 km/h
2053 04-09-2008 02:41:03 10.1 C 8.23 g/m*3 10.1 C 0 km/h
2054 04-09-2008 02:53:03 10 C 8.17 g/m*3 10 C 0 km/h
2055 04-09-2008 03:05:03 9.7 C 8.2 g/m*3 9.7 C 0 km/h
2056 04-09-2008 03:17:03 9.6 C 8.15 g/m*3 9.6 C 0 km/h
2057 04-09-2008 03:29:03 9.5 C 8.1 g/m*3 9.5 C 0 km/h
2058 04-09-2008 03:41:03 9.5 C 8.19 g/m*3 9.5 C 0 km/h
2059 04-09-2008 03:53:03 9.4 C 8.14 g/m*3 9.4 C 0 km/h
2060 04-09-2008 04:05:03 9.4 C 8.14 g/m*3 9.4 C 0 km/h
2061 04-09-2008 04:17:03 9.4 C 8.14 g/m*3 9.4 C 0 km/h
2062 04-09-2008 04:29:03 9.4 C 8.14 g/m*3 9.4 C 0 km/h
2063 04-09-2008 04:41:03 9.3 C 8.09 g/m*3 9.3 C 0 km/h
2064 04-09-2008 04:53:03 9.2 C 8.04 g/m*3 9.2 C 0 km/h
2065 04-09-2008 05:05:03 9.2 C 8.13 g/m*3 9.2 C 0 km/h
2066 04-09-2008 05:17:03 9.2 C 8.13 g/m*3 9.2 C 0 km/h
2067 04-09-2008 05:29:04 9.1 C 8.07 g/m*3 9.1 C 0 km/h
2068 04-09-2008 05:41:04 9 C 8.02 g/m*3 9 C 0 km/h
2069 04-09-2008 05:53:04 8.9 C 8.06 g/m*3 8.9 C 0 km/h
2070 04-09-2008 06:05:04 8.7 C 7.96 g/m*3 8.7 C 0 km/h
2071 04-09-2008 06:17:04 8.6 C 7.91 g/m*3 8.6 C 0 km/h
2072 04-09-2008 06:29:04 8.5 C 7.85 g/m*3 8.5 C 0 km/h
2073 04-09-2008 06:41:04 8.6 C 7.91 g/m*3 8.6 C 0 km/h
2074 04-09-2008 06:53:04 8.8 C 8.09 g/m*3 8.8 C 0 km/h
2075 04-09-2008 07:05:02 9.1 C 8.16 g/m*3 9.1 C 0 km/h
Sensor: Nr:Datum:Temp:Abs-Feuchte:Windchill:Wind:
Aussen-T/F 2076 04-09-2008 07:17:01 9.3 C 8.27 g/m*3 9.3 C 0 km/h
2077 04-09-2008 07:29:01 9.4 C 8.32 g/m*3 9.4 C 0 km/h
2078 04-09-2008 07:41:02 9.5 C 8.37 g/m*3 9.5 C 0 km/h
2079 04-09-2008 07:53:02 9.5 C 8.28 g/m*3 9.5 C 0 km/h
2080 04-09-2008 08:05:02 9.5 C 8.28 g/m*3 9.5 C 0 km/h
2081 04-09-2008 08:17:02 9.8 C 8.44 g/m*3 9.8 C 0 km/h
2082 04-09-2008 08:29:02 9.9 C 8.5 g/m*3 9.9 C 0 km/h
2083 04-09-2008 08:41:02 10.1 C 8.42 g/m*3 10.1 C 0 km/h
2084 04-09-2008 08:53:01 10.4 C 8.58 g/m*3 10.4 C 0 km/h
2085 04-09-2008 09:05:02 10.6 C 8.69 g/m*3 10.6 C 0 km/h
2086 04-09-2008 09:17:01 10.8 C 8.8 g/m*3 10.8 C 0 km/h
2087 04-09-2008 09:29:01 11.2 C 8.92 g/m*3 11.2 C 0 km/h
2088 04-09-2008 09:41:02 12 C 9.06 g/m*3 12 C 0 km/h
2089 04-09-2008 09:53:02 12.6 C 8.96 g/m*3 12.6 C 0 km/h
2090 04-09-2008 10:05:02 13.5 C 8.54 g/m*3 13.5 C 0 km/h
2091 04-09-2008 10:17:02 14 C 8.2 g/m*3 14 C 0 km/h
2092 04-09-2008 10:29:02 14.5 C 8.21 g/m*3 14.5 C 0 km/h
2093 04-09-2008 10:41:02 14.8 C 8.11 g/m*3 14.8 C 0 km/h
2094 04-09-2008 10:53:02 14.7 C 7.93 g/m*3 14.7 C 0 km/h
2095 04-09-2008 11:05:03 15.2 C 7.79 g/m*3 15.2 C 0 km/h
2096 04-09-2008 11:17:02 14.5 C 7.59 g/m*3 14.5 C 0 km/h
2097 04-09-2008 11:29:02 14.5 C 7.59 g/m*3 14.5 C 0 km/h
2098 04-09-2008 11:41:03 14.7 C 7.68 g/m*3 14.7 C 0 km/h
2099 04-09-2008 11:53:02 15.6 C 7.58 g/m*3 15.6 C 0 km/h
2100 04-09-2008 12:05:02 16.2 C 7.45 g/m*3 16.2 C 0 km/h
Sensor: Nr:Datum:Temp:Abs-Feuchte:Windchill:Wind:
Aussen-T/F 2101 04-09-2008 12:17:02 16.4 C 7.54 g/m*3 16.4 C 0 km/h
2102 04-09-2008 12:29:02 16.6 C 7.63 g/m*3 16.6 C 0 km/h
2103 04-09-2008 12:41:02 17.1 C 7.42 g/m*3 17.1 C 0 km/h
2104 04-09-2008 12:53:02 16.8 C 7.58 g/m*3 16.8 C 0 km/h
2105 04-09-2008 13:05:01 17.2 C 7.32 g/m*3 17.2 C 0 km/h
2106 04-09-2008 13:17:02 17.6 C 7.5 g/m*3 17.6 C 0 km/h
2107 04-09-2008 13:29:03 17.7 C 7.24 g/m*3 17.7 C 0 km/h
2108 04-09-2008 13:41:01 18 C 7.07 g/m*3 18 C 0 km/h
2109 04-09-2008 13:53:03 17.2 C 6.88 g/m*3 17.2 C 0 km/h
2110 04-09-2008 14:05:02 17.1 C 6.84 g/m*3 17.1 C 0 km/h
2111 04-09-2008 14:17:02 17.2 C 6.74 g/m*3 17.2 C 0 km/h
2112 04-09-2008 14:29:02 17.2 C 6.59 g/m*3 17.2 C 0 km/h
2113 04-09-2008 14:41:02 17.2 C 6.59 g/m*3 17.2 C 0 km/h
2114 04-09-2008 14:53:03 17.1 C 6.55 g/m*3 17.1 C 0 km/h
2115 04-09-2008 15:05:02 17.5 C 6.86 g/m*3 17.5 C 0 km/h
2116 04-09-2008 15:17:02 17.6 C 6.75 g/m*3 17.6 C 0 km/h
2117 04-09-2008 15:29:02 17.4 C 6.52 g/m*3 17.4 C 0 km/h
2118 04-09-2008 15:41:02 18 C 6.45 g/m*3 18 C 0 km/h
2119 04-09-2008 15:53:02 19 C 6.52 g/m*3 19 C 0 km/h
2120 04-09-2008 16:05:02 19.9 C 6.53 g/m*3 19.9 C 0 km/h
2121 04-09-2008 16:17:02 18.8 C 6.28 g/m*3 18.8 C 0 km/h
2122 04-09-2008 16:29:02 18.6 C 6.05 g/m*3 18.6 C 0 km/h
2123 04-09-2008 16:41:03 19.2 C 6.27 g/m*3 19.2 C 0 km/h
2124 04-09-2008 16:53:02 19 C 5.87 g/m*3 19 C 0 km/h
2125 04-09-2008 17:05:02 19.8 C 5.81 g/m*3 19.8 C 0 km/h
Sensor: Nr:Datum:Temp:Abs-Feuchte:Windchill:Wind:
Aussen-T/F 2126 04-09-2008 17:17:02 20 C 5.88 g/m*3 20 C 0 km/h
2127 04-09-2008 17:29:02 19.8 C 5.81 g/m*3 19.8 C 0 km/h
2128 04-09-2008 17:41:02 19.6 C 5.91 g/m*3 19.6 C 0 km/h
2129 04-09-2008 17:53:02 19.3 C 5.81 g/m*3 19.3 C 0 km/h
2130 04-09-2008 18:05:01 19.3 C 6.14 g/m*3 19.3 C 0 km/h
2131 04-09-2008 18:17:01 19.1 C 5.9 g/m*3 19.1 C 0 km/h
2132 04-09-2008 18:29:01 18.8 C 6.12 g/m*3 18.8 C 0 km/h
2133 04-09-2008 18:41:01 18.3 C 5.94 g/m*3 18.3 C 0 km/h
2134 04-09-2008 18:53:02 17.8 C 6.07 g/m*3 17.8 C 0 km/h
2135 04-09-2008 19:05:02 17.7 C 6.34 g/m*3 17.7 C 0 km/h
2136 04-09-2008 19:17:02 17.3 C 6.33 g/m*3 17.3 C 0 km/h
2137 04-09-2008 19:29:02 16.8 C 6.58 g/m*3 16.8 C 0 km/h
2138 04-09-2008 19:41:02 16.5 C 6.88 g/m*3 16.5 C 0 km/h
2139 04-09-2008 19:53:03 16.1 C 6.99 g/m*3 16.1 C 0 km/h
2140 04-09-2008 20:05:02 15.6 C 7.31 g/m*3 15.6 C 0 km/h
2141 04-09-2008 20:17:02 15.2 C 7.4 g/m*3 15.2 C 0 km/h
2142 04-09-2008 20:29:02 14.9 C 7.52 g/m*3 14.9 C 0 km/h
2143 04-09-2008 20:41:02 14.7 C 7.3 g/m*3 14.7 C 0 km/h
2144 04-09-2008 20:53:02 14.3 C 7.13 g/m*3 14.3 C 0 km/h
2145 04-09-2008 21:05:02 14.3 C 7.13 g/m*3 14.3 C 0 km/h
2146 04-09-2008 21:17:02 14.4 C 7.17 g/m*3 14.4 C 0 km/h
2147 04-09-2008 21:29:02 14.7 C 6.8 g/m*3 14.7 C 0 km/h
2148 04-09-2008 21:41:02 14.7 C 6.92 g/m*3 14.7 C 0 km/h
2149 04-09-2008 21:54:03 14.4 C 7.05 g/m*3 14.4 C 0 km/h
2150 04-09-2008 22:06:03 14.4 C 7.29 g/m*3 14.4 C 0 km/h
Sensor: Nr:Datum:Temp:Abs-Feuchte:Windchill:Wind:
Aussen-T/F 2151 04-09-2008 22:18:03 14.3 C 7.37 g/m*3 14.3 C 0 km/h
2152 04-09-2008 22:30:03 14.2 C 7.57 g/m*3 14.2 C 0 km/h
2153 04-09-2008 22:42:03 14 C 7.72 g/m*3 14 C 0 km/h
2154 04-09-2008 22:54:03 14 C 7.84 g/m*3 14 C 0 km/h
2155 04-09-2008 23:06:03 13.9 C 8.03 g/m*3 13.9 C 0 km/h
2156 04-09-2008 23:18:03 13.9 C 8.15 g/m*3 13.9 C 0 km/h
2157 04-09-2008 23:30:03 13.8 C 8.34 g/m*3 13.8 C 0 km/h
2158 04-09-2008 23:42:03 13.8 C 8.34 g/m*3 13.8 C 0 km/h
2159 04-09-2008 23:54:04 13.8 C 8.34 g/m*3 13.8 C 0 km/h
2160 05-09-2008 00:06:04 13.8 C 8.34 g/m*3 13.8 C 0 km/h
2161 05-09-2008 00:18:04 13.7 C 8.29 g/m*3 13.7 C 0 km/h
2162 05-09-2008 00:30:04 13.6 C 8.36 g/m*3 13.6 C 0 km/h
2163 05-09-2008 00:42:04 13.6 C 8.47 g/m*3 13.6 C 0 km/h
2164 05-09-2008 00:54:04 13.3 C 8.55 g/m*3 13.3 C 0 km/h
2165 05-09-2008 01:06:04 13.2 C 8.84 g/m*3 13.2 C 0 km/h
2166 05-09-2008 01:18:04 13.2 C 8.96 g/m*3 13.2 C 0 km/h
2167 05-09-2008 01:30:04 13.3 C 9.01 g/m*3 13.3 C 0 km/h
2168 05-09-2008 01:42:04 13.3 C 9.01 g/m*3 13.3 C 0 km/h
2169 05-09-2008 01:54:04 13.2 C 8.84 g/m*3 13.2 C 0 km/h
2170 05-09-2008 02:06:04 13.2 C 8.84 g/m*3 13.2 C 0 km/h
2171 05-09-2008 02:18:04 13.3 C 8.9 g/m*3 13.3 C 0 km/h
2172 05-09-2008 02:30:04 13.2 C 8.84 g/m*3 13.2 C 0 km/h
2173 05-09-2008 02:42:04 13.2 C 8.96 g/m*3 13.2 C 0 km/h
2174 05-09-2008 02:54:04 13 C 8.96 g/m*3 13 C 0 km/h
2175 05-09-2008 03:06:04 13 C 9.19 g/m*3 13 C 0 km/h
Sensor: Nr:Datum:Temp:Abs-Feuchte:Windchill:Wind:
Aussen-T/F 2176 05-09-2008 03:18:04 13 C 9.19 g/m*3 13 C 0 km/h
2177 05-09-2008 03:30:04 12.8 C 9.3 g/m*3 12.8 C 0 km/h
2178 05-09-2008 03:42:04 12.7 C 9.35 g/m*3 12.7 C 0 km/h
2179 05-09-2008 03:54:04 12.7 C 9.46 g/m*3 12.7 C 0 km/h
2180 05-09-2008 04:06:05 12.8 C 9.52 g/m*3 12.8 C 0 km/h
2181 05-09-2008 04:18:05 12.7 C 9.46 g/m*3 12.7 C 0 km/h
2182 05-09-2008 04:30:05 12.5 C 9.35 g/m*3 12.5 C 0 km/h
2183 05-09-2008 04:42:05 12.3 C 9.23 g/m*3 12.3 C 0 km/h
2184 05-09-2008 04:54:05 12.1 C 9.22 g/m*3 12.1 C 0 km/h
2185 05-09-2008 05:06:05 12.1 C 9.22 g/m*3 12.1 C 0 km/h
2186 05-09-2008 05:18:05 12.1 C 9.22 g/m*3 12.1 C 0 km/h
2187 05-09-2008 05:30:05 12.3 C 9.45 g/m*3 12.3 C 0 km/h
2188 05-09-2008 05:42:05 12.3 C 9.45 g/m*3 12.3 C 0 km/h
2189 05-09-2008 05:54:05 12.4 C 9.29 g/m*3 12.4 C 0 km/h
2190 05-09-2008 06:06:05 12.3 C 9.23 g/m*3 12.3 C 0 km/h
2191 05-09-2008 06:18:05 12.4 C 9.29 g/m*3 12.4 C 0 km/h
2192 05-09-2008 06:30:05 12.5 C 9.35 g/m*3 12.5 C 0 km/h
2193 05-09-2008 06:42:05 12.8 C 9.63 g/m*3 12.8 C 0 km/h
2194 05-09-2008 06:54:05 13 C 9.53 g/m*3 13 C 0 km/h
2195 05-09-2008 07:06:04 13.1 C 9.47 g/m*3 13.1 C 0 km/h
2196 05-09-2008 07:18:04 13 C 9.41 g/m*3 13 C 0 km/h
2197 05-09-2008 07:30:04 13 C 9.41 g/m*3 13 C 0 km/h
2198 05-09-2008 07:42:04 13.4 C 9.65 g/m*3 13.4 C 0 km/h
2199 05-09-2008 07:54:03 13.4 C 9.53 g/m*3 13.4 C 0 km/h
2200 05-09-2008 08:06:02 13.5 C 9.59 g/m*3 13.5 C 0 km/h
Sensor: Nr:Datum:Temp:Abs-Feuchte:Windchill:Wind:
Aussen-T/F 2201 05-09-2008 08:18:02 13.6 C 9.53 g/m*3 13.6 C 0 km/h
2202 05-09-2008 08:30:03 13.5 C 9.59 g/m*3 13.5 C 0 km/h
2203 05-09-2008 08:42:02 13.4 C 9.53 g/m*3 13.4 C 0 km/h
2204 05-09-2008 08:54:02 13.4 C 9.65 g/m*3 13.4 C 0 km/h
2205 05-09-2008 09:06:02 13.7 C 9.95 g/m*3 13.7 C 0 km/h
2206 05-09-2008 09:18:02 14.3 C 10.2 g/m*3 14.3 C 0 km/h
2207 05-09-2008 09:30:02 15.2 C 9.99 g/m*3 15.2 C 0 km/h
2208 05-09-2008 09:42:03 15.8 C 10.23 g/m*3 15.8 C 0 km/h
2209 05-09-2008 09:54:02 16.4 C 10.05 g/m*3 16.4 C 0 km/h
2210 05-09-2008 10:06:03 16.7 C 9.95 g/m*3 16.7 C 0 km/h
2211 05-09-2008 10:18:02 17.2 C 9.81 g/m*3 17.2 C 0 km/h
2212 05-09-2008 10:30:02 17.6 C 9.75 g/m*3 17.6 C 0 km/h
2213 05-09-2008 10:42:02 17.8 C 9.71 g/m*3 17.8 C 0 km/h
2214 05-09-2008 10:54:02 18.1 C 9.58 g/m*3 18.1 C 0 km/h
2215 05-09-2008 11:06:02 18.3 C 9.38 g/m*3 18.3 C 0 km/h
2216 05-09-2008 11:18:01 18.3 C 9.54 g/m*3 18.3 C 0 km/h
2217 05-09-2008 11:30:01 18.5 C 9.65 g/m*3 18.5 C 0 km/h
2218 05-09-2008 11:42:02 19.4 C 9.84 g/m*3 19.4 C 0 km/h
2219 05-09-2008 11:54:02 19.8 C 9.57 g/m*3 19.8 C 0 km/h
2220 05-09-2008 12:06:03 20.1 C 9.56 g/m*3 20.1 C 0 km/h
2221 05-09-2008 12:18:02 19.9 C 9.62 g/m*3 19.9 C 0 km/h
2222 05-09-2008 12:30:02 21.1 C 9.58 g/m*3 21.1 C 0 km/h
2223 05-09-2008 12:42:02 21.4 C 9.56 g/m*3 21.4 C 0 km/h
2224 05-09-2008 12:54:02 21.2 C 9.45 g/m*3 21.2 C 0 km/h
2225 05-09-2008 13:06:01 21.2 C 9.45 g/m*3 21.2 C 0 km/h
Sensor: Nr:Datum:Temp:Abs-Feuchte:Windchill:Wind:
Aussen-T/F 2226 05-09-2008 13:18:02 22.1 C 9.56 g/m*3 22.1 C 0 km/h
2227 05-09-2008 13:30:03 22.5 C 9.79 g/m*3 22.5 C 0 km/h
2228 05-09-2008 13:42:01 22.5 C 9.79 g/m*3 22.5 C 0 km/h
2229 05-09-2008 13:54:02 21.9 C 9.84 g/m*3 21.9 C 0 km/h
2230 05-09-2008 14:06:01 22.3 C 9.68 g/m*3 22.3 C 0 km/h
2231 05-09-2008 14:18:02 22.2 C 9.82 g/m*3 22.2 C 0 km/h
2232 05-09-2008 14:30:02 22.1 C 9.96 g/m*3 22.1 C 0 km/h
2233 05-09-2008 14:42:01 21.9 C 10.03 g/m*3 21.9 C 0 km/h
2234 05-09-2008 14:54:02 21.6 C 10.24 g/m*3 21.6 C 0 km/h
2235 05-09-2008 15:06:02 20.9 C 10.2 g/m*3 20.9 C 0 km/h
2236 05-09-2008 15:18:02 20.8 C 10.5 g/m*3 20.8 C 0 km/h
2237 05-09-2008 15:30:02 20.8 C 10.5 g/m*3 20.8 C 0 km/h
2238 05-09-2008 15:42:02 20.9 C 10.56 g/m*3 20.9 C 0 km/h
2239 05-09-2008 15:54:01 21.2 C 10.56 g/m*3 21.2 C 0 km/h
2240 05-09-2008 16:06:02 21.7 C 10.68 g/m*3 21.7 C 0 km/h
2241 05-09-2008 16:18:01 22.1 C 10.35 g/m*3 22.1 C 0 km/h
2242 05-09-2008 16:30:01 22 C 10.48 g/m*3 22 C 0 km/h
2243 05-09-2008 16:42:02 22.1 C 10.54 g/m*3 22.1 C 0 km/h
2244 05-09-2008 16:54:02 22.6 C 10.65 g/m*3 22.6 C 0 km/h
2245 05-09-2008 17:06:01 22.5 C 10.99 g/m*3 22.5 C 0 km/h
2246 05-09-2008 17:18:02 21.8 C 10.74 g/m*3 21.8 C 0 km/h
2247 05-09-2008 17:30:02 21.9 C 10.81 g/m*3 21.9 C 0 km/h
2248 05-09-2008 17:42:02 21.7 C 10.49 g/m*3 21.7 C 0 km/h
2249 05-09-2008 17:54:03 21.6 C 10.43 g/m*3 21.6 C 0 km/h
2250 05-09-2008 18:06:02 21.6 C 10.62 g/m*3 21.6 C 0 km/h
Sensor: Nr:Datum:Temp:Abs-Feuchte:Windchill:Wind:
Aussen-T/F 2251 05-09-2008 18:18:03 21.6 C 10.81 g/m*3 21.6 C 0 km/h
2252 05-09-2008 18:30:03 21.5 C 10.94 g/m*3 21.5 C 0 km/h
2253 05-09-2008 18:42:02 21.4 C 10.87 g/m*3 21.4 C 0 km/h
2254 05-09-2008 18:54:02 21.5 C 11.13 g/m*3 21.5 C 0 km/h
2255 05-09-2008 19:06:02 21.5 C 11.13 g/m*3 21.5 C 0 km/h
2256 05-09-2008 19:18:02 21 C 11.36 g/m*3 21 C 0 km/h
2257 05-09-2008 19:30:02 20 C 11.92 g/m*3 20 C 0 km/h
2258 05-09-2008 19:42:02 19.5 C 12.25 g/m*3 19.5 C 0 km/h
2259 05-09-2008 19:54:01 18.1 C 11.43 g/m*3 18.1 C 0 km/h
2260 05-09-2008 20:06:02 17.2 C 12.15 g/m*3 17.2 C 0 km/h
2261 05-09-2008 20:18:01 17 C 12.3 g/m*3 17 C 0 km/h
2262 05-09-2008 20:30:01 16.9 C 12.66 g/m*3 16.9 C 0 km/h
2263 05-09-2008 20:42:02 16.9 C 12.8 g/m*3 16.9 C 0 km/h
2264 05-09-2008 20:54:02 16.9 C 12.94 g/m*3 16.9 C 0 km/h
2265 05-09-2008 21:06:02 16.9 C 12.94 g/m*3 16.9 C 0 km/h
2266 05-09-2008 21:18:02 16.9 C 13.09 g/m*3 16.9 C 0 km/h
2267 05-09-2008 21:30:02 17 C 13.17 g/m*3 17 C 0 km/h
2268 05-09-2008 21:42:02 17 C 13.17 g/m*3 17 C 0 km/h
2269 05-09-2008 21:54:02 17.1 C 13.39 g/m*3 17.1 C 0 km/h
2270 05-09-2008 22:06:02 17.1 C 13.39 g/m*3 17.1 C 0 km/h
2271 05-09-2008 22:19:02 17.1 C 13.39 g/m*3 17.1 C 0 km/h
2272 05-09-2008 22:31:02 17.2 C 13.62 g/m*3 17.2 C 0 km/h
2273 05-09-2008 22:43:02 17.2 C 13.62 g/m*3 17.2 C 0 km/h
2274 05-09-2008 22:55:02 17.1 C 13.54 g/m*3 17.1 C 0 km/h
2275 05-09-2008 23:07:02 17 C 13.46 g/m*3 17 C 0 km/h
Sensor: Nr:Datum:Temp:Abs-Feuchte:Windchill:Wind:
Aussen-T/F 2276 05-09-2008 23:19:02 16.9 C 13.52 g/m*3 16.9 C 0 km/h
2277 05-09-2008 23:31:02 16.8 C 13.44 g/m*3 16.8 C 0 km/h
2278 05-09-2008 23:43:03 16.8 C 13.44 g/m*3 16.8 C 0 km/h
2279 05-09-2008 23:55:03 16.7 C 13.36 g/m*3 16.7 C 0 km/h
2280 06-09-2008 00:07:03 16.5 C 13.2 g/m*3 16.5 C 0 km/h
2281 06-09-2008 00:19:03 16.4 C 13.12 g/m*3 16.4 C 0 km/h
2282 06-09-2008 00:31:03 16.4 C 13.12 g/m*3 16.4 C 0 km/h
2283 06-09-2008 00:43:03 16.4 C 13.12 g/m*3 16.4 C 0 km/h
2284 06-09-2008 00:55:03 16.4 C 13.26 g/m*3 16.4 C 0 km/h
2285 06-09-2008 01:07:03 16.1 C 12.88 g/m*3 16.1 C 0 km/h
2286 06-09-2008 01:19:03 16 C 12.81 g/m*3 16 C 0 km/h
2287 06-09-2008 01:31:03 15.9 C 12.87 g/m*3 15.9 C 0 km/h
2288 06-09-2008 01:43:03 15.7 C 12.71 g/m*3 15.7 C 0 km/h
2289 06-09-2008 01:55:03 15.6 C 12.63 g/m*3 15.6 C 0 km/h
2290 06-09-2008 02:07:03 15.6 C 12.63 g/m*3 15.6 C 0 km/h
2291 06-09-2008 02:19:03 15.7 C 12.71 g/m*3 15.7 C 0 km/h
2292 06-09-2008 02:31:03 15.7 C 12.71 g/m*3 15.7 C 0 km/h
2293 06-09-2008 02:43:03 15.7 C 12.71 g/m*3 15.7 C 0 km/h
2294 06-09-2008 02:55:03 15.7 C 12.71 g/m*3 15.7 C 0 km/h
2295 06-09-2008 03:07:03 15.6 C 12.5 g/m*3 15.6 C 0 km/h
2296 06-09-2008 03:19:03 15.6 C 12.5 g/m*3 15.6 C 0 km/h
2297 06-09-2008 03:31:04 15.6 C 12.5 g/m*3 15.6 C 0 km/h
2298 06-09-2008 03:43:04 15.6 C 12.5 g/m*3 15.6 C 0 km/h
2299 06-09-2008 03:55:04 15.5 C 12.56 g/m*3 15.5 C 0 km/h
2300 06-09-2008 04:07:04 15.5 C 12.56 g/m*3 15.5 C 0 km/h
Sensor: Nr:Datum:Temp:Abs-Feuchte:Windchill:Wind:
Aussen-T/F 2301 06-09-2008 04:19:04 15.5 C 12.56 g/m*3 15.5 C 0 km/h
2302 06-09-2008 04:31:04 15.4 C 12.48 g/m*3 15.4 C 0 km/h
2303 06-09-2008 04:43:04 15.4 C 12.48 g/m*3 15.4 C 0 km/h
2304 06-09-2008 04:55:04 15.2 C 12.33 g/m*3 15.2 C 0 km/h
2305 06-09-2008 05:07:04 15.2 C 12.33 g/m*3 15.2 C 0 km/h
2306 06-09-2008 05:19:04 15.2 C 12.33 g/m*3 15.2 C 0 km/h
2307 06-09-2008 05:31:04 15.3 C 12.41 g/m*3 15.3 C 0 km/h
2308 06-09-2008 05:43:04 15.3 C 12.41 g/m*3 15.3 C 0 km/h
2309 06-09-2008 05:55:04 15.4 C 12.48 g/m*3 15.4 C 0 km/h
2310 06-09-2008 06:07:04 15.6 C 12.63 g/m*3 15.6 C 0 km/h
2311 06-09-2008 06:19:04 15.7 C 12.71 g/m*3 15.7 C 0 km/h
2312 06-09-2008 06:31:04 15.8 C 12.79 g/m*3 15.8 C 0 km/h
2313 06-09-2008 06:43:04 15.8 C 12.79 g/m*3 15.8 C 0 km/h
2314 06-09-2008 06:55:04 15.7 C 12.71 g/m*3 15.7 C 0 km/h
2315 06-09-2008 07:07:04 15.8 C 12.79 g/m*3 15.8 C 0 km/h
2316 06-09-2008 07:19:05 15.7 C 12.71 g/m*3 15.7 C 0 km/h
2317 06-09-2008 07:31:05 16 C 12.81 g/m*3 16 C 0 km/h
2318 06-09-2008 07:43:05 16.2 C 12.82 g/m*3 16.2 C 0 km/h
2319 06-09-2008 07:55:05 16.3 C 12.62 g/m*3 16.3 C 0 km/h
2320 06-09-2008 08:07:02 16.3 C 12.35 g/m*3 16.3 C 0 km/h
2321 06-09-2008 08:19:02 16.3 C 12.35 g/m*3 16.3 C 0 km/h
2322 06-09-2008 08:31:02 16.6 C 12.57 g/m*3 16.6 C 0 km/h
2323 06-09-2008 08:43:02 17 C 12.44 g/m*3 17 C 0 km/h
2324 06-09-2008 08:55:02 17.1 C 12.23 g/m*3 17.1 C 0 km/h
2325 06-09-2008 09:07:03 17.4 C 12.45 g/m*3 17.4 C 0 km/h
Sensor: Nr:Datum:Temp:Abs-Feuchte:Windchill:Wind:
Aussen-T/F 2326 06-09-2008 09:19:02 18 C 12.13 g/m*3 18 C 0 km/h
2327 06-09-2008 09:31:02 18.5 C 12.02 g/m*3 18.5 C 0 km/h
2328 06-09-2008 09:43:02 18.5 C 11.71 g/m*3 18.5 C 0 km/h
2329 06-09-2008 09:55:02 19.1 C 11.47 g/m*3 19.1 C 0 km/h
2330 06-09-2008 10:07:02 19.5 C 11.24 g/m*3 19.5 C 0 km/h
2331 06-09-2008 10:19:02 19.6 C 10.97 g/m*3 19.6 C 0 km/h
2332 06-09-2008 10:31:02 20.2 C 10.84 g/m*3 20.2 C 0 km/h
2333 06-09-2008 10:43:02 20 C 10.54 g/m*3 20 C 0 km/h
2334 06-09-2008 10:55:02 20.3 C 10.73 g/m*3 20.3 C 0 km/h
2335 06-09-2008 11:07:01 20.4 C 10.61 g/m*3 20.4 C 0 km/h
2336 06-09-2008 11:19:01 20.9 C 10.56 g/m*3 20.9 C 0 km/h
2337 06-09-2008 11:31:02 20.9 C 10.38 g/m*3 20.9 C 0 km/h
2338 06-09-2008 11:43:02 21.3 C 10.25 g/m*3 21.3 C 0 km/h
2339 06-09-2008 11:55:02 21.7 C 10.3 g/m*3 21.7 C 0 km/h
2340 06-09-2008 12:07:02 21.2 C 10.01 g/m*3 21.2 C 0 km/h
2341 06-09-2008 12:19:02 21.3 C 10.25 g/m*3 21.3 C 0 km/h
2342 06-09-2008 12:31:02 21 C 9.89 g/m*3 21 C 0 km/h
2343 06-09-2008 12:43:02 20.8 C 10.14 g/m*3 20.8 C 0 km/h
2344 06-09-2008 12:55:02 20.8 C 10.32 g/m*3 20.8 C 0 km/h
2345 06-09-2008 13:07:02 20.8 C 10.32 g/m*3 20.8 C 0 km/h
2346 06-09-2008 13:19:02 20.8 C 9.6 g/m*3 20.8 C 0 km/h
2347 06-09-2008 13:31:02 20.9 C 9.47 g/m*3 20.9 C 0 km/h
2348 06-09-2008 13:43:02 20.8 C 9.6 g/m*3 20.8 C 0 km/h
2349 06-09-2008 13:55:01 20.6 C 9.66 g/m*3 20.6 C 0 km/h
2350 06-09-2008 14:07:02 20.3 C 9.5 g/m*3 20.3 C 0 km/h
Sensor: Nr:Datum:Temp:Abs-Feuchte:Windchill:Wind:
Aussen-T/F 2351 06-09-2008 14:19:02 20.4 C 9.38 g/m*3 20.4 C 0 km/h
2352 06-09-2008 14:31:02 20.2 C 9.79 g/m*3 20.2 C 0 km/h
2353 06-09-2008 14:43:02 20 C 9.85 g/m*3 20 C 0 km/h
2354 06-09-2008 14:55:02 19.8 C 9.57 g/m*3 19.8 C 0 km/h
2355 06-09-2008 15:07:02 19.8 C 8.71 g/m*3 19.8 C 0 km/h
2356 06-09-2008 15:19:02 19.7 C 8.32 g/m*3 19.7 C 0 km/h
2357 06-09-2008 15:31:02 19.8 C 8.03 g/m*3 19.8 C 0 km/h
2358 06-09-2008 15:43:03 19.8 C 8.03 g/m*3 19.8 C 0 km/h
2359 06-09-2008 15:55:01 19.5 C 8.06 g/m*3 19.5 C 0 km/h
2360 06-09-2008 16:07:02 19.4 C 8.18 g/m*3 19.4 C 0 km/h
2361 06-09-2008 16:19:01 19.3 C 8.79 g/m*3 19.3 C 0 km/h
2362 06-09-2008 16:31:02 19.3 C 8.79 g/m*3 19.3 C 0 km/h
2363 06-09-2008 16:43:02 19.2 C 9.23 g/m*3 19.2 C 0 km/h
2364 06-09-2008 16:55:02 19.2 C 9.56 g/m*3 19.2 C 0 km/h
2365 06-09-2008 17:07:02 19 C 9.61 g/m*3 19 C 0 km/h
2366 06-09-2008 17:19:02 18.1 C 10.66 g/m*3 18.1 C 0 km/h
2367 06-09-2008 17:31:02 17.9 C 11.3 g/m*3 17.9 C 0 km/h
2368 06-09-2008 17:43:02 18 C 10.91 g/m*3 18 C 0 km/h
2369 06-09-2008 17:55:02 18.1 C 11.12 g/m*3 18.1 C 0 km/h
2370 06-09-2008 18:07:01 18.3 C 10.94 g/m*3 18.3 C 0 km/h
2371 06-09-2008 18:19:02 18.5 C 10.76 g/m*3 18.5 C 0 km/h
2372 06-09-2008 18:31:01 18.5 C 10.76 g/m*3 18.5 C 0 km/h
2373 06-09-2008 18:43:01 18.4 C 10.85 g/m*3 18.4 C 0 km/h
2374 06-09-2008 18:55:03 18 C 10.75 g/m*3 18 C 0 km/h
2375 06-09-2008 19:07:02 17.9 C 10.99 g/m*3 17.9 C 0 km/h
Sensor: Nr:Datum:Temp:Abs-Feuchte:Windchill:Wind:
Aussen-T/F 2376 06-09-2008 19:19:02 17.7 C 11.01 g/m*3 17.7 C 0 km/h
2377 06-09-2008 19:31:02 17.5 C 11.03 g/m*3 17.5 C 0 km/h
2378 06-09-2008 19:43:02 17.4 C 10.82 g/m*3 17.4 C 0 km/h
2379 06-09-2008 19:55:02 17.5 C 10.88 g/m*3 17.5 C 0 km/h
2380 06-09-2008 20:07:02 17.2 C 10.98 g/m*3 17.2 C 0 km/h
2381 06-09-2008 20:19:02 17.1 C 10.92 g/m*3 17.1 C 0 km/h
2382 06-09-2008 20:31:02 16.9 C 10.93 g/m*3 16.9 C 0 km/h
2383 06-09-2008 20:43:02 16.8 C 10.87 g/m*3 16.8 C 0 km/h
2384 06-09-2008 20:55:02 16.8 C 10.58 g/m*3 16.8 C 0 km/h
2385 06-09-2008 21:07:02 16.7 C 10.23 g/m*3 16.7 C 0 km/h
2386 06-09-2008 21:19:02 16.6 C 10.31 g/m*3 16.6 C 0 km/h
2387 06-09-2008 21:31:02 16.4 C 10.33 g/m*3 16.4 C 0 km/h
2388 06-09-2008 21:43:02 16.2 C 10.34 g/m*3 16.2 C 0 km/h
2389 06-09-2008 21:55:01 16 C 10.49 g/m*3 16 C 0 km/h
2390 06-09-2008 22:07:01 15.9 C 10.56 g/m*3 15.9 C 0 km/h
2391 06-09-2008 22:20:02 15.9 C 10.56 g/m*3 15.9 C 0 km/h
2392 06-09-2008 22:32:02 15.7 C 10.57 g/m*3 15.7 C 0 km/h
2393 06-09-2008 22:44:02 15.6 C 10.51 g/m*3 15.6 C 0 km/h
2394 06-09-2008 22:56:02 15.5 C 10.44 g/m*3 15.5 C 0 km/h
2395 06-09-2008 23:08:02 15.4 C 10.38 g/m*3 15.4 C 0 km/h
2396 06-09-2008 23:20:02 15.4 C 10.51 g/m*3 15.4 C 0 km/h
2397 06-09-2008 23:32:02 15.4 C 10.38 g/m*3 15.4 C 0 km/h
2398 06-09-2008 23:44:02 15.6 C 10.51 g/m*3 15.6 C 0 km/h
2399 06-09-2008 23:56:02 15.6 C 10.51 g/m*3 15.6 C 0 km/h
2400 07-09-2008 00:08:02 15.3 C 10.19 g/m*3 15.3 C 0 km/h
Sensor: Nr:Datum:Temp:Abs-Feuchte:Windchill:Wind:
Aussen-T/F 2401 07-09-2008 00:20:02 15.2 C 10.25 g/m*3 15.2 C 0 km/h
2402 07-09-2008 00:32:02 15.2 C 10.25 g/m*3 15.2 C 0 km/h
2403 07-09-2008 00:44:02 15.3 C 10.32 g/m*3 15.3 C 0 km/h
2404 07-09-2008 00:56:02 15.3 C 10.32 g/m*3 15.3 C 0 km/h
2405 07-09-2008 01:08:02 15.3 C 10.32 g/m*3 15.3 C 0 km/h
2406 07-09-2008 01:20:02 15.2 C 10.25 g/m*3 15.2 C 0 km/h
2407 07-09-2008 01:32:03 15.3 C 10.19 g/m*3 15.3 C 0 km/h
2408 07-09-2008 01:44:03 15.3 C 10.06 g/m*3 15.3 C 0 km/h
2409 07-09-2008 01:56:03 15.2 C 9.99 g/m*3 15.2 C 0 km/h
2410 07-09-2008 02:08:03 15.3 C 10.06 g/m*3 15.3 C 0 km/h
2411 07-09-2008 02:20:03 15.3 C 9.92 g/m*3 15.3 C 0 km/h
2412 07-09-2008 02:32:03 15.1 C 9.8 g/m*3 15.1 C 0 km/h
2413 07-09-2008 02:44:03 15 C 9.87 g/m*3 15 C 0 km/h
2414 07-09-2008 02:56:03 14.7 C 9.82 g/m*3 14.7 C 0 km/h
2415 07-09-2008 03:08:03 14.4 C 9.64 g/m*3 14.4 C 0 km/h
2416 07-09-2008 03:20:03 14.3 C 9.71 g/m*3 14.3 C 0 km/h
2417 07-09-2008 03:32:03 14.4 C 9.77 g/m*3 14.4 C 0 km/h
2418 07-09-2008 03:44:03 14.3 C 9.58 g/m*3 14.3 C 0 km/h
2419 07-09-2008 03:56:03 14.1 C 9.47 g/m*3 14.1 C 0 km/h
2420 07-09-2008 04:08:03 14.1 C 9.59 g/m*3 14.1 C 0 km/h
2421 07-09-2008 04:20:03 14.1 C 9.47 g/m*3 14.1 C 0 km/h
2422 07-09-2008 04:32:03 13.8 C 9.53 g/m*3 13.8 C 0 km/h
2423 07-09-2008 04:44:03 14.1 C 9.59 g/m*3 14.1 C 0 km/h
2424 07-09-2008 04:56:03 14.2 C 9.65 g/m*3 14.2 C 0 km/h
2425 07-09-2008 05:08:03 13.9 C 9.47 g/m*3 13.9 C 0 km/h
Sensor: Nr:Datum:Temp:Abs-Feuchte:Windchill:Wind:
Aussen-T/F 2426 07-09-2008 05:20:04 13.7 C 9.47 g/m*3 13.7 C 0 km/h
2427 07-09-2008 05:32:04 13.5 C 9.47 g/m*3 13.5 C 0 km/h
2428 07-09-2008 05:44:04 13.2 C 9.42 g/m*3 13.2 C 0 km/h
2429 07-09-2008 05:56:04 13.1 C 9.47 g/m*3 13.1 C 0 km/h
2430 07-09-2008 06:08:04 13.1 C 9.47 g/m*3 13.1 C 0 km/h
2431 07-09-2008 06:20:04 13.1 C 9.47 g/m*3 13.1 C 0 km/h
2432 07-09-2008 06:32:04 13.2 C 9.42 g/m*3 13.2 C 0 km/h
2433 07-09-2008 06:44:04 13.5 C 9.59 g/m*3 13.5 C 0 km/h
2434 07-09-2008 06:56:04 13.7 C 9.47 g/m*3 13.7 C 0 km/h
2435 07-09-2008 07:08:04 13.8 C 9.29 g/m*3 13.8 C 0 km/h
2436 07-09-2008 07:20:04 13.8 C 9.17 g/m*3 13.8 C 0 km/h
2437 07-09-2008 07:32:04 13.8 C 9.17 g/m*3 13.8 C 0 km/h
2438 07-09-2008 07:44:04 14.1 C 9.1 g/m*3 14.1 C 0 km/h
2439 07-09-2008 07:56:04 14.3 C 8.97 g/m*3 14.3 C 0 km/h
2440 07-09-2008 08:08:04 14.3 C 9.09 g/m*3 14.3 C 0 km/h
2441 07-09-2008 08:20:04 14.5 C 9.2 g/m*3 14.5 C 0 km/h
2442 07-09-2008 08:32:04 14.6 C 9.26 g/m*3 14.6 C 0 km/h
2443 07-09-2008 08:44:04 14.7 C 9.07 g/m*3 14.7 C 0 km/h
2444 07-09-2008 08:56:04 15.3 C 9.27 g/m*3 15.3 C 0 km/h
2445 07-09-2008 09:08:01 15.8 C 9.42 g/m*3 15.8 C 0 km/h
2446 07-09-2008 09:20:02 16.1 C 8.5 g/m*3 16.1 C 0 km/h
2447 07-09-2008 09:32:02 16.1 C 8.5 g/m*3 16.1 C 0 km/h
2448 07-09-2008 09:44:02 15.9 C 8.4 g/m*3 15.9 C 0 km/h
2449 07-09-2008 09:56:03 16.3 C 8.46 g/m*3 16.3 C 0 km/h
2450 07-09-2008 10:08:02 17.3 C 8.4 g/m*3 17.3 C 0 km/h
Sensor: Nr:Datum:Temp:Abs-Feuchte:Windchill:Wind:
Aussen-T/F 2451 07-09-2008 10:20:03 18.2 C 8.39 g/m*3 18.2 C 0 km/h
2452 07-09-2008 10:32:02 18.2 C 8.24 g/m*3 18.2 C 0 km/h
2453 07-09-2008 10:44:02 17.9 C 8.4 g/m*3 17.9 C 0 km/h
2454 07-09-2008 10:56:03 17.6 C 8.4 g/m*3 17.6 C 0 km/h
2455 07-09-2008 11:08:02 17.1 C 8.73 g/m*3 17.1 C 0 km/h
2456 07-09-2008 11:20:03 16.9 C 8.63 g/m*3 16.9 C 0 km/h
2457 07-09-2008 11:32:02 17.6 C 8.4 g/m*3 17.6 C 0 km/h
2458 07-09-2008 11:44:02 17.9 C 8.24 g/m*3 17.9 C 0 km/h
2459 07-09-2008 11:56:01 18.2 C 8.08 g/m*3 18.2 C 0 km/h
2460 07-09-2008 12:08:02 18.3 C 7.82 g/m*3 18.3 C 0 km/h
2461 07-09-2008 12:20:01 18.6 C 8.12 g/m*3 18.6 C 0 km/h
2462 07-09-2008 12:32:01 18.7 C 8.33 g/m*3 18.7 C 0 km/h
2463 07-09-2008 12:44:01 19.1 C 8.03 g/m*3 19.1 C 0 km/h
2464 07-09-2008 12:56:01 19.4 C 8.34 g/m*3 19.4 C 0 km/h
2465 07-09-2008 13:08:02 19 C 8.15 g/m*3 19 C 0 km/h
2466 07-09-2008 13:20:01 19.1 C 8.36 g/m*3 19.1 C 0 km/h
2467 07-09-2008 13:32:02 19.3 C 8.29 g/m*3 19.3 C 0 km/h
2468 07-09-2008 13:44:02 20 C 8.3 g/m*3 20 C 0 km/h
2469 07-09-2008 13:56:02 20.7 C 8.46 g/m*3 20.7 C 0 km/h
2470 07-09-2008 14:08:02 20 C 8.12 g/m*3 20 C 0 km/h
2471 07-09-2008 14:20:02 20.4 C 8.31 g/m*3 20.4 C 0 km/h
2472 07-09-2008 14:32:02 20.6 C 8.05 g/m*3 20.6 C 0 km/h
2473 07-09-2008 14:44:02 20.6 C 8.23 g/m*3 20.6 C 0 km/h
2474 07-09-2008 14:56:02 20 C 8.12 g/m*3 20 C 0 km/h
2475 07-09-2008 15:08:01 19.2 C 8.24 g/m*3 19.2 C 0 km/h
Sensor: Nr:Datum:Temp:Abs-Feuchte:Windchill:Wind:
Aussen-T/F 2476 07-09-2008 15:20:02 18.9 C 8.75 g/m*3 18.9 C 0 km/h
2477 07-09-2008 15:32:02 19.3 C 8.96 g/m*3 19.3 C 0 km/h
2478 07-09-2008 15:44:02 20.3 C 8.44 g/m*3 20.3 C 0 km/h
2479 07-09-2008 15:56:03 20 C 8.47 g/m*3 20 C 0 km/h
2480 07-09-2008 16:08:02 18.4 C 9.12 g/m*3 18.4 C 0 km/h
2481 07-09-2008 16:20:02 16.7 C 11.08 g/m*3 16.7 C 0 km/h
2482 07-09-2008 16:32:02 17.8 C 11.99 g/m*3 17.8 C 0 km/h
2483 07-09-2008 16:44:02 18.7 C 11.53 g/m*3 18.7 C 0 km/h
2484 07-09-2008 16:56:03 19.5 C 10.74 g/m*3 19.5 C 0 km/h
2485 07-09-2008 17:08:02 19.3 C 9.79 g/m*3 19.3 C 0 km/h
2486 07-09-2008 17:20:02 19 C 9.61 g/m*3 19 C 0 km/h
2487 07-09-2008 17:32:02 19.6 C 9.28 g/m*3 19.6 C 0 km/h
2488 07-09-2008 17:44:02 20.8 C 9.05 g/m*3 20.8 C 0 km/h
2489 07-09-2008 17:56:02 21 C 8.43 g/m*3 21 C 0 km/h
2490 07-09-2008 18:08:02 21.3 C 8.57 g/m*3 21.3 C 0 km/h
2491 07-09-2008 18:20:02 21.4 C 8.62 g/m*3 21.4 C 0 km/h
2492 07-09-2008 18:32:01 21.7 C 8.97 g/m*3 21.7 C 0 km/h
2493 07-09-2008 18:44:01 20.6 C 8.23 g/m*3 20.6 C 0 km/h
2494 07-09-2008 18:56:02 20.7 C 8.28 g/m*3 20.7 C 0 km/h
2495 07-09-2008 19:08:02 20.1 C 8 g/m*3 20.1 C 0 km/h
2496 07-09-2008 19:20:02 19.4 C 8.18 g/m*3 19.4 C 0 km/h
2497 07-09-2008 19:32:02 19 C 9.13 g/m*3 19 C 0 km/h
2498 07-09-2008 19:44:02 18.7 C 9.13 g/m*3 18.7 C 0 km/h
2499 07-09-2008 19:56:02 18.4 C 9.44 g/m*3 18.4 C 0 km/h
2500 07-09-2008 20:08:01 18.2 C 9.17 g/m*3 18.2 C 0 km/h
Sensor: Nr:Datum:Temp:Abs-Feuchte:Windchill:Wind:
Aussen-T/F 2501 07-09-2008 20:20:01 18 C 9.22 g/m*3 18 C 0 km/h
2502 07-09-2008 20:32:02 17.8 C 9.26 g/m*3 17.8 C 0 km/h
2503 07-09-2008 20:44:02 17.6 C 9 g/m*3 17.6 C 0 km/h
2504 07-09-2008 20:56:02 17.4 C 9.04 g/m*3 17.4 C 0 km/h
2505 07-09-2008 21:08:02 17.2 C 8.93 g/m*3 17.2 C 0 km/h
2506 07-09-2008 21:20:02 16.9 C 9.06 g/m*3 16.9 C 0 km/h
2507 07-09-2008 21:32:02 16.7 C 9.38 g/m*3 16.7 C 0 km/h
2508 07-09-2008 21:44:02 16.7 C 9.38 g/m*3 16.7 C 0 km/h
2509 07-09-2008 21:56:02 16.4 C 9.35 g/m*3 16.4 C 0 km/h
2510 07-09-2008 22:09:02 16.3 C 9.43 g/m*3 16.3 C 0 km/h
2511 07-09-2008 22:21:02 16.3 C 9.43 g/m*3 16.3 C 0 km/h
2512 07-09-2008 22:33:02 16.1 C 9.46 g/m*3 16.1 C 0 km/h
2513 07-09-2008 22:45:02 16 C 9.54 g/m*3 16 C 0 km/h
2514 07-09-2008 22:57:02 15.9 C 9.62 g/m*3 15.9 C 0 km/h
2515 07-09-2008 23:09:02 15.8 C 9.56 g/m*3 15.8 C 0 km/h
2516 07-09-2008 23:21:03 15.8 C 9.69 g/m*3 15.8 C 0 km/h
2517 07-09-2008 23:33:03 15.9 C 9.62 g/m*3 15.9 C 0 km/h
2518 07-09-2008 23:45:03 15.8 C 9.56 g/m*3 15.8 C 0 km/h
2519 07-09-2008 23:57:03 15.8 C 9.56 g/m*3 15.8 C 0 km/h
2520 08-09-2008 00:09:03 15.8 C 9.56 g/m*3 15.8 C 0 km/h
2521 08-09-2008 00:21:03 15.7 C 9.5 g/m*3 15.7 C 0 km/h
2522 08-09-2008 00:33:03 15.5 C 9.39 g/m*3 15.5 C 0 km/h
2523 08-09-2008 00:45:03 15.6 C 9.44 g/m*3 15.6 C 0 km/h
2524 08-09-2008 00:57:03 15.6 C 9.44 g/m*3 15.6 C 0 km/h
2525 08-09-2008 01:09:03 15.5 C 9.39 g/m*3 15.5 C 0 km/h
Sensor: Nr:Datum:Temp:Abs-Feuchte:Windchill:Wind:
Aussen-T/F 2526 08-09-2008 01:21:03 15.6 C 9.44 g/m*3 15.6 C 0 km/h
2527 08-09-2008 01:33:03 15.5 C 9.39 g/m*3 15.5 C 0 km/h
2528 08-09-2008 01:45:03 15.2 C 9.35 g/m*3 15.2 C 0 km/h
2529 08-09-2008 01:57:03 15.1 C 9.42 g/m*3 15.1 C 0 km/h
2530 08-09-2008 02:09:03 14.9 C 9.56 g/m*3 14.9 C 0 km/h
2531 08-09-2008 02:21:03 14.9 C 9.56 g/m*3 14.9 C 0 km/h
2532 08-09-2008 02:33:03 15.1 C 9.55 g/m*3 15.1 C 0 km/h
2533 08-09-2008 02:45:03 15 C 9.36 g/m*3 15 C 0 km/h
2534 08-09-2008 02:57:03 14.8 C 9.37 g/m*3 14.8 C 0 km/h
2535 08-09-2008 03:09:04 14.4 C 9.27 g/m*3 14.4 C 0 km/h
2536 08-09-2008 03:21:04 14.3 C 9.34 g/m*3 14.3 C 0 km/h
2537 08-09-2008 03:33:04 14.2 C 9.4 g/m*3 14.2 C 0 km/h
2538 08-09-2008 03:45:04 14.3 C 9.34 g/m*3 14.3 C 0 km/h
2539 08-09-2008 03:57:04 14.2 C 9.4 g/m*3 14.2 C 0 km/h
2540 08-09-2008 04:09:04 14.1 C 9.47 g/m*3 14.1 C 0 km/h
2541 08-09-2008 04:21:04 14.2 C 9.52 g/m*3 14.2 C 0 km/h
2542 08-09-2008 04:33:04 14.4 C 9.39 g/m*3 14.4 C 0 km/h
2543 08-09-2008 04:45:04 14.5 C 9.33 g/m*3 14.5 C 0 km/h
2544 08-09-2008 04:57:04 14.5 C 9.33 g/m*3 14.5 C 0 km/h
2545 08-09-2008 05:09:04 14.4 C 9.27 g/m*3 14.4 C 0 km/h
2546 08-09-2008 05:21:04 14.1 C 8.98 g/m*3 14.1 C 0 km/h
2547 08-09-2008 05:33:04 14.1 C 8.86 g/m*3 14.1 C 0 km/h
2548 08-09-2008 05:45:04 14 C 8.81 g/m*3 14 C 0 km/h
2549 08-09-2008 05:57:04 13.9 C 8.99 g/m*3 13.9 C 0 km/h
2550 08-09-2008 06:09:04 13.5 C 8.89 g/m*3 13.5 C 0 km/h
Sensor: Nr:Datum:Temp:Abs-Feuchte:Windchill:Wind:
Aussen-T/F 2551 08-09-2008 06:21:04 13.2 C 8.96 g/m*3 13.2 C 0 km/h
2552 08-09-2008 06:33:04 13.1 C 9.01 g/m*3 13.1 C 0 km/h
2553 08-09-2008 06:45:04 13 C 9.07 g/m*3 13 C 0 km/h
2554 08-09-2008 06:57:05 12.8 C 9.07 g/m*3 12.8 C 0 km/h
2555 08-09-2008 07:09:02 12.8 C 9.18 g/m*3 12.8 C 0 km/h
2556 08-09-2008 07:21:02 12.8 C 9.3 g/m*3 12.8 C 0 km/h
2557 08-09-2008 07:33:02 13.1 C 9.36 g/m*3 13.1 C 0 km/h
2558 08-09-2008 07:45:02 13.7 C 9.71 g/m*3 13.7 C 0 km/h
2559 08-09-2008 07:57:02 14.2 C 9.65 g/m*3 14.2 C 0 km/h
2560 08-09-2008 08:09:02 14.4 C 9.52 g/m*3 14.4 C 0 km/h
2561 08-09-2008 08:21:02 14.5 C 9.58 g/m*3 14.5 C 0 km/h
2562 08-09-2008 08:33:02 14.7 C 9.57 g/m*3 14.7 C 0 km/h
2563 08-09-2008 08:45:02 14.8 C 9.63 g/m*3 14.8 C 0 km/h
2564 08-09-2008 08:57:02 14.9 C 9.56 g/m*3 14.9 C 0 km/h
2565 08-09-2008 09:09:02 15.2 C 9.61 g/m*3 15.2 C 0 km/h
2566 08-09-2008 09:21:03 15.3 C 9.53 g/m*3 15.3 C 0 km/h
2567 08-09-2008 09:33:02 15.5 C 9.39 g/m*3 15.5 C 0 km/h
2568 08-09-2008 09:45:02 15.8 C 9.29 g/m*3 15.8 C 0 km/h
2569 08-09-2008 09:57:02 16.1 C 9.18 g/m*3 16.1 C 0 km/h
2570 08-09-2008 10:09:02 16.3 C 9.16 g/m*3 16.3 C 0 km/h
2571 08-09-2008 10:21:02 16.6 C 9.04 g/m*3 16.6 C 0 km/h
2572 08-09-2008 10:33:02 16.9 C 9.06 g/m*3 16.9 C 0 km/h
2573 08-09-2008 10:45:02 17.1 C 8.73 g/m*3 17.1 C 0 km/h
2574 08-09-2008 10:57:02 17.3 C 8.4 g/m*3 17.3 C 0 km/h
2575 08-09-2008 11:09:02 17.6 C 8.4 g/m*3 17.6 C 0 km/h
Sensor: Nr:Datum:Temp:Abs-Feuchte:Windchill:Wind:
Aussen-T/F 2576 08-09-2008 11:21:02 17.6 C 8.55 g/m*3 17.6 C 0 km/h
2577 08-09-2008 11:33:02 17.3 C 8.4 g/m*3 17.3 C 0 km/h
2578 08-09-2008 11:45:01 18.2 C 8.24 g/m*3 18.2 C 0 km/h
2579 08-09-2008 11:57:01 18.7 C 8.01 g/m*3 18.7 C 0 km/h
2580 08-09-2008 12:09:02 18.9 C 7.94 g/m*3 18.9 C 0 km/h
2581 08-09-2008 12:21:01 19.4 C 7.84 g/m*3 19.4 C 0 km/h
2582 08-09-2008 12:33:02 19.7 C 7.64 g/m*3 19.7 C 0 km/h
2583 08-09-2008 12:45:02 19.8 C 7.52 g/m*3 19.8 C 0 km/h
2584 08-09-2008 12:57:02 19.6 C 7.43 g/m*3 19.6 C 0 km/h
2585 08-09-2008 13:09:01 20.7 C 7.56 g/m*3 20.7 C 0 km/h
2586 08-09-2008 13:21:02 20.8 C 7.42 g/m*3 20.8 C 0 km/h
2587 08-09-2008 13:33:01 20.5 C 7.3 g/m*3 20.5 C 0 km/h
2588 08-09-2008 13:45:02 20.7 C 7.38 g/m*3 20.7 C 0 km/h
2589 08-09-2008 13:57:02 21.6 C 7.4 g/m*3 21.6 C 0 km/h
2590 08-09-2008 14:09:01 22 C 6.79 g/m*3 22 C 0 km/h
2591 08-09-2008 14:21:02 21.9 C 7.14 g/m*3 21.9 C 0 km/h
2592 08-09-2008 14:33:01 22.1 C 6.83 g/m*3 22.1 C 0 km/h
2593 08-09-2008 14:45:01 22.3 C 6.71 g/m*3 22.3 C 0 km/h
2594 08-09-2008 14:57:01 23 C 6.58 g/m*3 23 C 0 km/h
2595 08-09-2008 15:09:02 23.2 C 6.44 g/m*3 23.2 C 0 km/h
2596 08-09-2008 15:21:01 23.7 C 6.63 g/m*3 23.7 C 0 km/h
2597 08-09-2008 15:33:01 23.7 C 6.42 g/m*3 23.7 C 0 km/h
2598 08-09-2008 15:49:01 23.1 C 6.41 g/m*3 23.1 C 0 km/h
2599 08-09-2008 16:01:07 24 C 6.53 g/m*3 24 C 0 km/h
2600 08-09-2008 16:13:02 24.1 C 5.91 g/m*3 24.1 C 0 km/h
Sensor: Nr:Datum:Temp:Abs-Feuchte:Windchill:Wind:
Aussen-T/F 2601 08-09-2008 16:25:01 23.8 C 6.24 g/m*3 23.8 C 0 km/h
2602 08-09-2008 16:37:02 23.7 C 6.42 g/m*3 23.7 C 0 km/h
2603 08-09-2008 16:49:02 24 C 5.87 g/m*3 24 C 0 km/h
2604 08-09-2008 17:01:02 23.3 C 6.27 g/m*3 23.3 C 0 km/h
2605 08-09-2008 17:13:02 24.1 C 6.13 g/m*3 24.1 C 0 km/h
2606 08-09-2008 17:20:03 24.1 C 4.38 g/m*3 24.1 C 0 km/h
2607 08-09-2008 17:25:03 24.3 C 5.97 g/m*3 24.3 C 0 km/h
2608 08-09-2008 17:30:03 24.2 C 5.94 g/m*3 24.2 C 0 km/h
2609 08-09-2008 17:35:03 24.2 C 5.72 g/m*3 24.2 C 0 km/h
2610 08-09-2008 17:40:03 23.8 C 5.81 g/m*3 23.8 C 0 km/h
2611 08-09-2008 17:45:02 23.4 C 6.1 g/m*3 23.4 C 0 km/h
2612 08-09-2008 17:50:02 23.2 C 6.24 g/m*3 23.2 C 0 km/h
2613 08-09-2008 17:55:02 22.9 C 6.34 g/m*3 22.9 C 0 km/h
2614 08-09-2008 18:00:02 23.5 C 6.56 g/m*3 23.5 C 0 km/h
2615 08-09-2008 18:05:01 24.2 C 6.38 g/m*3 24.2 C 0 km/h
2616 08-09-2008 18:10:01 23.7 C 6.42 g/m*3 23.7 C 0 km/h
2617 08-09-2008 18:15:02 23.2 C 6.24 g/m*3 23.2 C 0 km/h
2618 08-09-2008 18:20:02 22.9 C 6.54 g/m*3 22.9 C 0 km/h
2619 08-09-2008 18:25:02 23.3 C 6.48 g/m*3 23.3 C 0 km/h
2620 08-09-2008 18:30:02 22.9 C 6.34 g/m*3 22.9 C 0 km/h
2621 08-09-2008 18:35:01 23 C 6.37 g/m*3 23 C 0 km/h
2622 08-09-2008 18:40:01 23.2 C 6.44 g/m*3 23.2 C 0 km/h
2623 08-09-2008 18:45:01 23 C 6.37 g/m*3 23 C 0 km/h
2624 08-09-2008 18:50:01 23 C 6.58 g/m*3 23 C 0 km/h
2625 08-09-2008 18:55:01 22.6 C 6.63 g/m*3 22.6 C 0 km/h
Sensor: Nr:Datum:Temp:Abs-Feuchte:Windchill:Wind:
Aussen-T/F 2626 08-09-2008 19:00:01 22.5 C 6.99 g/m*3 22.5 C 0 km/h
2627 08-09-2008 19:05:02 22.6 C 7.43 g/m*3 22.6 C 0 km/h
2628 08-09-2008 19:10:02 22.7 C 7.07 g/m*3 22.7 C 0 km/h
2629 08-09-2008 19:15:02 22.4 C 7.15 g/m*3 22.4 C 0 km/h
2630 08-09-2008 19:20:02 22.3 C 7.11 g/m*3 22.3 C 0 km/h
2631 08-09-2008 19:25:02 22.1 C 7.22 g/m*3 22.1 C 0 km/h
2632 08-09-2008 19:30:02 21.7 C 7.25 g/m*3 21.7 C 0 km/h
2633 08-09-2008 19:35:02 21.4 C 7.31 g/m*3 21.4 C 0 km/h
2634 08-09-2008 19:40:02 20.7 C 7.38 g/m*3 20.7 C 0 km/h
2635 08-09-2008 19:45:02 20.1 C 7.3 g/m*3 20.1 C 0 km/h
2636 08-09-2008 19:50:02 19.9 C 7.39 g/m*3 19.9 C 0 km/h
2637 08-09-2008 19:55:02 19.6 C 7.43 g/m*3 19.6 C 0 km/h
2638 08-09-2008 20:00:02 19.1 C 7.38 g/m*3 19.1 C 0 km/h
2639 08-09-2008 20:05:01 18.9 C 7.29 g/m*3 18.9 C 0 km/h
2640 08-09-2008 20:10:01 18.8 C 7.57 g/m*3 18.8 C 0 km/h
2641 08-09-2008 20:15:02 18.6 C 7.32 g/m*3 18.6 C 0 km/h
2642 08-09-2008 20:20:02 18.5 C 7.59 g/m*3 18.5 C 0 km/h
2643 08-09-2008 20:25:02 18.4 C 7.71 g/m*3 18.4 C 0 km/h
2644 08-09-2008 20:30:02 18.2 C 7.46 g/m*3 18.2 C 0 km/h
2645 08-09-2008 20:35:01 17.9 C 7.48 g/m*3 17.9 C 0 km/h
2646 08-09-2008 20:40:01 17.8 C 7.59 g/m*3 17.8 C 0 km/h
2647 08-09-2008 20:45:01 17.7 C 7.85 g/m*3 17.7 C 0 km/h
2648 08-09-2008 20:50:01 17.5 C 7.9 g/m*3 17.5 C 0 km/h
2649 08-09-2008 20:55:01 17.4 C 7.85 g/m*3 17.4 C 0 km/h
2650 08-09-2008 21:00:01 17.4 C 7.85 g/m*3 17.4 C 0 km/h
Sensor: Nr:Datum:Temp:Abs-Feuchte:Windchill:Wind:
Aussen-T/F 2651 08-09-2008 21:05:02 17.4 C 8 g/m*3 17.4 C 0 km/h
2652 08-09-2008 21:10:02 17.3 C 7.81 g/m*3 17.3 C 0 km/h
2653 08-09-2008 21:16:03 17.2 C 7.76 g/m*3 17.2 C 0 km/h
2654 08-09-2008 21:21:03 17.4 C 8 g/m*3 17.4 C 0 km/h
2655 08-09-2008 21:26:03 16.9 C 8.05 g/m*3 16.9 C 0 km/h
2656 08-09-2008 21:31:03 16.9 C 8.05 g/m*3 16.9 C 0 km/h
2657 08-09-2008 21:36:03 16.6 C 8.19 g/m*3 16.6 C 0 km/h
2658 08-09-2008 21:41:03 16.5 C 8 g/m*3 16.5 C 0 km/h
2659 08-09-2008 21:46:03 16.5 C 8.14 g/m*3 16.5 C 0 km/h
2660 08-09-2008 21:51:03 16.4 C 8.37 g/m*3 16.4 C 0 km/h
2661 08-09-2008 21:56:03 16.2 C 8.27 g/m*3 16.2 C 0 km/h
2662 08-09-2008 22:01:03 16.1 C 8.22 g/m*3 16.1 C 0 km/h
2663 08-09-2008 22:06:03 15.9 C 8.26 g/m*3 15.9 C 0 km/h
2664 08-09-2008 22:11:03 15.8 C 8.35 g/m*3 15.8 C 0 km/h
2665 08-09-2008 22:16:04 15.6 C 8.25 g/m*3 15.6 C 0 km/h
2666 08-09-2008 22:21:04 15.5 C 8.2 g/m*3 15.5 C 0 km/h
2667 08-09-2008 22:26:04 15.5 C 8.2 g/m*3 15.5 C 0 km/h
2668 08-09-2008 22:31:04 15.4 C 8.15 g/m*3 15.4 C 0 km/h
2669 08-09-2008 22:36:04 15.3 C 8.1 g/m*3 15.3 C 0 km/h
2670 08-09-2008 22:41:04 15.4 C 8.28 g/m*3 15.4 C 0 km/h
2671 08-09-2008 22:46:04 15.3 C 8.23 g/m*3 15.3 C 0 km/h
2672 08-09-2008 22:51:04 15.2 C 8.18 g/m*3 15.2 C 0 km/h
2673 08-09-2008 22:56:04 15.1 C 8.26 g/m*3 15.1 C 0 km/h
2674 08-09-2008 23:01:04 15 C 8.21 g/m*3 15 C 0 km/h
2675 08-09-2008 23:06:04 14.9 C 8.41 g/m*3 14.9 C 0 km/h
Sensor: Nr:Datum:Temp:Abs-Feuchte:Windchill:Wind:
Aussen-T/F 2676 08-09-2008 23:11:04 14.8 C 8.36 g/m*3 14.8 C 0 km/h
2677 08-09-2008 23:16:04 14.7 C 8.44 g/m*3 14.7 C 0 km/h
2678 08-09-2008 23:21:04 14.7 C 8.44 g/m*3 14.7 C 0 km/h
2679 08-09-2008 23:26:04 14.7 C 8.44 g/m*3 14.7 C 0 km/h
2680 08-09-2008 23:31:04 14.7 C 8.44 g/m*3 14.7 C 0 km/h
2681 08-09-2008 23:36:04 14.7 C 8.44 g/m*3 14.7 C 0 km/h
2682 08-09-2008 23:41:04 14.5 C 8.33 g/m*3 14.5 C 0 km/h
2683 08-09-2008 23:46:04 14.3 C 8.35 g/m*3 14.3 C 0 km/h
2684 08-09-2008 23:51:04 14.2 C 8.3 g/m*3 14.2 C 0 km/h
2685 08-09-2008 23:56:05 14.2 C 8.43 g/m*3 14.2 C 0 km/h
2686 09-09-2008 00:01:05 14 C 8.32 g/m*3 14 C 0 km/h
2687 09-09-2008 00:06:05 13.9 C 8.51 g/m*3 13.9 C 0 km/h
2688 09-09-2008 00:11:05 13.8 C 8.58 g/m*3 13.8 C 0 km/h
2689 09-09-2008 00:16:05 13.7 C 8.53 g/m*3 13.7 C 0 km/h
2690 09-09-2008 00:21:05 13.6 C 8.59 g/m*3 13.6 C 0 km/h
2691 09-09-2008 00:26:05 13.6 C 8.59 g/m*3 13.6 C 0 km/h
2692 09-09-2008 00:31:05 13.5 C 8.54 g/m*3 13.5 C 0 km/h
2693 09-09-2008 00:36:05 13.5 C 8.54 g/m*3 13.5 C 0 km/h
2694 09-09-2008 00:41:05 13.4 C 8.6 g/m*3 13.4 C 0 km/h
2695 09-09-2008 00:46:05 13.3 C 8.55 g/m*3 13.3 C 0 km/h
2696 09-09-2008 00:51:05 13.2 C 8.5 g/m*3 13.2 C 0 km/h
2697 09-09-2008 00:56:05 13.1 C 8.44 g/m*3 13.1 C 0 km/h
2698 09-09-2008 01:01:05 13.1 C 8.44 g/m*3 13.1 C 0 km/h
2699 09-09-2008 01:06:05 13 C 8.51 g/m*3 13 C 0 km/h
2700 09-09-2008 01:11:05 12.9 C 8.57 g/m*3 12.9 C 0 km/h
Sensor: Nr:Datum:Temp:Abs-Feuchte:Windchill:Wind:
Aussen-T/F 2701 09-09-2008 01:16:05 12.8 C 8.51 g/m*3 12.8 C 0 km/h
2702 09-09-2008 01:21:05 12.7 C 8.46 g/m*3 12.7 C 0 km/h
2703 09-09-2008 01:26:05 12.7 C 8.57 g/m*3 12.7 C 0 km/h
2704 09-09-2008 01:31:06 12.7 C 8.57 g/m*3 12.7 C 0 km/h
2705 09-09-2008 01:36:06 12.6 C 8.52 g/m*3 12.6 C 0 km/h
2706 09-09-2008 01:41:06 12.6 C 8.52 g/m*3 12.6 C 0 km/h
2707 09-09-2008 01:46:06 12.5 C 8.47 g/m*3 12.5 C 0 km/h
2708 09-09-2008 01:51:06 12.5 C 8.47 g/m*3 12.5 C 0 km/h
2709 09-09-2008 01:56:06 12.4 C 8.41 g/m*3 12.4 C 0 km/h
2710 09-09-2008 02:01:06 12.4 C 8.52 g/m*3 12.4 C 0 km/h
2711 09-09-2008 02:06:06 12.3 C 8.58 g/m*3 12.3 C 0 km/h
2712 09-09-2008 02:11:06 12.3 C 8.58 g/m*3 12.3 C 0 km/h
2713 09-09-2008 02:16:06 12.2 C 8.52 g/m*3 12.2 C 0 km/h
2714 09-09-2008 02:21:06 12.3 C 8.58 g/m*3 12.3 C 0 km/h
2715 09-09-2008 02:26:06 12.1 C 8.47 g/m*3 12.1 C 0 km/h
2716 09-09-2008 02:31:06 12.4 C 8.63 g/m*3 12.4 C 0 km/h
2717 09-09-2008 02:36:06 12 C 8.42 g/m*3 12 C 0 km/h
2718 09-09-2008 02:41:06 12 C 8.42 g/m*3 12 C 0 km/h
2719 09-09-2008 02:46:06 11.8 C 8.42 g/m*3 11.8 C 0 km/h
2720 09-09-2008 02:51:06 11.8 C 8.42 g/m*3 11.8 C 0 km/h
2721 09-09-2008 02:56:06 11.7 C 8.37 g/m*3 11.7 C 0 km/h
2722 09-09-2008 03:01:06 11.7 C 8.37 g/m*3 11.7 C 0 km/h
2723 09-09-2008 03:06:06 11.7 C 8.37 g/m*3 11.7 C 0 km/h
2724 09-09-2008 03:11:07 11.7 C 8.37 g/m*3 11.7 C 0 km/h
2725 09-09-2008 03:16:07 11.7 C 8.37 g/m*3 11.7 C 0 km/h
Sensor: Nr:Datum:Temp:Abs-Feuchte:Windchill:Wind:
Aussen-T/F 2726 09-09-2008 03:21:07 11.6 C 8.42 g/m*3 11.6 C 0 km/h
2727 09-09-2008 03:26:07 11.5 C 8.37 g/m*3 11.5 C 0 km/h
2728 09-09-2008 03:31:07 11.4 C 8.42 g/m*3 11.4 C 0 km/h
2729 09-09-2008 03:36:07 11.4 C 8.42 g/m*3 11.4 C 0 km/h
2730 09-09-2008 03:41:07 11.3 C 8.36 g/m*3 11.3 C 0 km/h
2731 09-09-2008 03:46:07 11.2 C 8.31 g/m*3 11.2 C 0 km/h
2732 09-09-2008 03:51:07 11.2 C 8.31 g/m*3 11.2 C 0 km/h
2733 09-09-2008 03:56:07 11.2 C 8.31 g/m*3 11.2 C 0 km/h
2734 09-09-2008 04:01:07 11.2 C 8.31 g/m*3 11.2 C 0 km/h
2735 09-09-2008 04:06:07 11.1 C 8.26 g/m*3 11.1 C 0 km/h
2736 09-09-2008 04:11:07 11.1 C 8.26 g/m*3 11.1 C 0 km/h
2737 09-09-2008 04:16:07 11.1 C 8.26 g/m*3 11.1 C 0 km/h
2738 09-09-2008 04:21:07 11.1 C 8.26 g/m*3 11.1 C 0 km/h
2739 09-09-2008 04:26:07 11.1 C 8.26 g/m*3 11.1 C 0 km/h
2740 09-09-2008 04:31:07 11 C 8.31 g/m*3 11 C 0 km/h
2741 09-09-2008 04:36:07 11 C 8.31 g/m*3 11 C 0 km/h
2742 09-09-2008 04:41:07 10.9 C 8.26 g/m*3 10.9 C 0 km/h
2743 09-09-2008 04:46:08 10.8 C 8.2 g/m*3 10.8 C 0 km/h
2744 09-09-2008 04:51:08 10.8 C 8.2 g/m*3 10.8 C 0 km/h
2745 09-09-2008 04:56:08 10.7 C 8.15 g/m*3 10.7 C 0 km/h
2746 09-09-2008 05:01:08 10.7 C 8.15 g/m*3 10.7 C 0 km/h
2747 09-09-2008 05:06:08 10.6 C 8.1 g/m*3 10.6 C 0 km/h
2748 09-09-2008 05:11:08 10.6 C 8.1 g/m*3 10.6 C 0 km/h
2749 09-09-2008 05:16:08 10.6 C 8.1 g/m*3 10.6 C 0 km/h
2750 09-09-2008 05:21:08 10.5 C 8.05 g/m*3 10.5 C 0 km/h
Sensor: Nr:Datum:Temp:Abs-Feuchte:Windchill:Wind:
Aussen-T/F 2751 09-09-2008 05:26:08 10.4 C 8 g/m*3 10.4 C 0 km/h
2752 09-09-2008 05:31:08 10.4 C 8 g/m*3 10.4 C 0 km/h
2753 09-09-2008 05:36:08 10.3 C 7.95 g/m*3 10.3 C 0 km/h
2754 09-09-2008 05:41:08 10.3 C 7.95 g/m*3 10.3 C 0 km/h
2755 09-09-2008 05:46:08 10.2 C 7.9 g/m*3 10.2 C 0 km/h
2756 09-09-2008 05:51:08 10.2 C 7.9 g/m*3 10.2 C 0 km/h
2757 09-09-2008 05:56:08 10.2 C 7.99 g/m*3 10.2 C 0 km/h
2758 09-09-2008 06:01:08 10 C 7.89 g/m*3 10 C 0 km/h
2759 09-09-2008 06:06:08 10 C 7.89 g/m*3 10 C 0 km/h
2760 09-09-2008 06:11:08 10 C 7.89 g/m*3 10 C 0 km/h
2761 09-09-2008 06:16:08 10 C 7.89 g/m*3 10 C 0 km/h
2762 09-09-2008 06:21:09 10 C 7.89 g/m*3 10 C 0 km/h
2763 09-09-2008 06:26:09 10 C 7.89 g/m*3 10 C 0 km/h
2764 09-09-2008 06:31:09 10.1 C 8.04 g/m*3 10.1 C 0 km/h
2765 09-09-2008 06:36:09 10.1 C 8.04 g/m*3 10.1 C 0 km/h
2766 09-09-2008 06:41:09 10.1 C 8.13 g/m*3 10.1 C 0 km/h
2767 09-09-2008 06:46:09 10.1 C 8.13 g/m*3 10.1 C 0 km/h
2768 09-09-2008 06:51:09 10.1 C 8.13 g/m*3 10.1 C 0 km/h
2769 09-09-2008 06:56:09 10.2 C 8.18 g/m*3 10.2 C 0 km/h
2770 09-09-2008 07:01:02 10.3 C 8.24 g/m*3 10.3 C 0 km/h
2771 09-09-2008 07:06:02 10.2 C 8.18 g/m*3 10.2 C 0 km/h
2772 09-09-2008 07:11:02 10.1 C 8.13 g/m*3 10.1 C 0 km/h
2773 09-09-2008 07:16:02 10.1 C 8.13 g/m*3 10.1 C 0 km/h
2774 09-09-2008 07:21:02 10.2 C 8.18 g/m*3 10.2 C 0 km/h
2775 09-09-2008 07:26:02 10.1 C 8.13 g/m*3 10.1 C 0 km/h
Sensor: Nr:Datum:Temp:Abs-Feuchte:Windchill:Wind:
Aussen-T/F 2776 09-09-2008 07:31:02 10.1 C 8.13 g/m*3 10.1 C 0 km/h
2777 09-09-2008 07:36:02 10 C 8.08 g/m*3 10 C 0 km/h
2778 09-09-2008 07:41:02 10 C 8.08 g/m*3 10 C 0 km/h
2779 09-09-2008 07:46:02 10.1 C 8.23 g/m*3 10.1 C 0 km/h
2780 09-09-2008 07:51:02 10.2 C 8.28 g/m*3 10.2 C 0 km/h
2781 09-09-2008 07:56:02 10.2 C 8.28 g/m*3 10.2 C 0 km/h
2782 09-09-2008 08:01:01 10.3 C 8.33 g/m*3 10.3 C 0 km/h
2783 09-09-2008 08:06:01 10.3 C 8.33 g/m*3 10.3 C 0 km/h
2784 09-09-2008 08:11:01 10.3 C 8.33 g/m*3 10.3 C 0 km/h
2785 09-09-2008 08:16:02 10.3 C 8.33 g/m*3 10.3 C 0 km/h
2786 09-09-2008 08:21:02 10.4 C 8.38 g/m*3 10.4 C 0 km/h
2787 09-09-2008 08:26:02 10.5 C 8.44 g/m*3 10.5 C 0 km/h
2788 09-09-2008 08:31:02 10.6 C 8.49 g/m*3 10.6 C 0 km/h
2789 09-09-2008 08:36:02 10.6 C 8.39 g/m*3 10.6 C 0 km/h
2790 09-09-2008 08:41:02 10.7 C 8.45 g/m*3 10.7 C 0 km/h
2791 09-09-2008 08:46:01 10.7 C 8.55 g/m*3 10.7 C 0 km/h
2792 09-09-2008 08:51:01 10.8 C 8.5 g/m*3 10.8 C 0 km/h
2793 09-09-2008 08:56:01 10.9 C 8.55 g/m*3 10.9 C 0 km/h
2794 09-09-2008 09:01:02 11.2 C 8.62 g/m*3 11.2 C 0 km/h
2795 09-09-2008 09:06:02 11.3 C 8.67 g/m*3 11.3 C 0 km/h
2796 09-09-2008 09:11:02 11.4 C 8.62 g/m*3 11.4 C 0 km/h
2797 09-09-2008 09:16:02 11.6 C 8.73 g/m*3 11.6 C 0 km/h
2798 09-09-2008 09:21:02 11.7 C 8.68 g/m*3 11.7 C 0 km/h
2799 09-09-2008 09:26:02 11.7 C 8.58 g/m*3 11.7 C 0 km/h
2800 09-09-2008 09:31:02 11.9 C 8.68 g/m*3 11.9 C 0 km/h
Sensor: Nr:Datum:Temp:Abs-Feuchte:Windchill:Wind:
Aussen-T/F 2801 09-09-2008 09:36:02 12 C 8.63 g/m*3 12 C 0 km/h
2802 09-09-2008 09:41:02 12.3 C 8.8 g/m*3 12.3 C 0 km/h
2803 09-09-2008 09:46:02 12.5 C 8.8 g/m*3 12.5 C 0 km/h
2804 09-09-2008 09:51:02 12.7 C 8.91 g/m*3 12.7 C 0 km/h
2805 09-09-2008 09:56:02 12.7 C 8.79 g/m*3 12.7 C 0 km/h
2806 09-09-2008 10:01:02 12.5 C 8.69 g/m*3 12.5 C 0 km/h
2807 09-09-2008 10:06:02 12.4 C 8.74 g/m*3 12.4 C 0 km/h
2808 09-09-2008 10:11:02 12.4 C 8.74 g/m*3 12.4 C 0 km/h
2809 09-09-2008 10:16:02 12.5 C 8.91 g/m*3 12.5 C 0 km/h
2810 09-09-2008 10:21:02 12.7 C 9.13 g/m*3 12.7 C 0 km/h
2811 09-09-2008 10:26:02 12.7 C 9.13 g/m*3 12.7 C 0 km/h
2812 09-09-2008 10:31:02 12.9 C 9.24 g/m*3 12.9 C 0 km/h
2813 09-09-2008 10:36:02 13 C 9.19 g/m*3 13 C 0 km/h
2814 09-09-2008 10:41:02 13.1 C 9.13 g/m*3 13.1 C 0 km/h
2815 09-09-2008 10:46:02 13.4 C 9.3 g/m*3 13.4 C 0 km/h
2816 09-09-2008 10:51:02 13.8 C 9.53 g/m*3 13.8 C 0 km/h
2817 09-09-2008 10:56:02 14.2 C 9.65 g/m*3 14.2 C 0 km/h
2818 09-09-2008 11:01:02 14.5 C 9.83 g/m*3 14.5 C 0 km/h
2819 09-09-2008 11:06:02 14.9 C 9.94 g/m*3 14.9 C 0 km/h
2820 09-09-2008 11:11:02 15.2 C 9.99 g/m*3 15.2 C 0 km/h
2821 09-09-2008 11:16:02 15.5 C 10.05 g/m*3 15.5 C 0 km/h
2822 09-09-2008 11:21:02 15.9 C 10.16 g/m*3 15.9 C 0 km/h
2823 09-09-2008 11:26:02 16.4 C 10.19 g/m*3 16.4 C 0 km/h
2824 09-09-2008 11:31:02 16.6 C 10.17 g/m*3 16.6 C 0 km/h
2825 09-09-2008 11:36:02 17.1 C 10.04 g/m*3 17.1 C 0 km/h
Sensor: Nr:Datum:Temp:Abs-Feuchte:Windchill:Wind:
Aussen-T/F 2826 09-09-2008 11:41:02 17.5 C 10.29 g/m*3 17.5 C 0 km/h
2827 09-09-2008 11:46:02 17.6 C 10.35 g/m*3 17.6 C 0 km/h
2828 09-09-2008 11:51:02 17.8 C 10.47 g/m*3 17.8 C 0 km/h
2829 09-09-2008 11:56:02 18.2 C 10.41 g/m*3 18.2 C 0 km/h
2830 09-09-2008 12:01:02 18.5 C 10.6 g/m*3 18.5 C 0 km/h
2831 09-09-2008 12:06:02 18.6 C 10.66 g/m*3 18.6 C 0 km/h
2832 09-09-2008 12:11:02 19.1 C 10.49 g/m*3 19.1 C 0 km/h
2833 09-09-2008 12:16:02 19.5 C 10.57 g/m*3 19.5 C 0 km/h
2834 09-09-2008 12:21:02 19.7 C 10.7 g/m*3 19.7 C 0 km/h
2835 09-09-2008 12:26:02 19.8 C 10.59 g/m*3 19.8 C 0 km/h
2836 09-09-2008 12:31:02 20.4 C 9.91 g/m*3 20.4 C 0 km/h
2837 09-09-2008 12:36:02 20.7 C 10.62 g/m*3 20.7 C 0 km/h
2838 09-09-2008 12:41:02 21 C 10.44 g/m*3 21 C 0 km/h
2839 09-09-2008 12:46:02 21.2 C 10.38 g/m*3 21.2 C 0 km/h
2840 09-09-2008 12:51:02 21.3 C 10.44 g/m*3 21.3 C 0 km/h
2841 09-09-2008 12:56:02 21.7 C 9.16 g/m*3 21.7 C 0 km/h
2842 09-09-2008 13:01:02 22.3 C 9.08 g/m*3 22.3 C 0 km/h
2843 09-09-2008 13:06:02 22.5 C 9.39 g/m*3 22.5 C 0 km/h
2844 09-09-2008 13:11:02 22.5 C 8.99 g/m*3 22.5 C 0 km/h
2845 09-09-2008 13:16:02 23 C 8.43 g/m*3 23 C 0 km/h
2846 09-09-2008 13:21:02 23.3 C 8.36 g/m*3 23.3 C 0 km/h
2847 09-09-2008 13:26:02 23.6 C 8.93 g/m*3 23.6 C 0 km/h
2848 09-09-2008 13:31:02 23.7 C 8.56 g/m*3 23.7 C 0 km/h
2849 09-09-2008 13:36:02 24.1 C 7.66 g/m*3 24.1 C 0 km/h
2850 09-09-2008 13:41:02 24.2 C 7.92 g/m*3 24.2 C 0 km/h
Sensor: Nr:Datum:Temp:Abs-Feuchte:Windchill:Wind:
Aussen-T/F 2851 09-09-2008 13:46:02 24.4 C 7.57 g/m*3 24.4 C 0 km/h
2852 09-09-2008 13:51:02 24.6 C 7.88 g/m*3 24.6 C 0 km/h
2853 09-09-2008 13:56:02 25.1 C 7.41 g/m*3 25.1 C 0 km/h
2854 09-09-2008 14:01:02 25.2 C 7.45 g/m*3 25.2 C 0 km/h
2855 09-09-2008 14:06:02 25.6 C 7.38 g/m*3 25.6 C 0 km/h
2856 09-09-2008 14:11:02 25.6 C 6.9 g/m*3 25.6 C 0 km/h
2857 09-09-2008 14:16:02 25.8 C 7.22 g/m*3 25.8 C 0 km/h
2858 09-09-2008 14:21:02 26.1 C 7.1 g/m*3 26.1 C 0 km/h
2859 09-09-2008 14:26:02 26.5 C 7.76 g/m*3 26.5 C 0 km/h
2860 09-09-2008 14:31:02 26.6 C 7.3 g/m*3 26.6 C 0 km/h
2861 09-09-2008 14:36:02 26.8 C 6.87 g/m*3 26.8 C 0 km/h
2862 09-09-2008 14:41:02 27 C 6.43 g/m*3 27 C 0 km/h
2863 09-09-2008 14:46:02 27 C 6.69 g/m*3 27 C 0 km/h
2864 09-09-2008 14:51:02 27.1 C 6.73 g/m*3 27.1 C 0 km/h
2865 09-09-2008 14:56:02 27.3 C 6.8 g/m*3 27.3 C 0 km/h
2866 09-09-2008 15:01:01 27.4 C 6.58 g/m*3 27.4 C 0 km/h
2867 09-09-2008 15:06:01 27.5 C 6.61 g/m*3 27.5 C 0 km/h
2868 09-09-2008 15:11:01 27.8 C 6.72 g/m*3 27.8 C 0 km/h
2869 09-09-2008 15:16:02 28 C 5.98 g/m*3 28 C 0 km/h
2870 09-09-2008 15:21:02 28.2 C 6.05 g/m*3 28.2 C 0 km/h
2871 09-09-2008 15:26:02 28.1 C 6.02 g/m*3 28.1 C 0 km/h
2872 09-09-2008 15:31:01 27.8 C 5.65 g/m*3 27.8 C 0 km/h
2873 09-09-2008 15:36:01 27.6 C 5.59 g/m*3 27.6 C 0 km/h
2874 09-09-2008 15:41:01 27.9 C 5.95 g/m*3 27.9 C 0 km/h
2875 09-09-2008 15:46:02 28.4 C 5.84 g/m*3 28.4 C 0 km/h
Sensor: Nr:Datum:Temp:Abs-Feuchte:Windchill:Wind:
Aussen-T/F 2876 09-09-2008 15:51:02 28.9 C 6.28 g/m*3 28.9 C 0 km/h
2877 09-09-2008 15:56:02 29.2 C 6.97 g/m*3 29.2 C 0 km/h
2878 09-09-2008 16:01:02 29.2 C 6.1 g/m*3 29.2 C 0 km/h
2879 09-09-2008 16:06:02 29.3 C 6.13 g/m*3 29.3 C 0 km/h
2880 09-09-2008 16:11:02 29.4 C 6.16 g/m*3 29.4 C 0 km/h
2881 09-09-2008 16:16:02 29.6 C 6.53 g/m*3 29.6 C 0 km/h
2882 09-09-2008 16:21:02 29.5 C 6.79 g/m*3 29.5 C 0 km/h
2883 09-09-2008 16:26:02 29.7 C 6.56 g/m*3 29.7 C 0 km/h
2884 09-09-2008 16:31:02 29.9 C 6.64 g/m*3 29.9 C 0 km/h
2885 09-09-2008 16:36:02 30 C 6.37 g/m*3 30 C 0 km/h
2886 09-09-2008 16:41:02 30.1 C 6.4 g/m*3 30.1 C 0 km/h
2887 09-09-2008 16:46:02 30.3 C 6.16 g/m*3 30.3 C 0 km/h
2888 09-09-2008 16:51:02 30.1 C 6.1 g/m*3 30.1 C 0 km/h
2889 09-09-2008 16:56:02 30 C 6.06 g/m*3 30 C 0 km/h
2890 09-09-2008 17:01:01 29.5 C 5.9 g/m*3 29.5 C 0 km/h
2891 09-09-2008 17:06:01 29.5 C 5.9 g/m*3 29.5 C 0 km/h
2892 09-09-2008 17:11:01 30.1 C 6.4 g/m*3 30.1 C 0 km/h
2893 09-09-2008 17:16:02 30 C 6.06 g/m*3 30 C 0 km/h
2894 09-09-2008 17:21:02 30.1 C 6.1 g/m*3 30.1 C 0 km/h
2895 09-09-2008 17:26:02 30 C 6.06 g/m*3 30 C 0 km/h
2896 09-09-2008 17:31:01 30 C 6.06 g/m*3 30 C 0 km/h
2897 09-09-2008 17:36:01 30 C 6.06 g/m*3 30 C 0 km/h
2898 09-09-2008 17:41:02 30.1 C 6.1 g/m*3 30.1 C 0 km/h
2899 09-09-2008 17:46:02 30.3 C 6.16 g/m*3 30.3 C 0 km/h
2900 09-09-2008 17:51:02 30.3 C 6.16 g/m*3 30.3 C 0 km/h
Sensor: Nr:Datum:Temp:Abs-Feuchte:Windchill:Wind:
Aussen-T/F 2901 09-09-2008 17:56:02 30.1 C 6.1 g/m*3 30.1 C 0 km/h
2902 09-09-2008 18:01:02 30.2 C 6.74 g/m*3 30.2 C 0 km/h
2903 09-09-2008 18:06:02 30.2 C 6.13 g/m*3 30.2 C 0 km/h
2904 09-09-2008 18:11:02 30 C 6.06 g/m*3 30 C 0 km/h
2905 09-09-2008 18:16:02 29.9 C 6.03 g/m*3 29.9 C 0 km/h
2906 09-09-2008 18:21:02 29.7 C 6.27 g/m*3 29.7 C 0 km/h
2907 09-09-2008 18:26:02 29.4 C 5.87 g/m*3 29.4 C 0 km/h
2908 09-09-2008 18:31:01 29 C 6.03 g/m*3 29 C 0 km/h
2909 09-09-2008 18:36:01 28.8 C 6.25 g/m*3 28.8 C 0 km/h
2910 09-09-2008 18:41:01 28.5 C 6.71 g/m*3 28.5 C 0 km/h
2911 09-09-2008 18:46:02 28 C 6.8 g/m*3 28 C 0 km/h
2912 09-09-2008 18:51:02 27.4 C 6.58 g/m*3 27.4 C 0 km/h
2913 09-09-2008 18:56:02 27.2 C 6.77 g/m*3 27.2 C 0 km/h
2914 09-09-2008 19:01:02 27 C 6.69 g/m*3 27 C 0 km/h
2915 09-09-2008 19:06:02 25.9 C 7.26 g/m*3 25.9 C 0 km/h
2916 09-09-2008 19:11:02 25.5 C 6.87 g/m*3 25.5 C 0 km/h
2917 09-09-2008 19:16:01 24.9 C 6.87 g/m*3 24.9 C 0 km/h
2918 09-09-2008 19:21:01 24.6 C 6.75 g/m*3 24.6 C 0 km/h
2919 09-09-2008 19:26:01 24.3 C 6.86 g/m*3 24.3 C 0 km/h
2920 09-09-2008 19:31:02 23.9 C 7.14 g/m*3 23.9 C 0 km/h
2921 09-09-2008 19:36:02 23.3 C 6.9 g/m*3 23.3 C 0 km/h
2922 09-09-2008 19:41:03 22.9 C 7.15 g/m*3 22.9 C 0 km/h
2923 09-09-2008 19:46:02 22.6 C 7.03 g/m*3 22.6 C 0 km/h
2924 09-09-2008 19:51:02 22.5 C 7.19 g/m*3 22.5 C 0 km/h
2925 09-09-2008 19:56:02 22.1 C 7.42 g/m*3 22.1 C 0 km/h
Sensor: Nr:Datum:Temp:Abs-Feuchte:Windchill:Wind:
Aussen-T/F 2926 09-09-2008 20:01:03 22.1 C 7.42 g/m*3 22.1 C 0 km/h
2927 09-09-2008 20:06:03 21.7 C 7.44 g/m*3 21.7 C 0 km/h
2928 09-09-2008 20:11:03 21.5 C 7.17 g/m*3 21.5 C 0 km/h
2929 09-09-2008 20:16:02 21.4 C 7.31 g/m*3 21.4 C 0 km/h
2930 09-09-2008 20:21:02 21.1 C 7 g/m*3 21.1 C 0 km/h
2931 09-09-2008 20:26:03 20.8 C 7.42 g/m*3 20.8 C 0 km/h
2932 09-09-2008 20:31:02 20.7 C 7.38 g/m*3 20.7 C 0 km/h
2933 09-09-2008 20:36:02 20.4 C 7.25 g/m*3 20.4 C 0 km/h
2934 09-09-2008 20:41:02 20.4 C 7.25 g/m*3 20.4 C 0 km/h
2935 09-09-2008 20:46:02 20.3 C 7.39 g/m*3 20.3 C 0 km/h
2936 09-09-2008 20:51:02 20.2 C 7.52 g/m*3 20.2 C 0 km/h
2937 09-09-2008 20:56:02 20.2 C 7.52 g/m*3 20.2 C 0 km/h
2938 09-09-2008 21:01:02 20.1 C 7.65 g/m*3 20.1 C 0 km/h
2939 09-09-2008 21:06:02 20.1 C 7.65 g/m*3 20.1 C 0 km/h
2940 09-09-2008 21:11:02 20 C 7.6 g/m*3 20 C 0 km/h
2941 09-09-2008 21:16:01 19.9 C 7.73 g/m*3 19.9 C 0 km/h
2942 09-09-2008 21:21:01 19.9 C 7.56 g/m*3 19.9 C 0 km/h
2943 09-09-2008 21:26:01 19.9 C 7.73 g/m*3 19.9 C 0 km/h
2944 09-09-2008 21:31:02 19.7 C 7.81 g/m*3 19.7 C 0 km/h
2945 09-09-2008 21:36:03 20.1 C 8 g/m*3 20.1 C 0 km/h
2946 09-09-2008 21:41:03 19.8 C 8.2 g/m*3 19.8 C 0 km/h
2947 09-09-2008 21:46:02 19.7 C 8.15 g/m*3 19.7 C 0 km/h
2948 09-09-2008 21:51:02 19.8 C 8.2 g/m*3 19.8 C 0 km/h
2949 09-09-2008 21:56:02 19.8 C 8.2 g/m*3 19.8 C 0 km/h
2950 09-09-2008 22:01:03 20 C 8.12 g/m*3 20 C 0 km/h
Sensor: Nr:Datum:Temp:Abs-Feuchte:Windchill:Wind:
Aussen-T/F 2951 09-09-2008 22:06:03 20.1 C 8 g/m*3 20.1 C 0 km/h
2952 09-09-2008 22:11:03 20.1 C 8 g/m*3 20.1 C 0 km/h
2953 09-09-2008 22:16:02 20.1 C 8.17 g/m*3 20.1 C 0 km/h
2954 09-09-2008 22:21:02 20.1 C 8.34 g/m*3 20.1 C 0 km/h
2955 09-09-2008 22:26:03 19.9 C 8.59 g/m*3 19.9 C 0 km/h
2956 09-09-2008 22:32:03 19.8 C 8.54 g/m*3 19.8 C 0 km/h
2957 09-09-2008 22:37:03 19.7 C 8.15 g/m*3 19.7 C 0 km/h
2958 09-09-2008 22:42:03 19.9 C 8.59 g/m*3 19.9 C 0 km/h
2959 09-09-2008 22:47:03 19.9 C 8.59 g/m*3 19.9 C 0 km/h
2960 09-09-2008 22:52:04 19.9 C 8.76 g/m*3 19.9 C 0 km/h
2961 09-09-2008 22:57:04 19.8 C 8.71 g/m*3 19.8 C 0 km/h
2962 09-09-2008 23:02:04 19.8 C 8.88 g/m*3 19.8 C 0 km/h
2963 09-09-2008 23:07:04 19.8 C 8.88 g/m*3 19.8 C 0 km/h
2964 09-09-2008 23:12:04 19.8 C 8.88 g/m*3 19.8 C 0 km/h
2965 09-09-2008 23:17:04 19.8 C 8.88 g/m*3 19.8 C 0 km/h
2966 09-09-2008 23:22:04 19.8 C 9.22 g/m*3 19.8 C 0 km/h
2967 09-09-2008 23:27:04 19.8 C 9.05 g/m*3 19.8 C 0 km/h
2968 09-09-2008 23:32:04 19.8 C 8.88 g/m*3 19.8 C 0 km/h
2969 09-09-2008 23:37:04 19.8 C 9.05 g/m*3 19.8 C 0 km/h
2970 09-09-2008 23:42:04 19.7 C 9 g/m*3 19.7 C 0 km/h
2971 09-09-2008 23:47:04 19.7 C 9.17 g/m*3 19.7 C 0 km/h
2972 09-09-2008 23:52:04 19.7 C 9.17 g/m*3 19.7 C 0 km/h
2973 09-09-2008 23:57:04 19.7 C 9.17 g/m*3 19.7 C 0 km/h
2974 10-09-2008 00:02:04 19.5 C 9.06 g/m*3 19.5 C 0 km/h
2975 10-09-2008 00:07:04 19.5 C 8.89 g/m*3 19.5 C 0 km/h
Sensor: Nr:Datum:Temp:Abs-Feuchte:Windchill:Wind:
Aussen-T/F 2976 10-09-2008 00:12:04 19.6 C 9.12 g/m*3 19.6 C 0 km/h
2977 10-09-2008 00:17:04 19.4 C 9.34 g/m*3 19.4 C 0 km/h
2978 10-09-2008 00:22:04 19.2 C 9.4 g/m*3 19.2 C 0 km/h
2979 10-09-2008 00:27:04 18.9 C 10.04 g/m*3 18.9 C 0 km/h
2980 10-09-2008 00:32:04 18.9 C 10.04 g/m*3 18.9 C 0 km/h
2981 10-09-2008 00:37:05 18.8 C 9.82 g/m*3 18.8 C 0 km/h
2982 10-09-2008 00:42:05 18.8 C 9.66 g/m*3 18.8 C 0 km/h
2983 10-09-2008 00:47:05 18.9 C 9.56 g/m*3 18.9 C 0 km/h
2984 10-09-2008 00:52:05 18.9 C 9.72 g/m*3 18.9 C 0 km/h
2985 10-09-2008 00:57:05 18.8 C 9.66 g/m*3 18.8 C 0 km/h
2986 10-09-2008 01:02:05 18.7 C 9.45 g/m*3 18.7 C 0 km/h
2987 10-09-2008 01:07:05 18.5 C 9.65 g/m*3 18.5 C 0 km/h
2988 10-09-2008 01:12:05 18.4 C 9.75 g/m*3 18.4 C 0 km/h
2989 10-09-2008 01:17:05 18.2 C 9.64 g/m*3 18.2 C 0 km/h
2990 10-09-2008 01:22:05 18 C 9.68 g/m*3 18 C 0 km/h
2991 10-09-2008 01:27:05 17.9 C 9.92 g/m*3 17.9 C 0 km/h
2992 10-09-2008 01:32:05 17.8 C 9.87 g/m*3 17.8 C 0 km/h
2993 10-09-2008 01:37:05 17.9 C 9.92 g/m*3 17.9 C 0 km/h
2994 10-09-2008 01:42:05 18 C 9.83 g/m*3 18 C 0 km/h
2995 10-09-2008 01:47:05 18 C 9.83 g/m*3 18 C 0 km/h
2996 10-09-2008 01:52:05 18 C 9.83 g/m*3 18 C 0 km/h
2997 10-09-2008 01:57:05 18.1 C 9.73 g/m*3 18.1 C 0 km/h
2998 10-09-2008 02:02:05 18.1 C 9.73 g/m*3 18.1 C 0 km/h
2999 10-09-2008 02:07:05 18.1 C 9.58 g/m*3 18.1 C 0 km/h
3000 10-09-2008 02:12:05 17.9 C 9.62 g/m*3 17.9 C 0 km/h
Sensor: Nr:Datum:Temp:Abs-Feuchte:Windchill:Wind:
Aussen-T/F 3001 10-09-2008 02:17:06 17.8 C 9.71 g/m*3 17.8 C 0 km/h
3002 10-09-2008 02:22:06 17.7 C 9.66 g/m*3 17.7 C 0 km/h
3003 10-09-2008 02:27:06 17.5 C 9.54 g/m*3 17.5 C 0 km/h
3004 10-09-2008 02:32:06 17.4 C 9.48 g/m*3 17.4 C 0 km/h
3005 10-09-2008 02:37:06 17.3 C 9.58 g/m*3 17.3 C 0 km/h
3006 10-09-2008 02:42:06 17.2 C 9.67 g/m*3 17.2 C 0 km/h
3007 10-09-2008 02:47:06 17.2 C 9.67 g/m*3 17.2 C 0 km/h
3008 10-09-2008 02:52:06 17 C 9.55 g/m*3 17 C 0 km/h
3009 10-09-2008 02:57:06 16.9 C 9.78 g/m*3 16.9 C 0 km/h
3010 10-09-2008 03:02:06 16.9 C 9.78 g/m*3 16.9 C 0 km/h
3011 10-09-2008 03:07:06 16.9 C 9.78 g/m*3 16.9 C 0 km/h
3012 10-09-2008 03:12:06 16.7 C 9.81 g/m*3 16.7 C 0 km/h
3013 10-09-2008 03:17:06 16.6 C 9.75 g/m*3 16.6 C 0 km/h
3014 10-09-2008 03:22:06 16.6 C 9.75 g/m*3 16.6 C 0 km/h
3015 10-09-2008 03:27:06 16.6 C 9.75 g/m*3 16.6 C 0 km/h
3016 10-09-2008 03:32:06 16.4 C 9.77 g/m*3 16.4 C 0 km/h
3017 10-09-2008 03:37:06 16.4 C 9.77 g/m*3 16.4 C 0 km/h
3018 10-09-2008 03:42:06 16.3 C 9.71 g/m*3 16.3 C 0 km/h
3019 10-09-2008 03:47:06 16.2 C 9.65 g/m*3 16.2 C 0 km/h
3020 10-09-2008 03:52:06 16.2 C 9.79 g/m*3 16.2 C 0 km/h
3021 10-09-2008 03:57:06 16.2 C 9.79 g/m*3 16.2 C 0 km/h
3022 10-09-2008 04:02:07 16 C 9.81 g/m*3 16 C 0 km/h
3023 10-09-2008 04:07:07 15.9 C 10.02 g/m*3 15.9 C 0 km/h
3024 10-09-2008 04:12:07 15.9 C 10.02 g/m*3 15.9 C 0 km/h
3025 10-09-2008 04:17:07 15.9 C 10.02 g/m*3 15.9 C 0 km/h
Sensor: Nr:Datum:Temp:Abs-Feuchte:Windchill:Wind:
Aussen-T/F 3026 10-09-2008 04:22:07 15.8 C 9.96 g/m*3 15.8 C 0 km/h
3027 10-09-2008 04:27:07 15.8 C 9.96 g/m*3 15.8 C 0 km/h
3028 10-09-2008 04:32:07 15.8 C 9.96 g/m*3 15.8 C 0 km/h
3029 10-09-2008 04:37:07 15.8 C 9.96 g/m*3 15.8 C 0 km/h
3030 10-09-2008 04:42:07 15.8 C 10.1 g/m*3 15.8 C 0 km/h
3031 10-09-2008 04:47:07 15.8 C 10.1 g/m*3 15.8 C 0 km/h
3032 10-09-2008 04:52:07 15.7 C 10.17 g/m*3 15.7 C 0 km/h
3033 10-09-2008 04:57:07 15.7 C 10.17 g/m*3 15.7 C 0 km/h
3034 10-09-2008 05:02:07 15.6 C 10.11 g/m*3 15.6 C 0 km/h
3035 10-09-2008 05:07:07 15.6 C 10.11 g/m*3 15.6 C 0 km/h
3036 10-09-2008 05:12:07 15.6 C 10.24 g/m*3 15.6 C 0 km/h
3037 10-09-2008 05:17:07 15.5 C 10.31 g/m*3 15.5 C 0 km/h
3038 10-09-2008 05:22:07 15.5 C 10.31 g/m*3 15.5 C 0 km/h
3039 10-09-2008 05:27:07 15.5 C 10.31 g/m*3 15.5 C 0 km/h
3040 10-09-2008 05:32:07 15.5 C 10.57 g/m*3 15.5 C 0 km/h
3041 10-09-2008 05:37:07 15.6 C 10.77 g/m*3 15.6 C 0 km/h
3042 10-09-2008 05:42:07 15.8 C 11.04 g/m*3 15.8 C 0 km/h
3043 10-09-2008 05:47:08 15.8 C 11.04 g/m*3 15.8 C 0 km/h
3044 10-09-2008 05:52:08 16 C 11.04 g/m*3 16 C 0 km/h
3045 10-09-2008 05:57:08 16 C 10.9 g/m*3 16 C 0 km/h
3046 10-09-2008 06:02:08 15.9 C 10.83 g/m*3 15.9 C 0 km/h
3047 10-09-2008 06:07:08 16 C 10.76 g/m*3 16 C 0 km/h
3048 10-09-2008 06:12:08 16.1 C 10.83 g/m*3 16.1 C 0 km/h
3049 10-09-2008 06:17:08 16.1 C 10.69 g/m*3 16.1 C 0 km/h
3050 10-09-2008 06:22:08 16.1 C 10.69 g/m*3 16.1 C 0 km/h
Sensor: Nr:Datum:Temp:Abs-Feuchte:Windchill:Wind:
Aussen-T/F 3051 10-09-2008 06:27:08 15.9 C 10.56 g/m*3 15.9 C 0 km/h
3052 10-09-2008 06:32:08 15.7 C 10.57 g/m*3 15.7 C 0 km/h
3053 10-09-2008 06:37:08 15.7 C 10.57 g/m*3 15.7 C 0 km/h
3054 10-09-2008 06:42:08 15.6 C 10.51 g/m*3 15.6 C 0 km/h
3055 10-09-2008 06:47:02 15.6 C 10.64 g/m*3 15.6 C 0 km/h
3056 10-09-2008 06:52:02 15.6 C 10.64 g/m*3 15.6 C 0 km/h
3057 10-09-2008 06:57:02 15.8 C 10.9 g/m*3 15.8 C 0 km/h
3058 10-09-2008 07:02:02 15.8 C 10.9 g/m*3 15.8 C 0 km/h
3059 10-09-2008 07:07:02 15.7 C 10.84 g/m*3 15.7 C 0 km/h
3060 10-09-2008 07:12:02 15.7 C 10.84 g/m*3 15.7 C 0 km/h
3061 10-09-2008 07:17:02 15.8 C 10.9 g/m*3 15.8 C 0 km/h
3062 10-09-2008 07:22:02 15.8 C 10.9 g/m*3 15.8 C 0 km/h
3063 10-09-2008 07:27:02 15.8 C 10.9 g/m*3 15.8 C 0 km/h
3064 10-09-2008 07:32:02 16.2 C 11.03 g/m*3 16.2 C 0 km/h
3065 10-09-2008 07:37:02 16.2 C 10.89 g/m*3 16.2 C 0 km/h
3066 10-09-2008 07:42:02 16.2 C 10.89 g/m*3 16.2 C 0 km/h
3067 10-09-2008 07:47:01 16.5 C 11.09 g/m*3 16.5 C 0 km/h
3068 10-09-2008 07:52:01 16.5 C 11.09 g/m*3 16.5 C 0 km/h
3069 10-09-2008 07:57:01 16.8 C 11.01 g/m*3 16.8 C 0 km/h
3070 10-09-2008 08:02:02 17 C 10.85 g/m*3 17 C 0 km/h
3071 10-09-2008 08:07:02 17.1 C 10.77 g/m*3 17.1 C 0 km/h
3072 10-09-2008 08:12:02 17.2 C 10.84 g/m*3 17.2 C 0 km/h
3073 10-09-2008 08:17:01 17.1 C 10.77 g/m*3 17.1 C 0 km/h
3074 10-09-2008 08:22:01 17.9 C 11.3 g/m*3 17.9 C 0 km/h
3075 10-09-2008 08:27:01 17.2 C 10.84 g/m*3 17.2 C 0 km/h
Sensor: Nr:Datum:Temp:Abs-Feuchte:Windchill:Wind:
Aussen-T/F 3076 10-09-2008 08:32:02 17.4 C 10.82 g/m*3 17.4 C 0 km/h
3077 10-09-2008 08:37:02 17.5 C 10.88 g/m*3 17.5 C 0 km/h
3078 10-09-2008 08:42:02 17.5 C 10.88 g/m*3 17.5 C 0 km/h
3079 10-09-2008 08:47:02 17.5 C 10.88 g/m*3 17.5 C 0 km/h
3080 10-09-2008 08:52:02 17.5 C 10.88 g/m*3 17.5 C 0 km/h
3081 10-09-2008 08:57:02 17.6 C 10.95 g/m*3 17.6 C 0 km/h
3082 10-09-2008 09:02:01 17.8 C 11.08 g/m*3 17.8 C 0 km/h
3083 10-09-2008 09:07:01 17.9 C 10.99 g/m*3 17.9 C 0 km/h
3084 10-09-2008 09:12:01 18 C 11.06 g/m*3 18 C 0 km/h
3085 10-09-2008 09:17:02 18.1 C 11.12 g/m*3 18.1 C 0 km/h
3086 10-09-2008 09:22:02 18.3 C 11.1 g/m*3 18.3 C 0 km/h
3087 10-09-2008 09:27:02 18.4 C 11.17 g/m*3 18.4 C 0 km/h
3088 10-09-2008 09:32:01 18.5 C 11.08 g/m*3 18.5 C 0 km/h
3089 10-09-2008 09:37:01 18.8 C 11.27 g/m*3 18.8 C 0 km/h
3090 10-09-2008 09:42:02 19 C 10.92 g/m*3 19 C 0 km/h
3091 10-09-2008 09:47:02 19 C 10.92 g/m*3 19 C 0 km/h
3092 10-09-2008 09:52:02 19.4 C 11.18 g/m*3 19.4 C 0 km/h
3093 10-09-2008 09:57:02 20 C 11.23 g/m*3 20 C 0 km/h
3094 10-09-2008 10:02:02 20.1 C 11.13 g/m*3 20.1 C 0 km/h
3095 10-09-2008 10:07:02 20.5 C 11.03 g/m*3 20.5 C 0 km/h
3096 10-09-2008 10:12:02 20.8 C 11.23 g/m*3 20.8 C 0 km/h
3097 10-09-2008 10:17:01 21 C 10.99 g/m*3 21 C 0 km/h
3098 10-09-2008 10:22:01 21.3 C 11.18 g/m*3 21.3 C 0 km/h
3099 10-09-2008 10:27:01 21.4 C 11.25 g/m*3 21.4 C 0 km/h
3100 10-09-2008 10:32:02 21.5 C 11.31 g/m*3 21.5 C 0 km/h
Sensor: Nr:Datum:Temp:Abs-Feuchte:Windchill:Wind:
Aussen-T/F 3101 10-09-2008 10:37:02 21.6 C 11.19 g/m*3 21.6 C 0 km/h
3102 10-09-2008 10:42:02 21.5 C 11.13 g/m*3 21.5 C 0 km/h
3103 10-09-2008 10:47:02 21.5 C 11.13 g/m*3 21.5 C 0 km/h
3104 10-09-2008 10:52:02 21.5 C 11.13 g/m*3 21.5 C 0 km/h
3105 10-09-2008 10:57:03 21.4 C 11.06 g/m*3 21.4 C 0 km/h
3106 10-09-2008 11:02:02 21.4 C 11.25 g/m*3 21.4 C 0 km/h
3107 10-09-2008 11:07:02 21.6 C 11.19 g/m*3 21.6 C 0 km/h
3108 10-09-2008 11:12:02 21.9 C 11.19 g/m*3 21.9 C 0 km/h
3109 10-09-2008 11:17:02 22.1 C 10.93 g/m*3 22.1 C 0 km/h
3110 10-09-2008 11:22:02 22.2 C 10.99 g/m*3 22.2 C 0 km/h
3111 10-09-2008 11:27:02 22.5 C 10.99 g/m*3 22.5 C 0 km/h
3112 10-09-2008 11:32:02 22.6 C 11.05 g/m*3 22.6 C 0 km/h
3113 10-09-2008 11:37:02 22.7 C 11.31 g/m*3 22.7 C 0 km/h
3114 10-09-2008 11:42:02 22.7 C 11.11 g/m*3 22.7 C 0 km/h
3115 10-09-2008 11:47:02 22.6 C 11.25 g/m*3 22.6 C 0 km/h
3116 10-09-2008 11:52:02 22.6 C 11.25 g/m*3 22.6 C 0 km/h
3117 10-09-2008 11:57:02 22.7 C 11.31 g/m*3 22.7 C 0 km/h
3118 10-09-2008 12:02:02 23 C 11.1 g/m*3 23 C 0 km/h
3119 10-09-2008 12:07:03 23.2 C 11.02 g/m*3 23.2 C 0 km/h
3120 10-09-2008 12:12:03 23.2 C 11.02 g/m*3 23.2 C 0 km/h
3121 10-09-2008 12:17:02 23.5 C 11.21 g/m*3 23.5 C 0 km/h
3122 10-09-2008 12:22:02 23.4 C 11.14 g/m*3 23.4 C 0 km/h
3123 10-09-2008 12:27:02 23.2 C 11.23 g/m*3 23.2 C 0 km/h
3124 10-09-2008 12:32:02 23.2 C 11.23 g/m*3 23.2 C 0 km/h
3125 10-09-2008 12:37:02 23.5 C 11.42 g/m*3 23.5 C 0 km/h
Sensor: Nr:Datum:Temp:Abs-Feuchte:Windchill:Wind:
Aussen-T/F 3126 10-09-2008 12:42:02 24 C 11.1 g/m*3 24 C 0 km/h
3127 10-09-2008 12:47:02 24 C 10.88 g/m*3 24 C 0 km/h
3128 10-09-2008 12:52:02 24.2 C 11 g/m*3 24.2 C 0 km/h
3129 10-09-2008 12:57:03 24.4 C 10.9 g/m*3 24.4 C 0 km/h
3130 10-09-2008 13:02:01 24.5 C 10.97 g/m*3 24.5 C 0 km/h
3131 10-09-2008 13:07:01 24.9 C 10.76 g/m*3 24.9 C 0 km/h
3132 10-09-2008 13:12:01 25 C 10.59 g/m*3 25 C 0 km/h
3133 10-09-2008 13:17:02 24.9 C 10.53 g/m*3 24.9 C 0 km/h
3134 10-09-2008 13:22:02 24.8 C 10.7 g/m*3 24.8 C 0 km/h
3135 10-09-2008 13:27:02 24.7 C 10.41 g/m*3 24.7 C 0 km/h
3136 10-09-2008 13:32:02 24.9 C 10.99 g/m*3 24.9 C 0 km/h
3137 10-09-2008 13:37:02 24.9 C 10.76 g/m*3 24.9 C 0 km/h
3138 10-09-2008 13:42:02 24.6 C 10.58 g/m*3 24.6 C 0 km/h
3139 10-09-2008 13:47:01 24.4 C 10.46 g/m*3 24.4 C 0 km/h
3140 10-09-2008 13:52:01 24.4 C 10.46 g/m*3 24.4 C 0 km/h
3141 10-09-2008 13:57:01 24.6 C 10.8 g/m*3 24.6 C 0 km/h
3142 10-09-2008 14:02:02 25.4 C 10.83 g/m*3 25.4 C 0 km/h
3143 10-09-2008 14:07:02 25.7 C 10.29 g/m*3 25.7 C 0 km/h
3144 10-09-2008 14:12:02 26 C 10.23 g/m*3 26 C 0 km/h
3145 10-09-2008 14:17:02 26.1 C 9.79 g/m*3 26.1 C 0 km/h
3146 10-09-2008 14:22:02 25.9 C 9.93 g/m*3 25.9 C 0 km/h
3147 10-09-2008 14:27:02 25.9 C 9.93 g/m*3 25.9 C 0 km/h
3148 10-09-2008 14:32:02 25.8 C 9.87 g/m*3 25.8 C 0 km/h
3149 10-09-2008 14:37:02 25.5 C 9.71 g/m*3 25.5 C 0 km/h
3150 10-09-2008 14:42:02 25.6 C 9.76 g/m*3 25.6 C 0 km/h
Sensor: Nr:Datum:Temp:Abs-Feuchte:Windchill:Wind:
Aussen-T/F 3151 10-09-2008 14:47:02 25.6 C 10 g/m*3 25.6 C 0 km/h
3152 10-09-2008 14:52:03 25.7 C 9.82 g/m*3 25.7 C 0 km/h
3153 10-09-2008 14:57:03 25.9 C 9.68 g/m*3 25.9 C 0 km/h
3154 10-09-2008 15:02:01 26.5 C 9.51 g/m*3 26.5 C 0 km/h
3155 10-09-2008 15:07:01 26.6 C 9.57 g/m*3 26.6 C 0 km/h
3156 10-09-2008 15:12:01 26.8 C 9.67 g/m*3 26.8 C 0 km/h
3157 10-09-2008 15:17:02 26.9 C 9.47 g/m*3 26.9 C 0 km/h
3158 10-09-2008 15:22:02 27.3 C 9.42 g/m*3 27.3 C 0 km/h
3159 10-09-2008 15:27:02 27.3 C 9.16 g/m*3 27.3 C 0 km/h
3160 10-09-2008 15:32:01 27.2 C 9.11 g/m*3 27.2 C 0 km/h
3161 10-09-2008 15:37:01 27.3 C 9.42 g/m*3 27.3 C 0 km/h
3162 10-09-2008 15:42:01 27.1 C 9.32 g/m*3 27.1 C 0 km/h
3163 10-09-2008 15:47:01 26.9 C 9.21 g/m*3 26.9 C 0 km/h
3164 10-09-2008 15:52:01 27 C 9.26 g/m*3 27 C 0 km/h
3165 10-09-2008 15:57:01 26.7 C 9.37 g/m*3 26.7 C 0 km/h
3166 10-09-2008 16:02:02 26.9 C 9.73 g/m*3 26.9 C 0 km/h
3167 10-09-2008 16:07:02 26.8 C 9.42 g/m*3 26.8 C 0 km/h
3168 10-09-2008 16:12:02 27 C 9.01 g/m*3 27 C 0 km/h
3169 10-09-2008 16:17:01 27 C 9.01 g/m*3 27 C 0 km/h
3170 10-09-2008 16:22:01 27.4 C 9.21 g/m*3 27.4 C 0 km/h
3171 10-09-2008 16:27:01 27.7 C 9.36 g/m*3 27.7 C 0 km/h
3172 10-09-2008 16:32:02 27.7 C 9.09 g/m*3 27.7 C 0 km/h
3173 10-09-2008 16:37:02 27.5 C 8.73 g/m*3 27.5 C 0 km/h
3174 10-09-2008 16:42:02 27.8 C 9.15 g/m*3 27.8 C 0 km/h
3175 10-09-2008 16:47:02 27.9 C 8.92 g/m*3 27.9 C 0 km/h
Sensor: Nr:Datum:Temp:Abs-Feuchte:Windchill:Wind:
Aussen-T/F 3176 10-09-2008 16:52:03 27.8 C 8.88 g/m*3 27.8 C 0 km/h
3177 10-09-2008 16:57:03 27.8 C 8.88 g/m*3 27.8 C 0 km/h
3178 10-09-2008 17:02:02 27.6 C 8.78 g/m*3 27.6 C 0 km/h
3179 10-09-2008 17:07:02 27.6 C 9.04 g/m*3 27.6 C 0 km/h
3180 10-09-2008 17:12:02 27.3 C 8.9 g/m*3 27.3 C 0 km/h
3181 10-09-2008 17:17:02 27.7 C 9.09 g/m*3 27.7 C 0 km/h
3182 10-09-2008 17:22:02 27.8 C 8.88 g/m*3 27.8 C 0 km/h
3183 10-09-2008 17:27:02 27.8 C 8.88 g/m*3 27.8 C 0 km/h
3184 10-09-2008 17:32:02 28 C 8.7 g/m*3 28 C 0 km/h
3185 10-09-2008 17:37:02 28.3 C 8.57 g/m*3 28.3 C 0 km/h
3186 10-09-2008 17:42:02 28 C 8.43 g/m*3 28 C 0 km/h
3187 10-09-2008 17:47:02 28.2 C 8.52 g/m*3 28.2 C 0 km/h
3188 10-09-2008 17:52:02 27.7 C 8.83 g/m*3 27.7 C 0 km/h
3189 10-09-2008 17:57:02 27.6 C 8.78 g/m*3 27.6 C 0 km/h
3190 10-09-2008 18:02:02 27.5 C 9 g/m*3 27.5 C 0 km/h
3191 10-09-2008 18:07:02 27.5 C 9 g/m*3 27.5 C 0 km/h
3192 10-09-2008 18:12:02 27.7 C 8.83 g/m*3 27.7 C 0 km/h
3193 10-09-2008 18:17:02 27.9 C 8.92 g/m*3 27.9 C 0 km/h
3194 10-09-2008 18:22:02 27.3 C 8.63 g/m*3 27.3 C 0 km/h
3195 10-09-2008 18:27:02 27.4 C 8.95 g/m*3 27.4 C 0 km/h
3196 10-09-2008 18:32:02 27.2 C 9.11 g/m*3 27.2 C 0 km/h
3197 10-09-2008 18:37:02 27.5 C 9.26 g/m*3 27.5 C 0 km/h
3198 10-09-2008 18:42:02 27.7 C 9.36 g/m*3 27.7 C 0 km/h
3199 10-09-2008 18:47:02 27.5 C 9 g/m*3 27.5 C 0 km/h
3200 10-09-2008 18:52:02 27.4 C 8.95 g/m*3 27.4 C 0 km/h
Sensor: Nr:Datum:Temp:Abs-Feuchte:Windchill:Wind:
Aussen-T/F 3201 10-09-2008 18:57:02 27.2 C 8.85 g/m*3 27.2 C 0 km/h
3202 10-09-2008 19:02:01 26.6 C 8.81 g/m*3 26.6 C 0 km/h
3203 10-09-2008 19:07:01 26.5 C 9.01 g/m*3 26.5 C 0 km/h
3204 10-09-2008 19:12:01 26.4 C 9.46 g/m*3 26.4 C 0 km/h
3205 10-09-2008 19:17:02 26.3 C 9.41 g/m*3 26.3 C 0 km/h
3206 10-09-2008 19:22:02 26 C 9.25 g/m*3 26 C 0 km/h
3207 10-09-2008 19:27:02 25.8 C 9.63 g/m*3 25.8 C 0 km/h
3208 10-09-2008 19:32:01 25.3 C 9.6 g/m*3 25.3 C 0 km/h
3209 10-09-2008 19:37:01 24.7 C 9.51 g/m*3 24.7 C 0 km/h
3210 10-09-2008 19:42:01 24.4 C 9.79 g/m*3 24.4 C 0 km/h
3211 10-09-2008 19:47:01 23.9 C 9.95 g/m*3 23.9 C 0 km/h
3212 10-09-2008 19:52:01 23.7 C 9.84 g/m*3 23.7 C 0 km/h
3213 10-09-2008 19:57:01 23.6 C 10 g/m*3 23.6 C 0 km/h
3214 10-09-2008 20:02:02 23.3 C 10.04 g/m*3 23.3 C 0 km/h
3215 10-09-2008 20:07:02 23.1 C 10.13 g/m*3 23.1 C 0 km/h
3216 10-09-2008 20:12:02 22.9 C 10.42 g/m*3 22.9 C 0 km/h
3217 10-09-2008 20:17:01 22.7 C 10.51 g/m*3 22.7 C 0 km/h
3218 10-09-2008 20:22:01 22.5 C 10.39 g/m*3 22.5 C 0 km/h
3219 10-09-2008 20:27:01 22.5 C 10.59 g/m*3 22.5 C 0 km/h
3220 10-09-2008 20:32:02 22.3 C 10.66 g/m*3 22.3 C 0 km/h
3221 10-09-2008 20:37:02 22.2 C 10.6 g/m*3 22.2 C 0 km/h
3222 10-09-2008 20:42:02 22.1 C 10.74 g/m*3 22.1 C 0 km/h
3223 10-09-2008 20:47:02 21.9 C 11 g/m*3 21.9 C 0 km/h